<?xml version="1.0" encoding="UTF-8" standalone="no" ?>
<gpx xmlns="http://www.topografix.com/GPX/1/1" xmlns:xsi="http://www.w3.org/2001/XMLSchema-instance" xsi:schemaLocation="http://www.topografix.com/GPX/1/1 http://www.topografix.com/GPX/1/1/gpx.xsd" version="1.1" creator="VisuGPX - https://www.visugpx.com">
  <metadata>
    <name>VTT - Montagne du Gravas</name>
    <desc><![CDATA[Petit tour en VTT sur la Montagne du Gravas, très jolie coin.]]></desc>
  </metadata>
  <trk>
    <name><![CDATA[27-MARS-22 12:41:21]]></name>
    <trkseg>
      <trkpt lat="44.27652" lon="5.31696">
        <ele>558.18</ele>
        <time>2022-03-27T07:15:00Z</time>
      </trkpt>
      <trkpt lat="44.27652" lon="5.31696">
        <ele>559.14</ele>
        <time>2022-03-27T07:15:02Z</time>
      </trkpt>
      <trkpt lat="44.27651" lon="5.31696">
        <ele>562.03</ele>
        <time>2022-03-27T07:15:04Z</time>
      </trkpt>
      <trkpt lat="44.27651" lon="5.31696">
        <ele>565.87</ele>
        <time>2022-03-27T07:15:08Z</time>
      </trkpt>
      <trkpt lat="44.27651" lon="5.31695">
        <ele>569.72</ele>
        <time>2022-03-27T07:15:12Z</time>
      </trkpt>
      <trkpt lat="44.2765" lon="5.31695">
        <ele>569.72</ele>
        <time>2022-03-27T07:15:13Z</time>
      </trkpt>
      <trkpt lat="44.2765" lon="5.31695">
        <ele>573.56</ele>
        <time>2022-03-27T07:15:18Z</time>
      </trkpt>
      <trkpt lat="44.2765" lon="5.31696">
        <ele>574.53</ele>
        <time>2022-03-27T07:15:20Z</time>
      </trkpt>
      <trkpt lat="44.27649" lon="5.31696">
        <ele>577.41</ele>
        <time>2022-03-27T07:15:25Z</time>
      </trkpt>
      <trkpt lat="44.27648" lon="5.31697">
        <ele>578.37</ele>
        <time>2022-03-27T07:15:27Z</time>
      </trkpt>
      <trkpt lat="44.27635" lon="5.31697">
        <ele>579.81</ele>
        <time>2022-03-27T07:15:33Z</time>
      </trkpt>
      <trkpt lat="44.27626" lon="5.31721">
        <ele>582.7</ele>
        <time>2022-03-27T07:15:39Z</time>
      </trkpt>
      <trkpt lat="44.27618" lon="5.31734">
        <ele>586.06</ele>
        <time>2022-03-27T07:15:45Z</time>
      </trkpt>
      <trkpt lat="44.27614" lon="5.31744">
        <ele>589.43</ele>
        <time>2022-03-27T07:15:51Z</time>
      </trkpt>
      <trkpt lat="44.27614" lon="5.31745">
        <ele>589.91</ele>
        <time>2022-03-27T07:15:52Z</time>
      </trkpt>
      <trkpt lat="44.27614" lon="5.31747">
        <ele>590.39</ele>
        <time>2022-03-27T07:15:53Z</time>
      </trkpt>
      <trkpt lat="44.27613" lon="5.3175">
        <ele>590.87</ele>
        <time>2022-03-27T07:15:54Z</time>
      </trkpt>
      <trkpt lat="44.27612" lon="5.31752">
        <ele>591.35</ele>
        <time>2022-03-27T07:15:55Z</time>
      </trkpt>
      <trkpt lat="44.27611" lon="5.31753">
        <ele>591.83</ele>
        <time>2022-03-27T07:15:56Z</time>
      </trkpt>
      <trkpt lat="44.2761" lon="5.31755">
        <ele>592.31</ele>
        <time>2022-03-27T07:15:57Z</time>
      </trkpt>
      <trkpt lat="44.2761" lon="5.31757">
        <ele>592.79</ele>
        <time>2022-03-27T07:15:58Z</time>
      </trkpt>
      <trkpt lat="44.27611" lon="5.31759">
        <ele>593.27</ele>
        <time>2022-03-27T07:15:59Z</time>
      </trkpt>
      <trkpt lat="44.27611" lon="5.31761">
        <ele>593.27</ele>
        <time>2022-03-27T07:16:00Z</time>
      </trkpt>
      <trkpt lat="44.27612" lon="5.31763">
        <ele>593.75</ele>
        <time>2022-03-27T07:16:01Z</time>
      </trkpt>
      <trkpt lat="44.27614" lon="5.31765">
        <ele>594.23</ele>
        <time>2022-03-27T07:16:02Z</time>
      </trkpt>
      <trkpt lat="44.27615" lon="5.31766">
        <ele>594.71</ele>
        <time>2022-03-27T07:16:03Z</time>
      </trkpt>
      <trkpt lat="44.27616" lon="5.31768">
        <ele>594.71</ele>
        <time>2022-03-27T07:16:04Z</time>
      </trkpt>
      <trkpt lat="44.27619" lon="5.31771">
        <ele>596.64</ele>
        <time>2022-03-27T07:16:07Z</time>
      </trkpt>
      <trkpt lat="44.2762" lon="5.31772">
        <ele>596.64</ele>
        <time>2022-03-27T07:16:08Z</time>
      </trkpt>
      <trkpt lat="44.27621" lon="5.31773">
        <ele>597.12</ele>
        <time>2022-03-27T07:16:09Z</time>
      </trkpt>
      <trkpt lat="44.27622" lon="5.31774">
        <ele>597.6</ele>
        <time>2022-03-27T07:16:10Z</time>
      </trkpt>
      <trkpt lat="44.27623" lon="5.31777">
        <ele>600</ele>
        <time>2022-03-27T07:16:20Z</time>
      </trkpt>
      <trkpt lat="44.27625" lon="5.31776">
        <ele>600</ele>
        <time>2022-03-27T07:16:25Z</time>
      </trkpt>
      <trkpt lat="44.27627" lon="5.31777">
        <ele>600</ele>
        <time>2022-03-27T07:16:26Z</time>
      </trkpt>
      <trkpt lat="44.27628" lon="5.31778">
        <ele>600.48</ele>
        <time>2022-03-27T07:16:27Z</time>
      </trkpt>
      <trkpt lat="44.27629" lon="5.31779">
        <ele>600.48</ele>
        <time>2022-03-27T07:16:28Z</time>
      </trkpt>
      <trkpt lat="44.2763" lon="5.31781">
        <ele>600.96</ele>
        <time>2022-03-27T07:16:29Z</time>
      </trkpt>
      <trkpt lat="44.27632" lon="5.31782">
        <ele>601.44</ele>
        <time>2022-03-27T07:16:30Z</time>
      </trkpt>
      <trkpt lat="44.27632" lon="5.31783">
        <ele>601.92</ele>
        <time>2022-03-27T07:16:31Z</time>
      </trkpt>
      <trkpt lat="44.27633" lon="5.31784">
        <ele>601.92</ele>
        <time>2022-03-27T07:16:32Z</time>
      </trkpt>
      <trkpt lat="44.27634" lon="5.31785">
        <ele>602.4</ele>
        <time>2022-03-27T07:16:33Z</time>
      </trkpt>
      <trkpt lat="44.27636" lon="5.31787">
        <ele>602.88</ele>
        <time>2022-03-27T07:16:35Z</time>
      </trkpt>
      <trkpt lat="44.27642" lon="5.31798">
        <ele>605.77</ele>
        <time>2022-03-27T07:16:44Z</time>
      </trkpt>
      <trkpt lat="44.27638" lon="5.31812">
        <ele>607.69</ele>
        <time>2022-03-27T07:16:52Z</time>
      </trkpt>
      <trkpt lat="44.27638" lon="5.31814">
        <ele>608.17</ele>
        <time>2022-03-27T07:16:53Z</time>
      </trkpt>
      <trkpt lat="44.27638" lon="5.31816">
        <ele>608.65</ele>
        <time>2022-03-27T07:16:54Z</time>
      </trkpt>
      <trkpt lat="44.27637" lon="5.31829">
        <ele>609.61</ele>
        <time>2022-03-27T07:17:00Z</time>
      </trkpt>
      <trkpt lat="44.27637" lon="5.31831">
        <ele>610.09</ele>
        <time>2022-03-27T07:17:01Z</time>
      </trkpt>
      <trkpt lat="44.27637" lon="5.31833">
        <ele>610.09</ele>
        <time>2022-03-27T07:17:02Z</time>
      </trkpt>
      <trkpt lat="44.27637" lon="5.31836">
        <ele>610.57</ele>
        <time>2022-03-27T07:17:03Z</time>
      </trkpt>
      <trkpt lat="44.27637" lon="5.31839">
        <ele>610.57</ele>
        <time>2022-03-27T07:17:04Z</time>
      </trkpt>
      <trkpt lat="44.27636" lon="5.31841">
        <ele>610.57</ele>
        <time>2022-03-27T07:17:05Z</time>
      </trkpt>
      <trkpt lat="44.27636" lon="5.31846">
        <ele>610.57</ele>
        <time>2022-03-27T07:17:07Z</time>
      </trkpt>
      <trkpt lat="44.27636" lon="5.31848">
        <ele>610.57</ele>
        <time>2022-03-27T07:17:08Z</time>
      </trkpt>
      <trkpt lat="44.27635" lon="5.3185">
        <ele>611.06</ele>
        <time>2022-03-27T07:17:09Z</time>
      </trkpt>
      <trkpt lat="44.27634" lon="5.31852">
        <ele>611.06</ele>
        <time>2022-03-27T07:17:10Z</time>
      </trkpt>
      <trkpt lat="44.27634" lon="5.31855">
        <ele>611.54</ele>
        <time>2022-03-27T07:17:11Z</time>
      </trkpt>
      <trkpt lat="44.27633" lon="5.31857">
        <ele>611.54</ele>
        <time>2022-03-27T07:17:12Z</time>
      </trkpt>
      <trkpt lat="44.27633" lon="5.31859">
        <ele>611.54</ele>
        <time>2022-03-27T07:17:13Z</time>
      </trkpt>
      <trkpt lat="44.27632" lon="5.31861">
        <ele>612.02</ele>
        <time>2022-03-27T07:17:14Z</time>
      </trkpt>
      <trkpt lat="44.27632" lon="5.31864">
        <ele>612.02</ele>
        <time>2022-03-27T07:17:15Z</time>
      </trkpt>
      <trkpt lat="44.27638" lon="5.31889">
        <ele>613.46</ele>
        <time>2022-03-27T07:17:27Z</time>
      </trkpt>
      <trkpt lat="44.27643" lon="5.31897">
        <ele>614.9</ele>
        <time>2022-03-27T07:17:32Z</time>
      </trkpt>
      <trkpt lat="44.27652" lon="5.31903">
        <ele>616.34</ele>
        <time>2022-03-27T07:17:39Z</time>
      </trkpt>
      <trkpt lat="44.27654" lon="5.31903">
        <ele>616.82</ele>
        <time>2022-03-27T07:17:40Z</time>
      </trkpt>
      <trkpt lat="44.27655" lon="5.31902">
        <ele>616.82</ele>
        <time>2022-03-27T07:17:41Z</time>
      </trkpt>
      <trkpt lat="44.27657" lon="5.319">
        <ele>616.82</ele>
        <time>2022-03-27T07:17:42Z</time>
      </trkpt>
      <trkpt lat="44.27658" lon="5.31898">
        <ele>617.3</ele>
        <time>2022-03-27T07:17:43Z</time>
      </trkpt>
      <trkpt lat="44.27658" lon="5.31897">
        <ele>617.78</ele>
        <time>2022-03-27T07:17:44Z</time>
      </trkpt>
      <trkpt lat="44.2766" lon="5.31893">
        <ele>617.78</ele>
        <time>2022-03-27T07:17:46Z</time>
      </trkpt>
      <trkpt lat="44.2766" lon="5.31891">
        <ele>617.78</ele>
        <time>2022-03-27T07:17:47Z</time>
      </trkpt>
      <trkpt lat="44.2766" lon="5.3189">
        <ele>618.26</ele>
        <time>2022-03-27T07:17:48Z</time>
      </trkpt>
      <trkpt lat="44.2766" lon="5.31888">
        <ele>618.26</ele>
        <time>2022-03-27T07:17:49Z</time>
      </trkpt>
      <trkpt lat="44.2766" lon="5.31886">
        <ele>618.26</ele>
        <time>2022-03-27T07:17:50Z</time>
      </trkpt>
      <trkpt lat="44.2766" lon="5.31884">
        <ele>618.26</ele>
        <time>2022-03-27T07:17:51Z</time>
      </trkpt>
      <trkpt lat="44.27661" lon="5.31882">
        <ele>618.75</ele>
        <time>2022-03-27T07:17:52Z</time>
      </trkpt>
      <trkpt lat="44.27661" lon="5.31878">
        <ele>618.75</ele>
        <time>2022-03-27T07:17:54Z</time>
      </trkpt>
      <trkpt lat="44.27662" lon="5.31876">
        <ele>619.23</ele>
        <time>2022-03-27T07:17:55Z</time>
      </trkpt>
      <trkpt lat="44.27662" lon="5.31874">
        <ele>619.71</ele>
        <time>2022-03-27T07:17:56Z</time>
      </trkpt>
      <trkpt lat="44.27663" lon="5.31872">
        <ele>619.71</ele>
        <time>2022-03-27T07:17:57Z</time>
      </trkpt>
      <trkpt lat="44.27664" lon="5.31871">
        <ele>619.71</ele>
        <time>2022-03-27T07:17:58Z</time>
      </trkpt>
      <trkpt lat="44.27665" lon="5.3187">
        <ele>620.19</ele>
        <time>2022-03-27T07:17:59Z</time>
      </trkpt>
      <trkpt lat="44.27667" lon="5.3187">
        <ele>620.19</ele>
        <time>2022-03-27T07:18:00Z</time>
      </trkpt>
      <trkpt lat="44.27668" lon="5.31871">
        <ele>620.19</ele>
        <time>2022-03-27T07:18:01Z</time>
      </trkpt>
      <trkpt lat="44.27669" lon="5.31872">
        <ele>620.67</ele>
        <time>2022-03-27T07:18:02Z</time>
      </trkpt>
      <trkpt lat="44.2767" lon="5.31873">
        <ele>620.67</ele>
        <time>2022-03-27T07:18:03Z</time>
      </trkpt>
      <trkpt lat="44.27671" lon="5.31874">
        <ele>620.67</ele>
        <time>2022-03-27T07:18:04Z</time>
      </trkpt>
      <trkpt lat="44.27678" lon="5.31903">
        <ele>623.07</ele>
        <time>2022-03-27T07:18:19Z</time>
      </trkpt>
      <trkpt lat="44.27678" lon="5.31905">
        <ele>623.07</ele>
        <time>2022-03-27T07:18:20Z</time>
      </trkpt>
      <trkpt lat="44.27679" lon="5.31906">
        <ele>623.07</ele>
        <time>2022-03-27T07:18:21Z</time>
      </trkpt>
      <trkpt lat="44.27679" lon="5.31908">
        <ele>623.55</ele>
        <time>2022-03-27T07:18:22Z</time>
      </trkpt>
      <trkpt lat="44.2768" lon="5.3191">
        <ele>623.55</ele>
        <time>2022-03-27T07:18:23Z</time>
      </trkpt>
      <trkpt lat="44.2768" lon="5.31911">
        <ele>624.03</ele>
        <time>2022-03-27T07:18:24Z</time>
      </trkpt>
      <trkpt lat="44.2768" lon="5.31914">
        <ele>624.03</ele>
        <time>2022-03-27T07:18:25Z</time>
      </trkpt>
      <trkpt lat="44.27682" lon="5.31929">
        <ele>625.47</ele>
        <time>2022-03-27T07:18:33Z</time>
      </trkpt>
      <trkpt lat="44.27682" lon="5.31931">
        <ele>625.96</ele>
        <time>2022-03-27T07:18:34Z</time>
      </trkpt>
      <trkpt lat="44.27682" lon="5.31933">
        <ele>625.96</ele>
        <time>2022-03-27T07:18:35Z</time>
      </trkpt>
      <trkpt lat="44.27682" lon="5.31934">
        <ele>625.96</ele>
        <time>2022-03-27T07:18:36Z</time>
      </trkpt>
      <trkpt lat="44.27682" lon="5.31936">
        <ele>626.44</ele>
        <time>2022-03-27T07:18:37Z</time>
      </trkpt>
      <trkpt lat="44.27681" lon="5.31938">
        <ele>626.44</ele>
        <time>2022-03-27T07:18:38Z</time>
      </trkpt>
      <trkpt lat="44.2768" lon="5.31939">
        <ele>626.44</ele>
        <time>2022-03-27T07:18:39Z</time>
      </trkpt>
      <trkpt lat="44.2768" lon="5.31941">
        <ele>626.92</ele>
        <time>2022-03-27T07:18:40Z</time>
      </trkpt>
      <trkpt lat="44.27662" lon="5.31955">
        <ele>629.32</ele>
        <time>2022-03-27T07:18:53Z</time>
      </trkpt>
      <trkpt lat="44.27651" lon="5.31978">
        <ele>631.24</ele>
        <time>2022-03-27T07:19:06Z</time>
      </trkpt>
      <trkpt lat="44.27641" lon="5.32006">
        <ele>631.24</ele>
        <time>2022-03-27T07:19:19Z</time>
      </trkpt>
      <trkpt lat="44.2764" lon="5.32008">
        <ele>631.24</ele>
        <time>2022-03-27T07:19:20Z</time>
      </trkpt>
      <trkpt lat="44.27639" lon="5.3201">
        <ele>631.72</ele>
        <time>2022-03-27T07:19:21Z</time>
      </trkpt>
      <trkpt lat="44.27638" lon="5.32012">
        <ele>632.2</ele>
        <time>2022-03-27T07:19:22Z</time>
      </trkpt>
      <trkpt lat="44.27637" lon="5.32014">
        <ele>632.2</ele>
        <time>2022-03-27T07:19:23Z</time>
      </trkpt>
      <trkpt lat="44.27636" lon="5.32016">
        <ele>632.2</ele>
        <time>2022-03-27T07:19:24Z</time>
      </trkpt>
      <trkpt lat="44.27633" lon="5.32033">
        <ele>633.17</ele>
        <time>2022-03-27T07:19:37Z</time>
      </trkpt>
      <trkpt lat="44.27634" lon="5.32034">
        <ele>633.65</ele>
        <time>2022-03-27T07:19:47Z</time>
      </trkpt>
      <trkpt lat="44.27634" lon="5.32035">
        <ele>633.65</ele>
        <time>2022-03-27T07:20:22Z</time>
      </trkpt>
      <trkpt lat="44.27634" lon="5.32035">
        <ele>633.65</ele>
        <time>2022-03-27T07:20:51Z</time>
      </trkpt>
      <trkpt lat="44.27631" lon="5.32055">
        <ele>634.13</ele>
        <time>2022-03-27T07:21:01Z</time>
      </trkpt>
      <trkpt lat="44.27626" lon="5.32086">
        <ele>637.49</ele>
        <time>2022-03-27T07:21:14Z</time>
      </trkpt>
      <trkpt lat="44.27619" lon="5.32125">
        <ele>638.45</ele>
        <time>2022-03-27T07:21:28Z</time>
      </trkpt>
      <trkpt lat="44.27606" lon="5.32179">
        <ele>639.41</ele>
        <time>2022-03-27T07:21:44Z</time>
      </trkpt>
      <trkpt lat="44.2759" lon="5.32226">
        <ele>640.86</ele>
        <time>2022-03-27T07:21:58Z</time>
      </trkpt>
      <trkpt lat="44.27566" lon="5.3226">
        <ele>641.82</ele>
        <time>2022-03-27T07:22:12Z</time>
      </trkpt>
      <trkpt lat="44.27548" lon="5.32297">
        <ele>642.3</ele>
        <time>2022-03-27T07:22:24Z</time>
      </trkpt>
      <trkpt lat="44.27547" lon="5.32329">
        <ele>643.26</ele>
        <time>2022-03-27T07:22:37Z</time>
      </trkpt>
      <trkpt lat="44.27548" lon="5.32331">
        <ele>643.74</ele>
        <time>2022-03-27T07:22:38Z</time>
      </trkpt>
      <trkpt lat="44.27548" lon="5.32332">
        <ele>644.22</ele>
        <time>2022-03-27T07:22:39Z</time>
      </trkpt>
      <trkpt lat="44.2755" lon="5.32339">
        <ele>644.22</ele>
        <time>2022-03-27T07:22:43Z</time>
      </trkpt>
      <trkpt lat="44.27551" lon="5.32378">
        <ele>644.7</ele>
        <time>2022-03-27T07:22:59Z</time>
      </trkpt>
      <trkpt lat="44.27553" lon="5.32416">
        <ele>645.18</ele>
        <time>2022-03-27T07:23:13Z</time>
      </trkpt>
      <trkpt lat="44.27556" lon="5.32437">
        <ele>646.14</ele>
        <time>2022-03-27T07:23:21Z</time>
      </trkpt>
      <trkpt lat="44.27556" lon="5.3244">
        <ele>646.14</ele>
        <time>2022-03-27T07:23:22Z</time>
      </trkpt>
      <trkpt lat="44.27556" lon="5.32442">
        <ele>646.14</ele>
        <time>2022-03-27T07:23:23Z</time>
      </trkpt>
      <trkpt lat="44.27556" lon="5.32445">
        <ele>646.62</ele>
        <time>2022-03-27T07:23:24Z</time>
      </trkpt>
      <trkpt lat="44.27557" lon="5.32448">
        <ele>647.1</ele>
        <time>2022-03-27T07:23:25Z</time>
      </trkpt>
      <trkpt lat="44.27558" lon="5.32455">
        <ele>648.07</ele>
        <time>2022-03-27T07:23:28Z</time>
      </trkpt>
      <trkpt lat="44.27557" lon="5.32457">
        <ele>648.07</ele>
        <time>2022-03-27T07:23:29Z</time>
      </trkpt>
      <trkpt lat="44.27557" lon="5.32458">
        <ele>648.55</ele>
        <time>2022-03-27T07:23:30Z</time>
      </trkpt>
      <trkpt lat="44.27558" lon="5.3246">
        <ele>648.55</ele>
        <time>2022-03-27T07:23:31Z</time>
      </trkpt>
      <trkpt lat="44.27558" lon="5.3247">
        <ele>650.47</ele>
        <time>2022-03-27T07:23:37Z</time>
      </trkpt>
      <trkpt lat="44.27555" lon="5.32491">
        <ele>651.91</ele>
        <time>2022-03-27T07:23:50Z</time>
      </trkpt>
      <trkpt lat="44.27555" lon="5.32492">
        <ele>651.91</ele>
        <time>2022-03-27T07:23:51Z</time>
      </trkpt>
      <trkpt lat="44.27555" lon="5.32495">
        <ele>651.91</ele>
        <time>2022-03-27T07:23:53Z</time>
      </trkpt>
      <trkpt lat="44.27553" lon="5.32507">
        <ele>652.39</ele>
        <time>2022-03-27T07:24:00Z</time>
      </trkpt>
      <trkpt lat="44.27553" lon="5.32508">
        <ele>652.39</ele>
        <time>2022-03-27T07:24:01Z</time>
      </trkpt>
      <trkpt lat="44.27552" lon="5.32512">
        <ele>652.39</ele>
        <time>2022-03-27T07:24:03Z</time>
      </trkpt>
      <trkpt lat="44.27551" lon="5.32514">
        <ele>652.39</ele>
        <time>2022-03-27T07:24:04Z</time>
      </trkpt>
      <trkpt lat="44.27551" lon="5.32516">
        <ele>652.39</ele>
        <time>2022-03-27T07:24:05Z</time>
      </trkpt>
      <trkpt lat="44.27551" lon="5.3252">
        <ele>652.39</ele>
        <time>2022-03-27T07:24:07Z</time>
      </trkpt>
      <trkpt lat="44.27551" lon="5.32523">
        <ele>652.87</ele>
        <time>2022-03-27T07:24:20Z</time>
      </trkpt>
      <trkpt lat="44.2755" lon="5.32527">
        <ele>652.87</ele>
        <time>2022-03-27T07:24:26Z</time>
      </trkpt>
      <trkpt lat="44.27549" lon="5.3253">
        <ele>652.39</ele>
        <time>2022-03-27T07:24:27Z</time>
      </trkpt>
      <trkpt lat="44.27548" lon="5.32533">
        <ele>652.39</ele>
        <time>2022-03-27T07:24:28Z</time>
      </trkpt>
      <trkpt lat="44.27547" lon="5.32536">
        <ele>651.91</ele>
        <time>2022-03-27T07:24:29Z</time>
      </trkpt>
      <trkpt lat="44.27547" lon="5.32541">
        <ele>651.43</ele>
        <time>2022-03-27T07:24:30Z</time>
      </trkpt>
      <trkpt lat="44.27547" lon="5.32574">
        <ele>654.31</ele>
        <time>2022-03-27T07:24:40Z</time>
      </trkpt>
      <trkpt lat="44.27552" lon="5.3259">
        <ele>657.68</ele>
        <time>2022-03-27T07:24:49Z</time>
      </trkpt>
      <trkpt lat="44.27552" lon="5.32598">
        <ele>658.64</ele>
        <time>2022-03-27T07:24:54Z</time>
      </trkpt>
      <trkpt lat="44.27551" lon="5.326">
        <ele>659.12</ele>
        <time>2022-03-27T07:24:55Z</time>
      </trkpt>
      <trkpt lat="44.2755" lon="5.32601">
        <ele>659.12</ele>
        <time>2022-03-27T07:24:56Z</time>
      </trkpt>
      <trkpt lat="44.27549" lon="5.32603">
        <ele>659.6</ele>
        <time>2022-03-27T07:24:57Z</time>
      </trkpt>
      <trkpt lat="44.27549" lon="5.32604">
        <ele>659.6</ele>
        <time>2022-03-27T07:24:58Z</time>
      </trkpt>
      <trkpt lat="44.27548" lon="5.32606">
        <ele>659.6</ele>
        <time>2022-03-27T07:24:59Z</time>
      </trkpt>
      <trkpt lat="44.27548" lon="5.32609">
        <ele>660.08</ele>
        <time>2022-03-27T07:25:00Z</time>
      </trkpt>
      <trkpt lat="44.27547" lon="5.32611">
        <ele>660.08</ele>
        <time>2022-03-27T07:25:01Z</time>
      </trkpt>
      <trkpt lat="44.27545" lon="5.32631">
        <ele>662.97</ele>
        <time>2022-03-27T07:25:12Z</time>
      </trkpt>
      <trkpt lat="44.27544" lon="5.32635">
        <ele>663.93</ele>
        <time>2022-03-27T07:25:14Z</time>
      </trkpt>
      <trkpt lat="44.27541" lon="5.32651">
        <ele>666.81</ele>
        <time>2022-03-27T07:25:26Z</time>
      </trkpt>
      <trkpt lat="44.27541" lon="5.32653">
        <ele>667.29</ele>
        <time>2022-03-27T07:25:27Z</time>
      </trkpt>
      <trkpt lat="44.2754" lon="5.32654">
        <ele>667.29</ele>
        <time>2022-03-27T07:25:28Z</time>
      </trkpt>
      <trkpt lat="44.2754" lon="5.32656">
        <ele>667.77</ele>
        <time>2022-03-27T07:25:29Z</time>
      </trkpt>
      <trkpt lat="44.27539" lon="5.32657">
        <ele>667.77</ele>
        <time>2022-03-27T07:25:30Z</time>
      </trkpt>
      <trkpt lat="44.27537" lon="5.32668">
        <ele>670.18</ele>
        <time>2022-03-27T07:25:42Z</time>
      </trkpt>
      <trkpt lat="44.27535" lon="5.32678">
        <ele>672.58</ele>
        <time>2022-03-27T07:25:55Z</time>
      </trkpt>
      <trkpt lat="44.27532" lon="5.32693">
        <ele>675.46</ele>
        <time>2022-03-27T07:26:09Z</time>
      </trkpt>
      <trkpt lat="44.27531" lon="5.32702">
        <ele>676.91</ele>
        <time>2022-03-27T07:26:16Z</time>
      </trkpt>
      <trkpt lat="44.27523" lon="5.32714">
        <ele>679.79</ele>
        <time>2022-03-27T07:26:29Z</time>
      </trkpt>
      <trkpt lat="44.27513" lon="5.32725">
        <ele>682.19</ele>
        <time>2022-03-27T07:26:44Z</time>
      </trkpt>
      <trkpt lat="44.2751" lon="5.32725">
        <ele>682.19</ele>
        <time>2022-03-27T07:26:52Z</time>
      </trkpt>
      <trkpt lat="44.27509" lon="5.32726">
        <ele>682.19</ele>
        <time>2022-03-27T07:26:53Z</time>
      </trkpt>
      <trkpt lat="44.27508" lon="5.32728">
        <ele>682.67</ele>
        <time>2022-03-27T07:26:55Z</time>
      </trkpt>
      <trkpt lat="44.27507" lon="5.32729">
        <ele>682.67</ele>
        <time>2022-03-27T07:26:56Z</time>
      </trkpt>
      <trkpt lat="44.27488" lon="5.3275">
        <ele>684.12</ele>
        <time>2022-03-27T07:27:11Z</time>
      </trkpt>
      <trkpt lat="44.27472" lon="5.32779">
        <ele>687</ele>
        <time>2022-03-27T07:27:27Z</time>
      </trkpt>
      <trkpt lat="44.27456" lon="5.32792">
        <ele>689.88</ele>
        <time>2022-03-27T07:27:38Z</time>
      </trkpt>
      <trkpt lat="44.27438" lon="5.32806">
        <ele>691.81</ele>
        <time>2022-03-27T07:27:50Z</time>
      </trkpt>
      <trkpt lat="44.27427" lon="5.32835">
        <ele>693.73</ele>
        <time>2022-03-27T07:28:03Z</time>
      </trkpt>
      <trkpt lat="44.27428" lon="5.32867">
        <ele>695.17</ele>
        <time>2022-03-27T07:28:16Z</time>
      </trkpt>
      <trkpt lat="44.27439" lon="5.32904">
        <ele>697.09</ele>
        <time>2022-03-27T07:28:33Z</time>
      </trkpt>
      <trkpt lat="44.27445" lon="5.32936">
        <ele>696.13</ele>
        <time>2022-03-27T07:28:47Z</time>
      </trkpt>
      <trkpt lat="44.27445" lon="5.32938">
        <ele>696.13</ele>
        <time>2022-03-27T07:28:59Z</time>
      </trkpt>
      <trkpt lat="44.27445" lon="5.32938">
        <ele>696.61</ele>
        <time>2022-03-27T07:29:27Z</time>
      </trkpt>
      <trkpt lat="44.27444" lon="5.32938">
        <ele>696.61</ele>
        <time>2022-03-27T07:29:49Z</time>
      </trkpt>
      <trkpt lat="44.27442" lon="5.3294">
        <ele>696.61</ele>
        <time>2022-03-27T07:29:51Z</time>
      </trkpt>
      <trkpt lat="44.27443" lon="5.32942">
        <ele>696.61</ele>
        <time>2022-03-27T07:29:54Z</time>
      </trkpt>
      <trkpt lat="44.27443" lon="5.32941">
        <ele>696.61</ele>
        <time>2022-03-27T07:29:55Z</time>
      </trkpt>
      <trkpt lat="44.27444" lon="5.32939">
        <ele>696.61</ele>
        <time>2022-03-27T07:29:56Z</time>
      </trkpt>
      <trkpt lat="44.27444" lon="5.32937">
        <ele>696.61</ele>
        <time>2022-03-27T07:29:57Z</time>
      </trkpt>
      <trkpt lat="44.27445" lon="5.32934">
        <ele>696.61</ele>
        <time>2022-03-27T07:29:58Z</time>
      </trkpt>
      <trkpt lat="44.27442" lon="5.32911">
        <ele>697.09</ele>
        <time>2022-03-27T07:30:09Z</time>
      </trkpt>
      <trkpt lat="44.27431" lon="5.32873">
        <ele>696.13</ele>
        <time>2022-03-27T07:30:25Z</time>
      </trkpt>
      <trkpt lat="44.27427" lon="5.32853">
        <ele>694.69</ele>
        <time>2022-03-27T07:30:37Z</time>
      </trkpt>
      <trkpt lat="44.27427" lon="5.32858">
        <ele>694.69</ele>
        <time>2022-03-27T07:30:45Z</time>
      </trkpt>
      <trkpt lat="44.27427" lon="5.3286">
        <ele>694.69</ele>
        <time>2022-03-27T07:30:46Z</time>
      </trkpt>
      <trkpt lat="44.27428" lon="5.32862">
        <ele>694.69</ele>
        <time>2022-03-27T07:30:47Z</time>
      </trkpt>
      <trkpt lat="44.27438" lon="5.32898">
        <ele>697.09</ele>
        <time>2022-03-27T07:31:02Z</time>
      </trkpt>
      <trkpt lat="44.27446" lon="5.32934">
        <ele>696.13</ele>
        <time>2022-03-27T07:31:15Z</time>
      </trkpt>
      <trkpt lat="44.27444" lon="5.32937">
        <ele>696.13</ele>
        <time>2022-03-27T07:31:16Z</time>
      </trkpt>
      <trkpt lat="44.27423" lon="5.32959">
        <ele>696.13</ele>
        <time>2022-03-27T07:31:27Z</time>
      </trkpt>
      <trkpt lat="44.27409" lon="5.32987">
        <ele>696.13</ele>
        <time>2022-03-27T07:31:38Z</time>
      </trkpt>
      <trkpt lat="44.27403" lon="5.33018">
        <ele>698.53</ele>
        <time>2022-03-27T07:31:51Z</time>
      </trkpt>
      <trkpt lat="44.27399" lon="5.33052">
        <ele>700.94</ele>
        <time>2022-03-27T07:32:06Z</time>
      </trkpt>
      <trkpt lat="44.27397" lon="5.3306">
        <ele>701.42</ele>
        <time>2022-03-27T07:32:10Z</time>
      </trkpt>
      <trkpt lat="44.27397" lon="5.33062">
        <ele>701.42</ele>
        <time>2022-03-27T07:32:11Z</time>
      </trkpt>
      <trkpt lat="44.27396" lon="5.33064">
        <ele>701.9</ele>
        <time>2022-03-27T07:32:12Z</time>
      </trkpt>
      <trkpt lat="44.27391" lon="5.33093">
        <ele>704.3</ele>
        <time>2022-03-27T07:32:26Z</time>
      </trkpt>
      <trkpt lat="44.27386" lon="5.33121">
        <ele>707.67</ele>
        <time>2022-03-27T07:32:40Z</time>
      </trkpt>
      <trkpt lat="44.27383" lon="5.33131">
        <ele>708.63</ele>
        <time>2022-03-27T07:32:46Z</time>
      </trkpt>
      <trkpt lat="44.27383" lon="5.33133">
        <ele>708.63</ele>
        <time>2022-03-27T07:32:47Z</time>
      </trkpt>
      <trkpt lat="44.27382" lon="5.33135">
        <ele>709.11</ele>
        <time>2022-03-27T07:32:48Z</time>
      </trkpt>
      <trkpt lat="44.27382" lon="5.33137">
        <ele>709.11</ele>
        <time>2022-03-27T07:32:49Z</time>
      </trkpt>
      <trkpt lat="44.27382" lon="5.33139">
        <ele>709.59</ele>
        <time>2022-03-27T07:32:50Z</time>
      </trkpt>
      <trkpt lat="44.27379" lon="5.33151">
        <ele>710.55</ele>
        <time>2022-03-27T07:32:56Z</time>
      </trkpt>
      <trkpt lat="44.27379" lon="5.33152">
        <ele>711.03</ele>
        <time>2022-03-27T07:32:57Z</time>
      </trkpt>
      <trkpt lat="44.27377" lon="5.33161">
        <ele>711.99</ele>
        <time>2022-03-27T07:33:02Z</time>
      </trkpt>
      <trkpt lat="44.27377" lon="5.33163">
        <ele>712.47</ele>
        <time>2022-03-27T07:33:03Z</time>
      </trkpt>
      <trkpt lat="44.27377" lon="5.33165">
        <ele>712.47</ele>
        <time>2022-03-27T07:33:04Z</time>
      </trkpt>
      <trkpt lat="44.27376" lon="5.33167">
        <ele>712.95</ele>
        <time>2022-03-27T07:33:05Z</time>
      </trkpt>
      <trkpt lat="44.27376" lon="5.33169">
        <ele>713.44</ele>
        <time>2022-03-27T07:33:06Z</time>
      </trkpt>
      <trkpt lat="44.27375" lon="5.3317">
        <ele>713.44</ele>
        <time>2022-03-27T07:33:07Z</time>
      </trkpt>
      <trkpt lat="44.27373" lon="5.33177">
        <ele>713.92</ele>
        <time>2022-03-27T07:33:11Z</time>
      </trkpt>
      <trkpt lat="44.27373" lon="5.33179">
        <ele>714.4</ele>
        <time>2022-03-27T07:33:12Z</time>
      </trkpt>
      <trkpt lat="44.27373" lon="5.33181">
        <ele>714.88</ele>
        <time>2022-03-27T07:33:13Z</time>
      </trkpt>
      <trkpt lat="44.27372" lon="5.33182">
        <ele>714.88</ele>
        <time>2022-03-27T07:33:14Z</time>
      </trkpt>
      <trkpt lat="44.27372" lon="5.33184">
        <ele>715.36</ele>
        <time>2022-03-27T07:33:15Z</time>
      </trkpt>
      <trkpt lat="44.27371" lon="5.33185">
        <ele>715.36</ele>
        <time>2022-03-27T07:33:16Z</time>
      </trkpt>
      <trkpt lat="44.2737" lon="5.33187">
        <ele>715.84</ele>
        <time>2022-03-27T07:33:17Z</time>
      </trkpt>
      <trkpt lat="44.27369" lon="5.3319">
        <ele>716.32</ele>
        <time>2022-03-27T07:33:19Z</time>
      </trkpt>
      <trkpt lat="44.27369" lon="5.33191">
        <ele>716.8</ele>
        <time>2022-03-27T07:33:20Z</time>
      </trkpt>
      <trkpt lat="44.27369" lon="5.33196">
        <ele>718.24</ele>
        <time>2022-03-27T07:33:29Z</time>
      </trkpt>
      <trkpt lat="44.27369" lon="5.33198">
        <ele>718.24</ele>
        <time>2022-03-27T07:33:30Z</time>
      </trkpt>
      <trkpt lat="44.27368" lon="5.332">
        <ele>718.72</ele>
        <time>2022-03-27T07:33:32Z</time>
      </trkpt>
      <trkpt lat="44.27367" lon="5.33201">
        <ele>718.72</ele>
        <time>2022-03-27T07:33:33Z</time>
      </trkpt>
      <trkpt lat="44.27365" lon="5.3321">
        <ele>720.16</ele>
        <time>2022-03-27T07:33:39Z</time>
      </trkpt>
      <trkpt lat="44.27364" lon="5.33212">
        <ele>720.16</ele>
        <time>2022-03-27T07:33:40Z</time>
      </trkpt>
      <trkpt lat="44.27362" lon="5.3322">
        <ele>721.61</ele>
        <time>2022-03-27T07:33:50Z</time>
      </trkpt>
      <trkpt lat="44.27358" lon="5.33228">
        <ele>722.09</ele>
        <time>2022-03-27T07:33:54Z</time>
      </trkpt>
      <trkpt lat="44.27357" lon="5.33229">
        <ele>722.09</ele>
        <time>2022-03-27T07:33:55Z</time>
      </trkpt>
      <trkpt lat="44.27357" lon="5.33231">
        <ele>722.57</ele>
        <time>2022-03-27T07:33:56Z</time>
      </trkpt>
      <trkpt lat="44.27355" lon="5.33232">
        <ele>723.05</ele>
        <time>2022-03-27T07:33:57Z</time>
      </trkpt>
      <trkpt lat="44.27355" lon="5.33234">
        <ele>723.05</ele>
        <time>2022-03-27T07:33:58Z</time>
      </trkpt>
      <trkpt lat="44.27354" lon="5.33235">
        <ele>723.05</ele>
        <time>2022-03-27T07:33:59Z</time>
      </trkpt>
      <trkpt lat="44.27353" lon="5.33237">
        <ele>723.53</ele>
        <time>2022-03-27T07:34:00Z</time>
      </trkpt>
      <trkpt lat="44.27351" lon="5.33246">
        <ele>724.49</ele>
        <time>2022-03-27T07:34:05Z</time>
      </trkpt>
      <trkpt lat="44.27348" lon="5.33254">
        <ele>725.45</ele>
        <time>2022-03-27T07:34:09Z</time>
      </trkpt>
      <trkpt lat="44.27348" lon="5.33256">
        <ele>725.93</ele>
        <time>2022-03-27T07:34:10Z</time>
      </trkpt>
      <trkpt lat="44.27348" lon="5.33258">
        <ele>725.93</ele>
        <time>2022-03-27T07:34:11Z</time>
      </trkpt>
      <trkpt lat="44.27346" lon="5.33276">
        <ele>729.3</ele>
        <time>2022-03-27T07:34:22Z</time>
      </trkpt>
      <trkpt lat="44.27346" lon="5.33279">
        <ele>729.78</ele>
        <time>2022-03-27T07:34:24Z</time>
      </trkpt>
      <trkpt lat="44.27346" lon="5.33283">
        <ele>730.26</ele>
        <time>2022-03-27T07:34:26Z</time>
      </trkpt>
      <trkpt lat="44.27346" lon="5.33285">
        <ele>730.26</ele>
        <time>2022-03-27T07:34:27Z</time>
      </trkpt>
      <trkpt lat="44.27346" lon="5.33291">
        <ele>731.22</ele>
        <time>2022-03-27T07:34:31Z</time>
      </trkpt>
      <trkpt lat="44.27346" lon="5.33293">
        <ele>731.7</ele>
        <time>2022-03-27T07:34:32Z</time>
      </trkpt>
      <trkpt lat="44.27346" lon="5.33294">
        <ele>731.7</ele>
        <time>2022-03-27T07:34:33Z</time>
      </trkpt>
      <trkpt lat="44.27346" lon="5.33296">
        <ele>731.7</ele>
        <time>2022-03-27T07:34:34Z</time>
      </trkpt>
      <trkpt lat="44.27346" lon="5.33298">
        <ele>732.18</ele>
        <time>2022-03-27T07:34:35Z</time>
      </trkpt>
      <trkpt lat="44.27346" lon="5.33299">
        <ele>732.18</ele>
        <time>2022-03-27T07:34:36Z</time>
      </trkpt>
      <trkpt lat="44.27345" lon="5.33301">
        <ele>732.18</ele>
        <time>2022-03-27T07:34:37Z</time>
      </trkpt>
      <trkpt lat="44.27342" lon="5.33326">
        <ele>735.55</ele>
        <time>2022-03-27T07:34:50Z</time>
      </trkpt>
      <trkpt lat="44.27341" lon="5.33329">
        <ele>735.55</ele>
        <time>2022-03-27T07:34:52Z</time>
      </trkpt>
      <trkpt lat="44.2734" lon="5.33333">
        <ele>736.03</ele>
        <time>2022-03-27T07:34:54Z</time>
      </trkpt>
      <trkpt lat="44.2734" lon="5.33351">
        <ele>738.91</ele>
        <time>2022-03-27T07:35:05Z</time>
      </trkpt>
      <trkpt lat="44.27341" lon="5.33353">
        <ele>739.39</ele>
        <time>2022-03-27T07:35:06Z</time>
      </trkpt>
      <trkpt lat="44.27341" lon="5.33355">
        <ele>739.39</ele>
        <time>2022-03-27T07:35:07Z</time>
      </trkpt>
      <trkpt lat="44.27341" lon="5.33357">
        <ele>739.87</ele>
        <time>2022-03-27T07:35:08Z</time>
      </trkpt>
      <trkpt lat="44.27341" lon="5.33358">
        <ele>739.87</ele>
        <time>2022-03-27T07:35:09Z</time>
      </trkpt>
      <trkpt lat="44.27341" lon="5.3336">
        <ele>740.35</ele>
        <time>2022-03-27T07:35:10Z</time>
      </trkpt>
      <trkpt lat="44.27342" lon="5.33362">
        <ele>740.35</ele>
        <time>2022-03-27T07:35:11Z</time>
      </trkpt>
      <trkpt lat="44.27342" lon="5.33364">
        <ele>740.35</ele>
        <time>2022-03-27T07:35:12Z</time>
      </trkpt>
      <trkpt lat="44.27341" lon="5.33366">
        <ele>740.35</ele>
        <time>2022-03-27T07:35:13Z</time>
      </trkpt>
      <trkpt lat="44.27349" lon="5.33392">
        <ele>742.76</ele>
        <time>2022-03-27T07:35:26Z</time>
      </trkpt>
      <trkpt lat="44.27359" lon="5.33407">
        <ele>744.68</ele>
        <time>2022-03-27T07:35:36Z</time>
      </trkpt>
      <trkpt lat="44.27359" lon="5.33408">
        <ele>744.68</ele>
        <time>2022-03-27T07:35:37Z</time>
      </trkpt>
      <trkpt lat="44.2736" lon="5.3341">
        <ele>745.16</ele>
        <time>2022-03-27T07:35:38Z</time>
      </trkpt>
      <trkpt lat="44.2736" lon="5.33411">
        <ele>745.16</ele>
        <time>2022-03-27T07:35:39Z</time>
      </trkpt>
      <trkpt lat="44.27361" lon="5.33413">
        <ele>745.16</ele>
        <time>2022-03-27T07:35:40Z</time>
      </trkpt>
      <trkpt lat="44.27364" lon="5.33418">
        <ele>746.12</ele>
        <time>2022-03-27T07:35:44Z</time>
      </trkpt>
      <trkpt lat="44.27364" lon="5.33419">
        <ele>746.6</ele>
        <time>2022-03-27T07:35:45Z</time>
      </trkpt>
      <trkpt lat="44.27365" lon="5.33421">
        <ele>746.6</ele>
        <time>2022-03-27T07:35:46Z</time>
      </trkpt>
      <trkpt lat="44.27375" lon="5.33437">
        <ele>749.97</ele>
        <time>2022-03-27T07:35:58Z</time>
      </trkpt>
      <trkpt lat="44.27375" lon="5.33438">
        <ele>749.97</ele>
        <time>2022-03-27T07:35:59Z</time>
      </trkpt>
      <trkpt lat="44.27376" lon="5.3344">
        <ele>750.45</ele>
        <time>2022-03-27T07:36:00Z</time>
      </trkpt>
      <trkpt lat="44.27376" lon="5.33443">
        <ele>750.45</ele>
        <time>2022-03-27T07:36:01Z</time>
      </trkpt>
      <trkpt lat="44.27376" lon="5.33444">
        <ele>749.49</ele>
        <time>2022-03-27T07:36:12Z</time>
      </trkpt>
      <trkpt lat="44.27375" lon="5.33448">
        <ele>750.45</ele>
        <time>2022-03-27T07:36:31Z</time>
      </trkpt>
      <trkpt lat="44.27375" lon="5.3345">
        <ele>750.93</ele>
        <time>2022-03-27T07:36:32Z</time>
      </trkpt>
      <trkpt lat="44.27375" lon="5.33452">
        <ele>750.93</ele>
        <time>2022-03-27T07:36:33Z</time>
      </trkpt>
      <trkpt lat="44.27374" lon="5.33453">
        <ele>751.41</ele>
        <time>2022-03-27T07:36:34Z</time>
      </trkpt>
      <trkpt lat="44.27373" lon="5.33455">
        <ele>751.41</ele>
        <time>2022-03-27T07:36:35Z</time>
      </trkpt>
      <trkpt lat="44.27373" lon="5.33458">
        <ele>751.41</ele>
        <time>2022-03-27T07:36:36Z</time>
      </trkpt>
      <trkpt lat="44.27373" lon="5.3346">
        <ele>751.89</ele>
        <time>2022-03-27T07:36:37Z</time>
      </trkpt>
      <trkpt lat="44.27373" lon="5.33461">
        <ele>751.89</ele>
        <time>2022-03-27T07:36:38Z</time>
      </trkpt>
      <trkpt lat="44.27374" lon="5.33466">
        <ele>752.85</ele>
        <time>2022-03-27T07:36:41Z</time>
      </trkpt>
      <trkpt lat="44.27375" lon="5.33468">
        <ele>753.33</ele>
        <time>2022-03-27T07:36:42Z</time>
      </trkpt>
      <trkpt lat="44.27376" lon="5.33469">
        <ele>753.81</ele>
        <time>2022-03-27T07:36:43Z</time>
      </trkpt>
      <trkpt lat="44.27377" lon="5.3347">
        <ele>753.81</ele>
        <time>2022-03-27T07:36:44Z</time>
      </trkpt>
      <trkpt lat="44.27378" lon="5.33471">
        <ele>754.29</ele>
        <time>2022-03-27T07:36:45Z</time>
      </trkpt>
      <trkpt lat="44.27396" lon="5.3348">
        <ele>757.18</ele>
        <time>2022-03-27T07:37:00Z</time>
      </trkpt>
      <trkpt lat="44.27408" lon="5.33485">
        <ele>759.58</ele>
        <time>2022-03-27T07:37:10Z</time>
      </trkpt>
      <trkpt lat="44.27422" lon="5.33491">
        <ele>762.94</ele>
        <time>2022-03-27T07:37:22Z</time>
      </trkpt>
      <trkpt lat="44.2744" lon="5.33486">
        <ele>765.83</ele>
        <time>2022-03-27T07:37:37Z</time>
      </trkpt>
      <trkpt lat="44.2744" lon="5.33486">
        <ele>765.83</ele>
        <time>2022-03-27T07:37:54Z</time>
      </trkpt>
      <trkpt lat="44.27441" lon="5.33483">
        <ele>765.83</ele>
        <time>2022-03-27T07:37:59Z</time>
      </trkpt>
      <trkpt lat="44.27442" lon="5.33481">
        <ele>765.35</ele>
        <time>2022-03-27T07:38:12Z</time>
      </trkpt>
      <trkpt lat="44.27442" lon="5.33481">
        <ele>765.35</ele>
        <time>2022-03-27T07:38:44Z</time>
      </trkpt>
      <trkpt lat="44.27443" lon="5.33476">
        <ele>765.35</ele>
        <time>2022-03-27T07:39:09Z</time>
      </trkpt>
      <trkpt lat="44.27443" lon="5.33471">
        <ele>764.87</ele>
        <time>2022-03-27T07:39:10Z</time>
      </trkpt>
      <trkpt lat="44.27442" lon="5.33447">
        <ele>763.42</ele>
        <time>2022-03-27T07:39:14Z</time>
      </trkpt>
      <trkpt lat="44.27444" lon="5.33394">
        <ele>765.35</ele>
        <time>2022-03-27T07:39:27Z</time>
      </trkpt>
      <trkpt lat="44.27454" lon="5.33382">
        <ele>766.79</ele>
        <time>2022-03-27T07:39:34Z</time>
      </trkpt>
      <trkpt lat="44.27456" lon="5.33383">
        <ele>766.79</ele>
        <time>2022-03-27T07:39:35Z</time>
      </trkpt>
      <trkpt lat="44.27458" lon="5.33383">
        <ele>767.27</ele>
        <time>2022-03-27T07:39:36Z</time>
      </trkpt>
      <trkpt lat="44.2746" lon="5.33384">
        <ele>767.75</ele>
        <time>2022-03-27T07:39:37Z</time>
      </trkpt>
      <trkpt lat="44.27461" lon="5.33385">
        <ele>768.23</ele>
        <time>2022-03-27T07:39:38Z</time>
      </trkpt>
      <trkpt lat="44.27463" lon="5.33385">
        <ele>768.23</ele>
        <time>2022-03-27T07:39:39Z</time>
      </trkpt>
      <trkpt lat="44.27471" lon="5.33389">
        <ele>770.15</ele>
        <time>2022-03-27T07:39:46Z</time>
      </trkpt>
      <trkpt lat="44.27472" lon="5.33389">
        <ele>770.15</ele>
        <time>2022-03-27T07:39:47Z</time>
      </trkpt>
      <trkpt lat="44.2748" lon="5.33383">
        <ele>772.08</ele>
        <time>2022-03-27T07:39:55Z</time>
      </trkpt>
      <trkpt lat="44.27481" lon="5.33381">
        <ele>772.08</ele>
        <time>2022-03-27T07:39:56Z</time>
      </trkpt>
      <trkpt lat="44.2749" lon="5.33347">
        <ele>773.52</ele>
        <time>2022-03-27T07:40:12Z</time>
      </trkpt>
      <trkpt lat="44.27501" lon="5.33328">
        <ele>776.88</ele>
        <time>2022-03-27T07:40:27Z</time>
      </trkpt>
      <trkpt lat="44.27514" lon="5.33307">
        <ele>780.25</ele>
        <time>2022-03-27T07:40:42Z</time>
      </trkpt>
      <trkpt lat="44.27524" lon="5.33295">
        <ele>782.65</ele>
        <time>2022-03-27T07:40:52Z</time>
      </trkpt>
      <trkpt lat="44.27524" lon="5.33294">
        <ele>782.65</ele>
        <time>2022-03-27T07:40:53Z</time>
      </trkpt>
      <trkpt lat="44.27525" lon="5.33293">
        <ele>783.13</ele>
        <time>2022-03-27T07:40:54Z</time>
      </trkpt>
      <trkpt lat="44.27526" lon="5.33292">
        <ele>783.13</ele>
        <time>2022-03-27T07:40:55Z</time>
      </trkpt>
      <trkpt lat="44.27527" lon="5.33291">
        <ele>783.61</ele>
        <time>2022-03-27T07:40:56Z</time>
      </trkpt>
      <trkpt lat="44.27528" lon="5.3329">
        <ele>783.61</ele>
        <time>2022-03-27T07:40:57Z</time>
      </trkpt>
      <trkpt lat="44.27539" lon="5.33278">
        <ele>786.5</ele>
        <time>2022-03-27T07:41:10Z</time>
      </trkpt>
      <trkpt lat="44.27542" lon="5.33275">
        <ele>787.46</ele>
        <time>2022-03-27T07:41:14Z</time>
      </trkpt>
      <trkpt lat="44.27545" lon="5.33273">
        <ele>787.94</ele>
        <time>2022-03-27T07:41:17Z</time>
      </trkpt>
      <trkpt lat="44.27555" lon="5.33261">
        <ele>791.3</ele>
        <time>2022-03-27T07:41:30Z</time>
      </trkpt>
      <trkpt lat="44.27556" lon="5.3326">
        <ele>791.3</ele>
        <time>2022-03-27T07:41:31Z</time>
      </trkpt>
      <trkpt lat="44.27565" lon="5.33252">
        <ele>793.71</ele>
        <time>2022-03-27T07:41:42Z</time>
      </trkpt>
      <trkpt lat="44.2757" lon="5.3325">
        <ele>794.67</ele>
        <time>2022-03-27T07:41:47Z</time>
      </trkpt>
      <trkpt lat="44.27576" lon="5.33244">
        <ele>796.59</ele>
        <time>2022-03-27T07:41:59Z</time>
      </trkpt>
      <trkpt lat="44.27576" lon="5.33243">
        <ele>796.59</ele>
        <time>2022-03-27T07:42:22Z</time>
      </trkpt>
      <trkpt lat="44.27578" lon="5.33242">
        <ele>797.07</ele>
        <time>2022-03-27T07:42:26Z</time>
      </trkpt>
      <trkpt lat="44.27583" lon="5.33237">
        <ele>798.51</ele>
        <time>2022-03-27T07:42:32Z</time>
      </trkpt>
      <trkpt lat="44.27596" lon="5.33227">
        <ele>801.4</ele>
        <time>2022-03-27T07:42:47Z</time>
      </trkpt>
      <trkpt lat="44.27607" lon="5.33218">
        <ele>804.28</ele>
        <time>2022-03-27T07:43:01Z</time>
      </trkpt>
      <trkpt lat="44.27617" lon="5.33215">
        <ele>807.16</ele>
        <time>2022-03-27T07:43:12Z</time>
      </trkpt>
      <trkpt lat="44.2763" lon="5.33212">
        <ele>809.57</ele>
        <time>2022-03-27T07:43:25Z</time>
      </trkpt>
      <trkpt lat="44.27631" lon="5.33211">
        <ele>809.57</ele>
        <time>2022-03-27T07:43:26Z</time>
      </trkpt>
      <trkpt lat="44.27632" lon="5.3321">
        <ele>810.05</ele>
        <time>2022-03-27T07:43:27Z</time>
      </trkpt>
      <trkpt lat="44.27633" lon="5.33208">
        <ele>810.05</ele>
        <time>2022-03-27T07:43:28Z</time>
      </trkpt>
      <trkpt lat="44.27635" lon="5.33206">
        <ele>811.01</ele>
        <time>2022-03-27T07:43:31Z</time>
      </trkpt>
      <trkpt lat="44.27636" lon="5.33205">
        <ele>811.01</ele>
        <time>2022-03-27T07:43:32Z</time>
      </trkpt>
      <trkpt lat="44.27637" lon="5.33204">
        <ele>811.49</ele>
        <time>2022-03-27T07:43:33Z</time>
      </trkpt>
      <trkpt lat="44.27644" lon="5.33194">
        <ele>812.93</ele>
        <time>2022-03-27T07:43:48Z</time>
      </trkpt>
      <trkpt lat="44.27644" lon="5.33194">
        <ele>812.45</ele>
        <time>2022-03-27T07:44:19Z</time>
      </trkpt>
      <trkpt lat="44.27644" lon="5.33194">
        <ele>812.93</ele>
        <time>2022-03-27T07:44:47Z</time>
      </trkpt>
      <trkpt lat="44.27645" lon="5.33193">
        <ele>812.93</ele>
        <time>2022-03-27T07:44:59Z</time>
      </trkpt>
      <trkpt lat="44.27645" lon="5.33193">
        <ele>812.93</ele>
        <time>2022-03-27T07:45:31Z</time>
      </trkpt>
      <trkpt lat="44.27645" lon="5.33193">
        <ele>812.93</ele>
        <time>2022-03-27T07:45:59Z</time>
      </trkpt>
      <trkpt lat="44.27645" lon="5.33193">
        <ele>812.93</ele>
        <time>2022-03-27T07:46:14Z</time>
      </trkpt>
      <trkpt lat="44.27646" lon="5.33193">
        <ele>812.93</ele>
        <time>2022-03-27T07:46:36Z</time>
      </trkpt>
      <trkpt lat="44.27646" lon="5.33193">
        <ele>812.93</ele>
        <time>2022-03-27T07:46:58Z</time>
      </trkpt>
      <trkpt lat="44.27646" lon="5.33193">
        <ele>812.93</ele>
        <time>2022-03-27T07:47:23Z</time>
      </trkpt>
      <trkpt lat="44.27646" lon="5.33193">
        <ele>812.93</ele>
        <time>2022-03-27T07:47:43Z</time>
      </trkpt>
      <trkpt lat="44.27646" lon="5.33194">
        <ele>812.93</ele>
        <time>2022-03-27T07:47:58Z</time>
      </trkpt>
      <trkpt lat="44.27647" lon="5.33198">
        <ele>812.93</ele>
        <time>2022-03-27T07:48:02Z</time>
      </trkpt>
      <trkpt lat="44.27648" lon="5.332">
        <ele>812.93</ele>
        <time>2022-03-27T07:48:03Z</time>
      </trkpt>
      <trkpt lat="44.27648" lon="5.33202">
        <ele>812.93</ele>
        <time>2022-03-27T07:48:04Z</time>
      </trkpt>
      <trkpt lat="44.27648" lon="5.33204">
        <ele>812.93</ele>
        <time>2022-03-27T07:48:05Z</time>
      </trkpt>
      <trkpt lat="44.27647" lon="5.33205">
        <ele>813.41</ele>
        <time>2022-03-27T07:48:06Z</time>
      </trkpt>
      <trkpt lat="44.27647" lon="5.33207">
        <ele>813.89</ele>
        <time>2022-03-27T07:48:07Z</time>
      </trkpt>
      <trkpt lat="44.27636" lon="5.33233">
        <ele>815.82</ele>
        <time>2022-03-27T07:48:23Z</time>
      </trkpt>
      <trkpt lat="44.27633" lon="5.33244">
        <ele>816.78</ele>
        <time>2022-03-27T07:48:29Z</time>
      </trkpt>
      <trkpt lat="44.27633" lon="5.33248">
        <ele>817.26</ele>
        <time>2022-03-27T07:48:31Z</time>
      </trkpt>
      <trkpt lat="44.27632" lon="5.3325">
        <ele>817.74</ele>
        <time>2022-03-27T07:48:32Z</time>
      </trkpt>
      <trkpt lat="44.27632" lon="5.33251">
        <ele>817.74</ele>
        <time>2022-03-27T07:48:33Z</time>
      </trkpt>
      <trkpt lat="44.27624" lon="5.33282">
        <ele>820.14</ele>
        <time>2022-03-27T07:48:49Z</time>
      </trkpt>
      <trkpt lat="44.27623" lon="5.33284">
        <ele>820.14</ele>
        <time>2022-03-27T07:48:50Z</time>
      </trkpt>
      <trkpt lat="44.27621" lon="5.33315">
        <ele>822.55</ele>
        <time>2022-03-27T07:49:06Z</time>
      </trkpt>
      <trkpt lat="44.27621" lon="5.33345">
        <ele>825.43</ele>
        <time>2022-03-27T07:49:21Z</time>
      </trkpt>
      <trkpt lat="44.27621" lon="5.33391">
        <ele>826.39</ele>
        <time>2022-03-27T07:49:39Z</time>
      </trkpt>
      <trkpt lat="44.27609" lon="5.33425">
        <ele>826.39</ele>
        <time>2022-03-27T07:49:51Z</time>
      </trkpt>
      <trkpt lat="44.27606" lon="5.33475">
        <ele>826.87</ele>
        <time>2022-03-27T07:50:06Z</time>
      </trkpt>
      <trkpt lat="44.27612" lon="5.33525">
        <ele>828.79</ele>
        <time>2022-03-27T07:50:24Z</time>
      </trkpt>
      <trkpt lat="44.27611" lon="5.33559">
        <ele>831.68</ele>
        <time>2022-03-27T07:50:38Z</time>
      </trkpt>
      <trkpt lat="44.27607" lon="5.33589">
        <ele>834.56</ele>
        <time>2022-03-27T07:50:52Z</time>
      </trkpt>
      <trkpt lat="44.27606" lon="5.33591">
        <ele>834.56</ele>
        <time>2022-03-27T07:50:53Z</time>
      </trkpt>
      <trkpt lat="44.27606" lon="5.33593">
        <ele>834.56</ele>
        <time>2022-03-27T07:50:54Z</time>
      </trkpt>
      <trkpt lat="44.27606" lon="5.33595">
        <ele>834.56</ele>
        <time>2022-03-27T07:50:55Z</time>
      </trkpt>
      <trkpt lat="44.27605" lon="5.33597">
        <ele>835.04</ele>
        <time>2022-03-27T07:50:56Z</time>
      </trkpt>
      <trkpt lat="44.27605" lon="5.33599">
        <ele>835.04</ele>
        <time>2022-03-27T07:50:57Z</time>
      </trkpt>
      <trkpt lat="44.27605" lon="5.33601">
        <ele>835.52</ele>
        <time>2022-03-27T07:50:58Z</time>
      </trkpt>
      <trkpt lat="44.27604" lon="5.33602">
        <ele>835.52</ele>
        <time>2022-03-27T07:50:59Z</time>
      </trkpt>
      <trkpt lat="44.27603" lon="5.33604">
        <ele>836</ele>
        <time>2022-03-27T07:51:00Z</time>
      </trkpt>
      <trkpt lat="44.27603" lon="5.33605">
        <ele>836</ele>
        <time>2022-03-27T07:51:01Z</time>
      </trkpt>
      <trkpt lat="44.27602" lon="5.33607">
        <ele>836.48</ele>
        <time>2022-03-27T07:51:02Z</time>
      </trkpt>
      <trkpt lat="44.27601" lon="5.33609">
        <ele>836.96</ele>
        <time>2022-03-27T07:51:03Z</time>
      </trkpt>
      <trkpt lat="44.276" lon="5.3361">
        <ele>836.96</ele>
        <time>2022-03-27T07:51:04Z</time>
      </trkpt>
      <trkpt lat="44.27599" lon="5.33611">
        <ele>837.45</ele>
        <time>2022-03-27T07:51:05Z</time>
      </trkpt>
      <trkpt lat="44.27594" lon="5.33619">
        <ele>837.93</ele>
        <time>2022-03-27T07:51:10Z</time>
      </trkpt>
      <trkpt lat="44.27594" lon="5.33621">
        <ele>837.93</ele>
        <time>2022-03-27T07:51:11Z</time>
      </trkpt>
      <trkpt lat="44.27593" lon="5.33623">
        <ele>838.41</ele>
        <time>2022-03-27T07:51:12Z</time>
      </trkpt>
      <trkpt lat="44.27592" lon="5.33624">
        <ele>838.41</ele>
        <time>2022-03-27T07:51:13Z</time>
      </trkpt>
      <trkpt lat="44.27591" lon="5.33626">
        <ele>838.41</ele>
        <time>2022-03-27T07:51:14Z</time>
      </trkpt>
      <trkpt lat="44.27591" lon="5.33628">
        <ele>838.89</ele>
        <time>2022-03-27T07:51:15Z</time>
      </trkpt>
      <trkpt lat="44.2759" lon="5.3363">
        <ele>838.89</ele>
        <time>2022-03-27T07:51:16Z</time>
      </trkpt>
      <trkpt lat="44.27589" lon="5.33632">
        <ele>839.37</ele>
        <time>2022-03-27T07:51:17Z</time>
      </trkpt>
      <trkpt lat="44.27582" lon="5.3366">
        <ele>841.77</ele>
        <time>2022-03-27T07:51:31Z</time>
      </trkpt>
      <trkpt lat="44.27582" lon="5.33662">
        <ele>842.25</ele>
        <time>2022-03-27T07:51:32Z</time>
      </trkpt>
      <trkpt lat="44.27581" lon="5.33664">
        <ele>842.25</ele>
        <time>2022-03-27T07:51:33Z</time>
      </trkpt>
      <trkpt lat="44.27574" lon="5.33691">
        <ele>843.69</ele>
        <time>2022-03-27T07:51:46Z</time>
      </trkpt>
      <trkpt lat="44.27571" lon="5.33703">
        <ele>844.66</ele>
        <time>2022-03-27T07:51:51Z</time>
      </trkpt>
      <trkpt lat="44.2757" lon="5.33737">
        <ele>846.1</ele>
        <time>2022-03-27T07:52:05Z</time>
      </trkpt>
      <trkpt lat="44.27571" lon="5.33747">
        <ele>846.58</ele>
        <time>2022-03-27T07:52:09Z</time>
      </trkpt>
      <trkpt lat="44.27571" lon="5.3375">
        <ele>847.06</ele>
        <time>2022-03-27T07:52:10Z</time>
      </trkpt>
      <trkpt lat="44.27571" lon="5.33752">
        <ele>847.06</ele>
        <time>2022-03-27T07:52:11Z</time>
      </trkpt>
      <trkpt lat="44.27571" lon="5.33768">
        <ele>847.06</ele>
        <time>2022-03-27T07:52:17Z</time>
      </trkpt>
      <trkpt lat="44.27571" lon="5.33771">
        <ele>847.06</ele>
        <time>2022-03-27T07:52:18Z</time>
      </trkpt>
      <trkpt lat="44.27569" lon="5.33818">
        <ele>847.54</ele>
        <time>2022-03-27T07:52:33Z</time>
      </trkpt>
      <trkpt lat="44.27564" lon="5.33851">
        <ele>847.54</ele>
        <time>2022-03-27T07:52:45Z</time>
      </trkpt>
      <trkpt lat="44.27557" lon="5.33898">
        <ele>847.54</ele>
        <time>2022-03-27T07:52:59Z</time>
      </trkpt>
      <trkpt lat="44.27542" lon="5.33943">
        <ele>848.02</ele>
        <time>2022-03-27T07:53:13Z</time>
      </trkpt>
      <trkpt lat="44.27539" lon="5.33952">
        <ele>848.5</ele>
        <time>2022-03-27T07:53:16Z</time>
      </trkpt>
      <trkpt lat="44.27537" lon="5.33955">
        <ele>848.5</ele>
        <time>2022-03-27T07:53:17Z</time>
      </trkpt>
      <trkpt lat="44.27536" lon="5.33957">
        <ele>848.5</ele>
        <time>2022-03-27T07:53:18Z</time>
      </trkpt>
      <trkpt lat="44.27535" lon="5.33959">
        <ele>848.98</ele>
        <time>2022-03-27T07:53:19Z</time>
      </trkpt>
      <trkpt lat="44.27534" lon="5.33961">
        <ele>849.46</ele>
        <time>2022-03-27T07:53:20Z</time>
      </trkpt>
      <trkpt lat="44.27532" lon="5.33963">
        <ele>849.46</ele>
        <time>2022-03-27T07:53:21Z</time>
      </trkpt>
      <trkpt lat="44.2753" lon="5.33965">
        <ele>849.46</ele>
        <time>2022-03-27T07:53:22Z</time>
      </trkpt>
      <trkpt lat="44.27529" lon="5.33967">
        <ele>849.94</ele>
        <time>2022-03-27T07:53:23Z</time>
      </trkpt>
      <trkpt lat="44.27528" lon="5.33969">
        <ele>849.94</ele>
        <time>2022-03-27T07:53:24Z</time>
      </trkpt>
      <trkpt lat="44.27527" lon="5.33971">
        <ele>850.42</ele>
        <time>2022-03-27T07:53:25Z</time>
      </trkpt>
      <trkpt lat="44.27523" lon="5.33982">
        <ele>850.9</ele>
        <time>2022-03-27T07:53:30Z</time>
      </trkpt>
      <trkpt lat="44.27522" lon="5.33985">
        <ele>850.9</ele>
        <time>2022-03-27T07:53:31Z</time>
      </trkpt>
      <trkpt lat="44.27496" lon="5.34005">
        <ele>852.35</ele>
        <time>2022-03-27T07:53:45Z</time>
      </trkpt>
      <trkpt lat="44.27481" lon="5.34017">
        <ele>854.27</ele>
        <time>2022-03-27T07:53:56Z</time>
      </trkpt>
      <trkpt lat="44.27466" lon="5.34045">
        <ele>856.67</ele>
        <time>2022-03-27T07:54:11Z</time>
      </trkpt>
      <trkpt lat="44.27454" lon="5.34077">
        <ele>858.59</ele>
        <time>2022-03-27T07:54:27Z</time>
      </trkpt>
      <trkpt lat="44.27447" lon="5.34106">
        <ele>861</ele>
        <time>2022-03-27T07:54:40Z</time>
      </trkpt>
      <trkpt lat="44.27443" lon="5.34129">
        <ele>862.44</ele>
        <time>2022-03-27T07:54:50Z</time>
      </trkpt>
      <trkpt lat="44.27442" lon="5.34131">
        <ele>862.44</ele>
        <time>2022-03-27T07:54:51Z</time>
      </trkpt>
      <trkpt lat="44.27442" lon="5.34133">
        <ele>862.44</ele>
        <time>2022-03-27T07:54:52Z</time>
      </trkpt>
      <trkpt lat="44.27441" lon="5.3414">
        <ele>863.4</ele>
        <time>2022-03-27T07:54:55Z</time>
      </trkpt>
      <trkpt lat="44.27441" lon="5.34142">
        <ele>863.4</ele>
        <time>2022-03-27T07:54:56Z</time>
      </trkpt>
      <trkpt lat="44.27441" lon="5.34144">
        <ele>863.4</ele>
        <time>2022-03-27T07:54:57Z</time>
      </trkpt>
      <trkpt lat="44.2744" lon="5.34146">
        <ele>863.88</ele>
        <time>2022-03-27T07:54:58Z</time>
      </trkpt>
      <trkpt lat="44.2744" lon="5.34148">
        <ele>863.4</ele>
        <time>2022-03-27T07:54:59Z</time>
      </trkpt>
      <trkpt lat="44.2744" lon="5.3415">
        <ele>863.88</ele>
        <time>2022-03-27T07:55:00Z</time>
      </trkpt>
      <trkpt lat="44.2744" lon="5.34152">
        <ele>863.88</ele>
        <time>2022-03-27T07:55:01Z</time>
      </trkpt>
      <trkpt lat="44.27439" lon="5.34154">
        <ele>863.88</ele>
        <time>2022-03-27T07:55:02Z</time>
      </trkpt>
      <trkpt lat="44.27439" lon="5.34156">
        <ele>864.36</ele>
        <time>2022-03-27T07:55:03Z</time>
      </trkpt>
      <trkpt lat="44.27438" lon="5.34158">
        <ele>864.36</ele>
        <time>2022-03-27T07:55:04Z</time>
      </trkpt>
      <trkpt lat="44.27438" lon="5.34161">
        <ele>864.84</ele>
        <time>2022-03-27T07:55:05Z</time>
      </trkpt>
      <trkpt lat="44.27438" lon="5.34163">
        <ele>864.84</ele>
        <time>2022-03-27T07:55:06Z</time>
      </trkpt>
      <trkpt lat="44.27438" lon="5.34165">
        <ele>864.84</ele>
        <time>2022-03-27T07:55:07Z</time>
      </trkpt>
      <trkpt lat="44.27436" lon="5.34196">
        <ele>866.77</ele>
        <time>2022-03-27T07:55:20Z</time>
      </trkpt>
      <trkpt lat="44.27433" lon="5.34229">
        <ele>868.21</ele>
        <time>2022-03-27T07:55:34Z</time>
      </trkpt>
      <trkpt lat="44.27432" lon="5.34261">
        <ele>870.13</ele>
        <time>2022-03-27T07:55:48Z</time>
      </trkpt>
      <trkpt lat="44.27431" lon="5.34276">
        <ele>872.53</ele>
        <time>2022-03-27T07:56:01Z</time>
      </trkpt>
      <trkpt lat="44.27431" lon="5.34275">
        <ele>872.53</ele>
        <time>2022-03-27T07:56:14Z</time>
      </trkpt>
      <trkpt lat="44.27431" lon="5.34275">
        <ele>872.53</ele>
        <time>2022-03-27T07:56:25Z</time>
      </trkpt>
      <trkpt lat="44.27431" lon="5.34274">
        <ele>872.53</ele>
        <time>2022-03-27T07:56:35Z</time>
      </trkpt>
      <trkpt lat="44.27431" lon="5.34275">
        <ele>872.53</ele>
        <time>2022-03-27T07:57:13Z</time>
      </trkpt>
      <trkpt lat="44.27432" lon="5.34276">
        <ele>872.53</ele>
        <time>2022-03-27T07:57:44Z</time>
      </trkpt>
      <trkpt lat="44.27431" lon="5.34292">
        <ele>873.5</ele>
        <time>2022-03-27T07:57:55Z</time>
      </trkpt>
      <trkpt lat="44.27428" lon="5.34335">
        <ele>875.9</ele>
        <time>2022-03-27T07:58:12Z</time>
      </trkpt>
      <trkpt lat="44.27427" lon="5.34368">
        <ele>876.86</ele>
        <time>2022-03-27T07:58:26Z</time>
      </trkpt>
      <trkpt lat="44.27426" lon="5.34407">
        <ele>879.26</ele>
        <time>2022-03-27T07:58:42Z</time>
      </trkpt>
      <trkpt lat="44.27426" lon="5.3444">
        <ele>882.15</ele>
        <time>2022-03-27T07:58:56Z</time>
      </trkpt>
      <trkpt lat="44.27428" lon="5.34477">
        <ele>884.55</ele>
        <time>2022-03-27T07:59:12Z</time>
      </trkpt>
      <trkpt lat="44.27431" lon="5.34509">
        <ele>885.51</ele>
        <time>2022-03-27T07:59:24Z</time>
      </trkpt>
      <trkpt lat="44.27432" lon="5.34527">
        <ele>887.43</ele>
        <time>2022-03-27T07:59:31Z</time>
      </trkpt>
      <trkpt lat="44.27436" lon="5.34565">
        <ele>888.4</ele>
        <time>2022-03-27T07:59:46Z</time>
      </trkpt>
      <trkpt lat="44.27442" lon="5.34597">
        <ele>891.28</ele>
        <time>2022-03-27T08:00:00Z</time>
      </trkpt>
      <trkpt lat="44.27444" lon="5.34613">
        <ele>892.24</ele>
        <time>2022-03-27T08:00:07Z</time>
      </trkpt>
      <trkpt lat="44.2745" lon="5.34638">
        <ele>894.16</ele>
        <time>2022-03-27T08:00:20Z</time>
      </trkpt>
      <trkpt lat="44.27456" lon="5.34672">
        <ele>896.09</ele>
        <time>2022-03-27T08:00:37Z</time>
      </trkpt>
      <trkpt lat="44.27466" lon="5.34704">
        <ele>896.57</ele>
        <time>2022-03-27T08:00:53Z</time>
      </trkpt>
      <trkpt lat="44.27477" lon="5.34735">
        <ele>897.53</ele>
        <time>2022-03-27T08:01:07Z</time>
      </trkpt>
      <trkpt lat="44.27489" lon="5.34764">
        <ele>897.53</ele>
        <time>2022-03-27T08:01:22Z</time>
      </trkpt>
      <trkpt lat="44.27494" lon="5.34772">
        <ele>898.97</ele>
        <time>2022-03-27T08:01:35Z</time>
      </trkpt>
      <trkpt lat="44.27494" lon="5.34772">
        <ele>898.01</ele>
        <time>2022-03-27T08:01:59Z</time>
      </trkpt>
      <trkpt lat="44.27496" lon="5.34777">
        <ele>898.01</ele>
        <time>2022-03-27T08:02:02Z</time>
      </trkpt>
      <trkpt lat="44.27497" lon="5.34779">
        <ele>897.53</ele>
        <time>2022-03-27T08:02:03Z</time>
      </trkpt>
      <trkpt lat="44.27498" lon="5.34781">
        <ele>898.01</ele>
        <time>2022-03-27T08:02:04Z</time>
      </trkpt>
      <trkpt lat="44.27499" lon="5.34784">
        <ele>898.01</ele>
        <time>2022-03-27T08:02:05Z</time>
      </trkpt>
      <trkpt lat="44.275" lon="5.34786">
        <ele>898.01</ele>
        <time>2022-03-27T08:02:06Z</time>
      </trkpt>
      <trkpt lat="44.27522" lon="5.34827">
        <ele>896.57</ele>
        <time>2022-03-27T08:02:20Z</time>
      </trkpt>
      <trkpt lat="44.27529" lon="5.34837">
        <ele>894.64</ele>
        <time>2022-03-27T08:02:23Z</time>
      </trkpt>
      <trkpt lat="44.27563" lon="5.34871">
        <ele>894.16</ele>
        <time>2022-03-27T08:02:35Z</time>
      </trkpt>
      <trkpt lat="44.27565" lon="5.34906">
        <ele>896.57</ele>
        <time>2022-03-27T08:02:47Z</time>
      </trkpt>
      <trkpt lat="44.27555" lon="5.34951">
        <ele>895.61</ele>
        <time>2022-03-27T08:03:02Z</time>
      </trkpt>
      <trkpt lat="44.27555" lon="5.35006">
        <ele>893.2</ele>
        <time>2022-03-27T08:03:14Z</time>
      </trkpt>
      <trkpt lat="44.27556" lon="5.35012">
        <ele>892.72</ele>
        <time>2022-03-27T08:03:15Z</time>
      </trkpt>
      <trkpt lat="44.27565" lon="5.35065">
        <ele>894.16</ele>
        <time>2022-03-27T08:03:27Z</time>
      </trkpt>
      <trkpt lat="44.27566" lon="5.35067">
        <ele>894.64</ele>
        <time>2022-03-27T08:03:28Z</time>
      </trkpt>
      <trkpt lat="44.27567" lon="5.35069">
        <ele>894.64</ele>
        <time>2022-03-27T08:03:29Z</time>
      </trkpt>
      <trkpt lat="44.27569" lon="5.35071">
        <ele>895.12</ele>
        <time>2022-03-27T08:03:30Z</time>
      </trkpt>
      <trkpt lat="44.2757" lon="5.35072">
        <ele>895.61</ele>
        <time>2022-03-27T08:03:31Z</time>
      </trkpt>
      <trkpt lat="44.27571" lon="5.35075">
        <ele>895.61</ele>
        <time>2022-03-27T08:03:32Z</time>
      </trkpt>
      <trkpt lat="44.27572" lon="5.35077">
        <ele>895.61</ele>
        <time>2022-03-27T08:03:33Z</time>
      </trkpt>
      <trkpt lat="44.27573" lon="5.35079">
        <ele>896.09</ele>
        <time>2022-03-27T08:03:34Z</time>
      </trkpt>
      <trkpt lat="44.27574" lon="5.35082">
        <ele>896.57</ele>
        <time>2022-03-27T08:03:35Z</time>
      </trkpt>
      <trkpt lat="44.27574" lon="5.35084">
        <ele>897.05</ele>
        <time>2022-03-27T08:03:36Z</time>
      </trkpt>
      <trkpt lat="44.27575" lon="5.35099">
        <ele>898.49</ele>
        <time>2022-03-27T08:03:43Z</time>
      </trkpt>
      <trkpt lat="44.27578" lon="5.35132">
        <ele>899.45</ele>
        <time>2022-03-27T08:03:56Z</time>
      </trkpt>
      <trkpt lat="44.2758" lon="5.35169">
        <ele>901.37</ele>
        <time>2022-03-27T08:04:11Z</time>
      </trkpt>
      <trkpt lat="44.27578" lon="5.35201">
        <ele>903.3</ele>
        <time>2022-03-27T08:04:24Z</time>
      </trkpt>
      <trkpt lat="44.27568" lon="5.35242">
        <ele>905.7</ele>
        <time>2022-03-27T08:04:41Z</time>
      </trkpt>
      <trkpt lat="44.27558" lon="5.35282">
        <ele>908.1</ele>
        <time>2022-03-27T08:04:58Z</time>
      </trkpt>
      <trkpt lat="44.27557" lon="5.35297">
        <ele>909.54</ele>
        <time>2022-03-27T08:05:05Z</time>
      </trkpt>
      <trkpt lat="44.27557" lon="5.35299">
        <ele>909.06</ele>
        <time>2022-03-27T08:05:06Z</time>
      </trkpt>
      <trkpt lat="44.27557" lon="5.35301">
        <ele>909.54</ele>
        <time>2022-03-27T08:05:07Z</time>
      </trkpt>
      <trkpt lat="44.27557" lon="5.35303">
        <ele>909.06</ele>
        <time>2022-03-27T08:05:08Z</time>
      </trkpt>
      <trkpt lat="44.27557" lon="5.35305">
        <ele>909.54</ele>
        <time>2022-03-27T08:05:09Z</time>
      </trkpt>
      <trkpt lat="44.27557" lon="5.35307">
        <ele>910.03</ele>
        <time>2022-03-27T08:05:10Z</time>
      </trkpt>
      <trkpt lat="44.27557" lon="5.3531">
        <ele>909.54</ele>
        <time>2022-03-27T08:05:11Z</time>
      </trkpt>
      <trkpt lat="44.27557" lon="5.35312">
        <ele>910.03</ele>
        <time>2022-03-27T08:05:12Z</time>
      </trkpt>
      <trkpt lat="44.2756" lon="5.35338">
        <ele>912.43</ele>
        <time>2022-03-27T08:05:24Z</time>
      </trkpt>
      <trkpt lat="44.27554" lon="5.35367">
        <ele>913.39</ele>
        <time>2022-03-27T08:05:37Z</time>
      </trkpt>
      <trkpt lat="44.27551" lon="5.35402">
        <ele>916.27</ele>
        <time>2022-03-27T08:05:53Z</time>
      </trkpt>
      <trkpt lat="44.27548" lon="5.35426">
        <ele>917.72</ele>
        <time>2022-03-27T08:06:04Z</time>
      </trkpt>
      <trkpt lat="44.27548" lon="5.35428">
        <ele>917.72</ele>
        <time>2022-03-27T08:06:05Z</time>
      </trkpt>
      <trkpt lat="44.27548" lon="5.3543">
        <ele>917.72</ele>
        <time>2022-03-27T08:06:06Z</time>
      </trkpt>
      <trkpt lat="44.27548" lon="5.35461">
        <ele>920.12</ele>
        <time>2022-03-27T08:06:20Z</time>
      </trkpt>
      <trkpt lat="44.27551" lon="5.35486">
        <ele>922.52</ele>
        <time>2022-03-27T08:06:33Z</time>
      </trkpt>
      <trkpt lat="44.27551" lon="5.35488">
        <ele>923</ele>
        <time>2022-03-27T08:06:34Z</time>
      </trkpt>
      <trkpt lat="44.27551" lon="5.3549">
        <ele>923</ele>
        <time>2022-03-27T08:06:35Z</time>
      </trkpt>
      <trkpt lat="44.27551" lon="5.35491">
        <ele>923</ele>
        <time>2022-03-27T08:06:36Z</time>
      </trkpt>
      <trkpt lat="44.27551" lon="5.35493">
        <ele>923</ele>
        <time>2022-03-27T08:06:37Z</time>
      </trkpt>
      <trkpt lat="44.27552" lon="5.35495">
        <ele>923.48</ele>
        <time>2022-03-27T08:06:38Z</time>
      </trkpt>
      <trkpt lat="44.27552" lon="5.35497">
        <ele>923.48</ele>
        <time>2022-03-27T08:06:39Z</time>
      </trkpt>
      <trkpt lat="44.27553" lon="5.35499">
        <ele>923.96</ele>
        <time>2022-03-27T08:06:40Z</time>
      </trkpt>
      <trkpt lat="44.27552" lon="5.35502">
        <ele>923.96</ele>
        <time>2022-03-27T08:06:41Z</time>
      </trkpt>
      <trkpt lat="44.27552" lon="5.35504">
        <ele>924.45</ele>
        <time>2022-03-27T08:06:42Z</time>
      </trkpt>
      <trkpt lat="44.27553" lon="5.35506">
        <ele>924.45</ele>
        <time>2022-03-27T08:06:43Z</time>
      </trkpt>
      <trkpt lat="44.27553" lon="5.35508">
        <ele>924.45</ele>
        <time>2022-03-27T08:06:44Z</time>
      </trkpt>
      <trkpt lat="44.27557" lon="5.35536">
        <ele>926.85</ele>
        <time>2022-03-27T08:06:58Z</time>
      </trkpt>
      <trkpt lat="44.27558" lon="5.35548">
        <ele>927.81</ele>
        <time>2022-03-27T08:07:04Z</time>
      </trkpt>
      <trkpt lat="44.27559" lon="5.35581">
        <ele>930.21</ele>
        <time>2022-03-27T08:07:20Z</time>
      </trkpt>
      <trkpt lat="44.27559" lon="5.35583">
        <ele>930.69</ele>
        <time>2022-03-27T08:07:21Z</time>
      </trkpt>
      <trkpt lat="44.27557" lon="5.35586">
        <ele>930.69</ele>
        <time>2022-03-27T08:07:23Z</time>
      </trkpt>
      <trkpt lat="44.27557" lon="5.35588">
        <ele>931.17</ele>
        <time>2022-03-27T08:07:24Z</time>
      </trkpt>
      <trkpt lat="44.27558" lon="5.3559">
        <ele>931.17</ele>
        <time>2022-03-27T08:07:25Z</time>
      </trkpt>
      <trkpt lat="44.27558" lon="5.35592">
        <ele>931.65</ele>
        <time>2022-03-27T08:07:26Z</time>
      </trkpt>
      <trkpt lat="44.27558" lon="5.35595">
        <ele>931.65</ele>
        <time>2022-03-27T08:07:27Z</time>
      </trkpt>
      <trkpt lat="44.27557" lon="5.35597">
        <ele>932.14</ele>
        <time>2022-03-27T08:07:28Z</time>
      </trkpt>
      <trkpt lat="44.27557" lon="5.35599">
        <ele>932.14</ele>
        <time>2022-03-27T08:07:29Z</time>
      </trkpt>
      <trkpt lat="44.27557" lon="5.35602">
        <ele>932.14</ele>
        <time>2022-03-27T08:07:30Z</time>
      </trkpt>
      <trkpt lat="44.27557" lon="5.35604">
        <ele>932.14</ele>
        <time>2022-03-27T08:07:31Z</time>
      </trkpt>
      <trkpt lat="44.27556" lon="5.35606">
        <ele>932.62</ele>
        <time>2022-03-27T08:07:32Z</time>
      </trkpt>
      <trkpt lat="44.27556" lon="5.35608">
        <ele>932.62</ele>
        <time>2022-03-27T08:07:33Z</time>
      </trkpt>
      <trkpt lat="44.27556" lon="5.3561">
        <ele>932.62</ele>
        <time>2022-03-27T08:07:34Z</time>
      </trkpt>
      <trkpt lat="44.27555" lon="5.35612">
        <ele>933.1</ele>
        <time>2022-03-27T08:07:35Z</time>
      </trkpt>
      <trkpt lat="44.27556" lon="5.35614">
        <ele>933.1</ele>
        <time>2022-03-27T08:07:36Z</time>
      </trkpt>
      <trkpt lat="44.27556" lon="5.35616">
        <ele>933.58</ele>
        <time>2022-03-27T08:07:37Z</time>
      </trkpt>
      <trkpt lat="44.27552" lon="5.35645">
        <ele>935.98</ele>
        <time>2022-03-27T08:07:51Z</time>
      </trkpt>
      <trkpt lat="44.27551" lon="5.35652">
        <ele>936.46</ele>
        <time>2022-03-27T08:07:54Z</time>
      </trkpt>
      <trkpt lat="44.2755" lon="5.35654">
        <ele>936.46</ele>
        <time>2022-03-27T08:07:55Z</time>
      </trkpt>
      <trkpt lat="44.2755" lon="5.35656">
        <ele>936.94</ele>
        <time>2022-03-27T08:07:56Z</time>
      </trkpt>
      <trkpt lat="44.2755" lon="5.35658">
        <ele>936.94</ele>
        <time>2022-03-27T08:07:57Z</time>
      </trkpt>
      <trkpt lat="44.2755" lon="5.3566">
        <ele>936.94</ele>
        <time>2022-03-27T08:07:58Z</time>
      </trkpt>
      <trkpt lat="44.27549" lon="5.35664">
        <ele>937.42</ele>
        <time>2022-03-27T08:08:08Z</time>
      </trkpt>
      <trkpt lat="44.27553" lon="5.35662">
        <ele>938.38</ele>
        <time>2022-03-27T08:08:21Z</time>
      </trkpt>
      <trkpt lat="44.27563" lon="5.35668">
        <ele>940.31</ele>
        <time>2022-03-27T08:08:36Z</time>
      </trkpt>
      <trkpt lat="44.27564" lon="5.35671">
        <ele>940.79</ele>
        <time>2022-03-27T08:08:56Z</time>
      </trkpt>
      <trkpt lat="44.27568" lon="5.35674">
        <ele>941.27</ele>
        <time>2022-03-27T08:09:01Z</time>
      </trkpt>
      <trkpt lat="44.27569" lon="5.35675">
        <ele>942.23</ele>
        <time>2022-03-27T08:09:14Z</time>
      </trkpt>
      <trkpt lat="44.2757" lon="5.35676">
        <ele>942.71</ele>
        <time>2022-03-27T08:09:17Z</time>
      </trkpt>
      <trkpt lat="44.27576" lon="5.35682">
        <ele>944.15</ele>
        <time>2022-03-27T08:09:26Z</time>
      </trkpt>
      <trkpt lat="44.27579" lon="5.35684">
        <ele>945.11</ele>
        <time>2022-03-27T08:09:39Z</time>
      </trkpt>
      <trkpt lat="44.27579" lon="5.35684">
        <ele>945.11</ele>
        <time>2022-03-27T08:10:08Z</time>
      </trkpt>
      <trkpt lat="44.2758" lon="5.35684">
        <ele>945.11</ele>
        <time>2022-03-27T08:10:22Z</time>
      </trkpt>
      <trkpt lat="44.27584" lon="5.35687">
        <ele>946.07</ele>
        <time>2022-03-27T08:10:26Z</time>
      </trkpt>
      <trkpt lat="44.27595" lon="5.35691">
        <ele>948.96</ele>
        <time>2022-03-27T08:10:38Z</time>
      </trkpt>
      <trkpt lat="44.27602" lon="5.35694">
        <ele>951.36</ele>
        <time>2022-03-27T08:10:47Z</time>
      </trkpt>
      <trkpt lat="44.27613" lon="5.35697">
        <ele>954.25</ele>
        <time>2022-03-27T08:11:03Z</time>
      </trkpt>
      <trkpt lat="44.27615" lon="5.35697">
        <ele>955.69</ele>
        <time>2022-03-27T08:11:19Z</time>
      </trkpt>
      <trkpt lat="44.27623" lon="5.35702">
        <ele>958.57</ele>
        <time>2022-03-27T08:11:33Z</time>
      </trkpt>
      <trkpt lat="44.27632" lon="5.35706">
        <ele>961.94</ele>
        <time>2022-03-27T08:11:45Z</time>
      </trkpt>
      <trkpt lat="44.2764" lon="5.3571">
        <ele>964.82</ele>
        <time>2022-03-27T08:11:57Z</time>
      </trkpt>
      <trkpt lat="44.27647" lon="5.35712">
        <ele>967.7</ele>
        <time>2022-03-27T08:12:06Z</time>
      </trkpt>
      <trkpt lat="44.27649" lon="5.35708">
        <ele>967.7</ele>
        <time>2022-03-27T08:12:22Z</time>
      </trkpt>
      <trkpt lat="44.27649" lon="5.35708">
        <ele>967.7</ele>
        <time>2022-03-27T08:12:41Z</time>
      </trkpt>
      <trkpt lat="44.27649" lon="5.35708">
        <ele>967.7</ele>
        <time>2022-03-27T08:13:00Z</time>
      </trkpt>
      <trkpt lat="44.27652" lon="5.35703">
        <ele>968.67</ele>
        <time>2022-03-27T08:13:14Z</time>
      </trkpt>
      <trkpt lat="44.27652" lon="5.35703">
        <ele>968.67</ele>
        <time>2022-03-27T08:13:25Z</time>
      </trkpt>
      <trkpt lat="44.27655" lon="5.35693">
        <ele>968.67</ele>
        <time>2022-03-27T08:13:31Z</time>
      </trkpt>
      <trkpt lat="44.27667" lon="5.35652">
        <ele>971.07</ele>
        <time>2022-03-27T08:13:51Z</time>
      </trkpt>
      <trkpt lat="44.27676" lon="5.35619">
        <ele>972.99</ele>
        <time>2022-03-27T08:14:07Z</time>
      </trkpt>
      <trkpt lat="44.27688" lon="5.35582">
        <ele>974.91</ele>
        <time>2022-03-27T08:14:25Z</time>
      </trkpt>
      <trkpt lat="44.277" lon="5.35549">
        <ele>976.36</ele>
        <time>2022-03-27T08:14:42Z</time>
      </trkpt>
      <trkpt lat="44.27702" lon="5.35546">
        <ele>976.84</ele>
        <time>2022-03-27T08:14:44Z</time>
      </trkpt>
      <trkpt lat="44.27705" lon="5.35539">
        <ele>977.32</ele>
        <time>2022-03-27T08:14:48Z</time>
      </trkpt>
      <trkpt lat="44.2772" lon="5.35511">
        <ele>979.72</ele>
        <time>2022-03-27T08:15:05Z</time>
      </trkpt>
      <trkpt lat="44.27733" lon="5.35483">
        <ele>981.16</ele>
        <time>2022-03-27T08:15:20Z</time>
      </trkpt>
      <trkpt lat="44.27734" lon="5.35479">
        <ele>981.64</ele>
        <time>2022-03-27T08:15:22Z</time>
      </trkpt>
      <trkpt lat="44.27738" lon="5.35473">
        <ele>982.12</ele>
        <time>2022-03-27T08:15:26Z</time>
      </trkpt>
      <trkpt lat="44.27755" lon="5.35449">
        <ele>985.01</ele>
        <time>2022-03-27T08:15:42Z</time>
      </trkpt>
      <trkpt lat="44.27764" lon="5.35425">
        <ele>986.45</ele>
        <time>2022-03-27T08:15:57Z</time>
      </trkpt>
      <trkpt lat="44.27764" lon="5.35425">
        <ele>986.45</ele>
        <time>2022-03-27T08:16:20Z</time>
      </trkpt>
      <trkpt lat="44.27764" lon="5.35425">
        <ele>986.45</ele>
        <time>2022-03-27T08:16:45Z</time>
      </trkpt>
      <trkpt lat="44.27765" lon="5.35421">
        <ele>986.45</ele>
        <time>2022-03-27T08:16:58Z</time>
      </trkpt>
      <trkpt lat="44.27768" lon="5.35381">
        <ele>988.85</ele>
        <time>2022-03-27T08:17:15Z</time>
      </trkpt>
      <trkpt lat="44.27771" lon="5.35344">
        <ele>991.26</ele>
        <time>2022-03-27T08:17:31Z</time>
      </trkpt>
      <trkpt lat="44.27777" lon="5.35314">
        <ele>993.66</ele>
        <time>2022-03-27T08:17:45Z</time>
      </trkpt>
      <trkpt lat="44.27781" lon="5.35278">
        <ele>996.06</ele>
        <time>2022-03-27T08:18:01Z</time>
      </trkpt>
      <trkpt lat="44.27783" lon="5.35254">
        <ele>997.51</ele>
        <time>2022-03-27T08:18:11Z</time>
      </trkpt>
      <trkpt lat="44.27789" lon="5.35222">
        <ele>999.91</ele>
        <time>2022-03-27T08:18:26Z</time>
      </trkpt>
      <trkpt lat="44.27793" lon="5.35205">
        <ele>1000.87</ele>
        <time>2022-03-27T08:18:34Z</time>
      </trkpt>
      <trkpt lat="44.27797" lon="5.35174">
        <ele>1001.83</ele>
        <time>2022-03-27T08:18:48Z</time>
      </trkpt>
      <trkpt lat="44.27803" lon="5.3514">
        <ele>1003.75</ele>
        <time>2022-03-27T08:19:04Z</time>
      </trkpt>
      <trkpt lat="44.27804" lon="5.35132">
        <ele>1004.23</ele>
        <time>2022-03-27T08:19:08Z</time>
      </trkpt>
      <trkpt lat="44.27805" lon="5.35099">
        <ele>1005.68</ele>
        <time>2022-03-27T08:19:24Z</time>
      </trkpt>
      <trkpt lat="44.27807" lon="5.35074">
        <ele>1007.6</ele>
        <time>2022-03-27T08:19:37Z</time>
      </trkpt>
      <trkpt lat="44.27808" lon="5.35049">
        <ele>1008.56</ele>
        <time>2022-03-27T08:19:49Z</time>
      </trkpt>
      <trkpt lat="44.27808" lon="5.3504">
        <ele>1009.52</ele>
        <time>2022-03-27T08:19:53Z</time>
      </trkpt>
      <trkpt lat="44.27808" lon="5.35009">
        <ele>1010.96</ele>
        <time>2022-03-27T08:20:08Z</time>
      </trkpt>
      <trkpt lat="44.27808" lon="5.34996">
        <ele>1012.41</ele>
        <time>2022-03-27T08:20:20Z</time>
      </trkpt>
      <trkpt lat="44.27807" lon="5.34993">
        <ele>1012.41</ele>
        <time>2022-03-27T08:20:29Z</time>
      </trkpt>
      <trkpt lat="44.27807" lon="5.34967">
        <ele>1013.85</ele>
        <time>2022-03-27T08:20:42Z</time>
      </trkpt>
      <trkpt lat="44.27807" lon="5.34924">
        <ele>1014.81</ele>
        <time>2022-03-27T08:21:00Z</time>
      </trkpt>
      <trkpt lat="44.27808" lon="5.34907">
        <ele>1014.81</ele>
        <time>2022-03-27T08:21:11Z</time>
      </trkpt>
      <trkpt lat="44.27808" lon="5.34907">
        <ele>1014.81</ele>
        <time>2022-03-27T08:21:43Z</time>
      </trkpt>
      <trkpt lat="44.27809" lon="5.3489">
        <ele>1014.33</ele>
        <time>2022-03-27T08:21:54Z</time>
      </trkpt>
      <trkpt lat="44.27815" lon="5.3485">
        <ele>1014.33</ele>
        <time>2022-03-27T08:22:10Z</time>
      </trkpt>
      <trkpt lat="44.27818" lon="5.34833">
        <ele>1013.85</ele>
        <time>2022-03-27T08:22:23Z</time>
      </trkpt>
      <trkpt lat="44.2782" lon="5.34819">
        <ele>1013.85</ele>
        <time>2022-03-27T08:22:37Z</time>
      </trkpt>
      <trkpt lat="44.2782" lon="5.34818">
        <ele>1013.85</ele>
        <time>2022-03-27T08:22:49Z</time>
      </trkpt>
      <trkpt lat="44.27821" lon="5.34807">
        <ele>1013.85</ele>
        <time>2022-03-27T08:22:54Z</time>
      </trkpt>
      <trkpt lat="44.27825" lon="5.34757">
        <ele>1013.85</ele>
        <time>2022-03-27T08:23:11Z</time>
      </trkpt>
      <trkpt lat="44.2783" lon="5.34709">
        <ele>1012.89</ele>
        <time>2022-03-27T08:23:25Z</time>
      </trkpt>
      <trkpt lat="44.27839" lon="5.34636">
        <ele>1011.93</ele>
        <time>2022-03-27T08:23:43Z</time>
      </trkpt>
      <trkpt lat="44.27837" lon="5.34579">
        <ele>1011.93</ele>
        <time>2022-03-27T08:23:59Z</time>
      </trkpt>
      <trkpt lat="44.27823" lon="5.34546">
        <ele>1011.93</ele>
        <time>2022-03-27T08:24:11Z</time>
      </trkpt>
      <trkpt lat="44.27795" lon="5.34504">
        <ele>1010.96</ele>
        <time>2022-03-27T08:24:25Z</time>
      </trkpt>
      <trkpt lat="44.27758" lon="5.34456">
        <ele>1010</ele>
        <time>2022-03-27T08:24:41Z</time>
      </trkpt>
      <trkpt lat="44.27744" lon="5.3441">
        <ele>1009.52</ele>
        <time>2022-03-27T08:24:54Z</time>
      </trkpt>
      <trkpt lat="44.27744" lon="5.34404">
        <ele>1009.04</ele>
        <time>2022-03-27T08:24:56Z</time>
      </trkpt>
      <trkpt lat="44.27751" lon="5.34401">
        <ele>1010</ele>
        <time>2022-03-27T08:25:03Z</time>
      </trkpt>
      <trkpt lat="44.27755" lon="5.34423">
        <ele>1012.41</ele>
        <time>2022-03-27T08:25:14Z</time>
      </trkpt>
      <trkpt lat="44.27768" lon="5.34443">
        <ele>1013.85</ele>
        <time>2022-03-27T08:25:28Z</time>
      </trkpt>
      <trkpt lat="44.27779" lon="5.34455">
        <ele>1015.29</ele>
        <time>2022-03-27T08:25:38Z</time>
      </trkpt>
      <trkpt lat="44.27785" lon="5.34462">
        <ele>1016.25</ele>
        <time>2022-03-27T08:25:44Z</time>
      </trkpt>
      <trkpt lat="44.27788" lon="5.34463">
        <ele>1016.73</ele>
        <time>2022-03-27T08:25:46Z</time>
      </trkpt>
      <trkpt lat="44.27796" lon="5.34473">
        <ele>1017.69</ele>
        <time>2022-03-27T08:25:54Z</time>
      </trkpt>
      <trkpt lat="44.27807" lon="5.34482">
        <ele>1019.62</ele>
        <time>2022-03-27T08:26:04Z</time>
      </trkpt>
      <trkpt lat="44.27822" lon="5.34497">
        <ele>1021.54</ele>
        <time>2022-03-27T08:26:19Z</time>
      </trkpt>
      <trkpt lat="44.27826" lon="5.345">
        <ele>1021.54</ele>
        <time>2022-03-27T08:26:22Z</time>
      </trkpt>
      <trkpt lat="44.27831" lon="5.34504">
        <ele>1022.5</ele>
        <time>2022-03-27T08:26:27Z</time>
      </trkpt>
      <trkpt lat="44.27848" lon="5.34522">
        <ele>1024.42</ele>
        <time>2022-03-27T08:26:43Z</time>
      </trkpt>
      <trkpt lat="44.27863" lon="5.34541">
        <ele>1026.83</ele>
        <time>2022-03-27T08:26:58Z</time>
      </trkpt>
      <trkpt lat="44.27868" lon="5.34548">
        <ele>1027.79</ele>
        <time>2022-03-27T08:27:04Z</time>
      </trkpt>
      <trkpt lat="44.2788" lon="5.34574">
        <ele>1030.19</ele>
        <time>2022-03-27T08:27:21Z</time>
      </trkpt>
      <trkpt lat="44.27882" lon="5.34577">
        <ele>1030.67</ele>
        <time>2022-03-27T08:27:23Z</time>
      </trkpt>
      <trkpt lat="44.27885" lon="5.34585">
        <ele>1031.63</ele>
        <time>2022-03-27T08:27:28Z</time>
      </trkpt>
      <trkpt lat="44.27892" lon="5.34617">
        <ele>1034.52</ele>
        <time>2022-03-27T08:27:46Z</time>
      </trkpt>
      <trkpt lat="44.27893" lon="5.34649">
        <ele>1036.92</ele>
        <time>2022-03-27T08:28:03Z</time>
      </trkpt>
      <trkpt lat="44.27894" lon="5.34674">
        <ele>1039.32</ele>
        <time>2022-03-27T08:28:17Z</time>
      </trkpt>
      <trkpt lat="44.27894" lon="5.34704">
        <ele>1041.73</ele>
        <time>2022-03-27T08:28:34Z</time>
      </trkpt>
      <trkpt lat="44.27895" lon="5.3473">
        <ele>1043.65</ele>
        <time>2022-03-27T08:28:48Z</time>
      </trkpt>
      <trkpt lat="44.27897" lon="5.34758">
        <ele>1046.05</ele>
        <time>2022-03-27T08:29:03Z</time>
      </trkpt>
      <trkpt lat="44.27898" lon="5.34784">
        <ele>1047.97</ele>
        <time>2022-03-27T08:29:17Z</time>
      </trkpt>
      <trkpt lat="44.27901" lon="5.34809">
        <ele>1050.38</ele>
        <time>2022-03-27T08:29:31Z</time>
      </trkpt>
      <trkpt lat="44.27902" lon="5.34839">
        <ele>1052.3</ele>
        <time>2022-03-27T08:29:47Z</time>
      </trkpt>
      <trkpt lat="44.27904" lon="5.34871">
        <ele>1054.7</ele>
        <time>2022-03-27T08:30:03Z</time>
      </trkpt>
      <trkpt lat="44.27904" lon="5.34873">
        <ele>1054.7</ele>
        <time>2022-03-27T08:30:04Z</time>
      </trkpt>
      <trkpt lat="44.27907" lon="5.34906">
        <ele>1057.59</ele>
        <time>2022-03-27T08:30:21Z</time>
      </trkpt>
      <trkpt lat="44.27909" lon="5.34923">
        <ele>1058.55</ele>
        <time>2022-03-27T08:30:30Z</time>
      </trkpt>
      <trkpt lat="44.27911" lon="5.34926">
        <ele>1059.03</ele>
        <time>2022-03-27T08:30:32Z</time>
      </trkpt>
      <trkpt lat="44.27918" lon="5.34958">
        <ele>1061.43</ele>
        <time>2022-03-27T08:30:49Z</time>
      </trkpt>
      <trkpt lat="44.27924" lon="5.34981">
        <ele>1062.87</ele>
        <time>2022-03-27T08:31:01Z</time>
      </trkpt>
      <trkpt lat="44.27931" lon="5.35005">
        <ele>1064.32</ele>
        <time>2022-03-27T08:31:14Z</time>
      </trkpt>
      <trkpt lat="44.27933" lon="5.3501">
        <ele>1064.32</ele>
        <time>2022-03-27T08:31:17Z</time>
      </trkpt>
      <trkpt lat="44.27937" lon="5.35019">
        <ele>1065.28</ele>
        <time>2022-03-27T08:31:22Z</time>
      </trkpt>
      <trkpt lat="44.2794" lon="5.35031">
        <ele>1066.24</ele>
        <time>2022-03-27T08:31:28Z</time>
      </trkpt>
      <trkpt lat="44.27945" lon="5.35044">
        <ele>1067.2</ele>
        <time>2022-03-27T08:31:35Z</time>
      </trkpt>
      <trkpt lat="44.27957" lon="5.35072">
        <ele>1069.12</ele>
        <time>2022-03-27T08:31:51Z</time>
      </trkpt>
      <trkpt lat="44.27959" lon="5.35076">
        <ele>1069.12</ele>
        <time>2022-03-27T08:31:54Z</time>
      </trkpt>
      <trkpt lat="44.27962" lon="5.35086">
        <ele>1070.08</ele>
        <time>2022-03-27T08:31:59Z</time>
      </trkpt>
      <trkpt lat="44.27967" lon="5.35098">
        <ele>1070.08</ele>
        <time>2022-03-27T08:32:05Z</time>
      </trkpt>
      <trkpt lat="44.27979" lon="5.35135">
        <ele>1071.53</ele>
        <time>2022-03-27T08:32:21Z</time>
      </trkpt>
      <trkpt lat="44.27995" lon="5.35156">
        <ele>1072.97</ele>
        <time>2022-03-27T08:32:33Z</time>
      </trkpt>
      <trkpt lat="44.28001" lon="5.35132">
        <ele>1074.89</ele>
        <time>2022-03-27T08:32:45Z</time>
      </trkpt>
      <trkpt lat="44.28002" lon="5.35108">
        <ele>1076.81</ele>
        <time>2022-03-27T08:32:58Z</time>
      </trkpt>
      <trkpt lat="44.28002" lon="5.35108">
        <ele>1076.81</ele>
        <time>2022-03-27T08:33:25Z</time>
      </trkpt>
      <trkpt lat="44.28002" lon="5.35108">
        <ele>1076.81</ele>
        <time>2022-03-27T08:33:51Z</time>
      </trkpt>
      <trkpt lat="44.28002" lon="5.35108">
        <ele>1076.33</ele>
        <time>2022-03-27T08:34:16Z</time>
      </trkpt>
      <trkpt lat="44.28002" lon="5.35108">
        <ele>1076.81</ele>
        <time>2022-03-27T08:34:45Z</time>
      </trkpt>
      <trkpt lat="44.28002" lon="5.35108">
        <ele>1076.81</ele>
        <time>2022-03-27T08:35:10Z</time>
      </trkpt>
      <trkpt lat="44.28002" lon="5.35107">
        <ele>1076.81</ele>
        <time>2022-03-27T08:35:29Z</time>
      </trkpt>
      <trkpt lat="44.28002" lon="5.35106">
        <ele>1076.81</ele>
        <time>2022-03-27T08:35:44Z</time>
      </trkpt>
      <trkpt lat="44.28001" lon="5.35105">
        <ele>1076.81</ele>
        <time>2022-03-27T08:35:59Z</time>
      </trkpt>
      <trkpt lat="44.28" lon="5.35084">
        <ele>1076.81</ele>
        <time>2022-03-27T08:36:11Z</time>
      </trkpt>
      <trkpt lat="44.27998" lon="5.35054">
        <ele>1077.78</ele>
        <time>2022-03-27T08:36:26Z</time>
      </trkpt>
      <trkpt lat="44.27996" lon="5.3502">
        <ele>1078.26</ele>
        <time>2022-03-27T08:36:41Z</time>
      </trkpt>
      <trkpt lat="44.27995" lon="5.34989">
        <ele>1078.26</ele>
        <time>2022-03-27T08:36:56Z</time>
      </trkpt>
      <trkpt lat="44.27995" lon="5.34989">
        <ele>1078.26</ele>
        <time>2022-03-27T08:37:19Z</time>
      </trkpt>
      <trkpt lat="44.27995" lon="5.34989">
        <ele>1078.26</ele>
        <time>2022-03-27T08:37:44Z</time>
      </trkpt>
      <trkpt lat="44.27992" lon="5.3498">
        <ele>1078.26</ele>
        <time>2022-03-27T08:38:08Z</time>
      </trkpt>
      <trkpt lat="44.2799" lon="5.34968">
        <ele>1077.78</ele>
        <time>2022-03-27T08:38:12Z</time>
      </trkpt>
      <trkpt lat="44.27993" lon="5.34921">
        <ele>1078.26</ele>
        <time>2022-03-27T08:38:28Z</time>
      </trkpt>
      <trkpt lat="44.27992" lon="5.34878">
        <ele>1077.29</ele>
        <time>2022-03-27T08:38:42Z</time>
      </trkpt>
      <trkpt lat="44.27997" lon="5.34842">
        <ele>1077.78</ele>
        <time>2022-03-27T08:38:53Z</time>
      </trkpt>
      <trkpt lat="44.28003" lon="5.34806">
        <ele>1078.26</ele>
        <time>2022-03-27T08:39:06Z</time>
      </trkpt>
      <trkpt lat="44.27998" lon="5.34765">
        <ele>1076.33</ele>
        <time>2022-03-27T08:39:18Z</time>
      </trkpt>
      <trkpt lat="44.27998" lon="5.34736">
        <ele>1073.93</ele>
        <time>2022-03-27T08:39:29Z</time>
      </trkpt>
      <trkpt lat="44.27998" lon="5.34714">
        <ele>1072.49</ele>
        <time>2022-03-27T08:39:44Z</time>
      </trkpt>
      <trkpt lat="44.28005" lon="5.34679">
        <ele>1072.01</ele>
        <time>2022-03-27T08:39:55Z</time>
      </trkpt>
      <trkpt lat="44.28009" lon="5.34668">
        <ele>1072.01</ele>
        <time>2022-03-27T08:39:59Z</time>
      </trkpt>
      <trkpt lat="44.28013" lon="5.3463">
        <ele>1071.53</ele>
        <time>2022-03-27T08:40:12Z</time>
      </trkpt>
      <trkpt lat="44.28012" lon="5.34581">
        <ele>1069.12</ele>
        <time>2022-03-27T08:40:25Z</time>
      </trkpt>
      <trkpt lat="44.28012" lon="5.34543">
        <ele>1069.12</ele>
        <time>2022-03-27T08:40:37Z</time>
      </trkpt>
      <trkpt lat="44.28012" lon="5.34504">
        <ele>1071.05</ele>
        <time>2022-03-27T08:40:50Z</time>
      </trkpt>
      <trkpt lat="44.28012" lon="5.34476">
        <ele>1072.97</ele>
        <time>2022-03-27T08:41:00Z</time>
      </trkpt>
      <trkpt lat="44.28011" lon="5.34443">
        <ele>1075.37</ele>
        <time>2022-03-27T08:41:12Z</time>
      </trkpt>
      <trkpt lat="44.28009" lon="5.34399">
        <ele>1076.81</ele>
        <time>2022-03-27T08:41:27Z</time>
      </trkpt>
      <trkpt lat="44.28011" lon="5.34352">
        <ele>1077.29</ele>
        <time>2022-03-27T08:41:42Z</time>
      </trkpt>
      <trkpt lat="44.28009" lon="5.34328">
        <ele>1077.78</ele>
        <time>2022-03-27T08:41:51Z</time>
      </trkpt>
      <trkpt lat="44.28005" lon="5.34317">
        <ele>1076.81</ele>
        <time>2022-03-27T08:41:55Z</time>
      </trkpt>
      <trkpt lat="44.2801" lon="5.34282">
        <ele>1074.89</ele>
        <time>2022-03-27T08:42:07Z</time>
      </trkpt>
      <trkpt lat="44.2801" lon="5.34248">
        <ele>1073.45</ele>
        <time>2022-03-27T08:42:19Z</time>
      </trkpt>
      <trkpt lat="44.28011" lon="5.34205">
        <ele>1073.93</ele>
        <time>2022-03-27T08:42:32Z</time>
      </trkpt>
      <trkpt lat="44.28011" lon="5.34204">
        <ele>1074.41</ele>
        <time>2022-03-27T08:42:42Z</time>
      </trkpt>
      <trkpt lat="44.28011" lon="5.34204">
        <ele>1074.41</ele>
        <time>2022-03-27T08:43:16Z</time>
      </trkpt>
      <trkpt lat="44.28011" lon="5.34201">
        <ele>1073.93</ele>
        <time>2022-03-27T08:43:39Z</time>
      </trkpt>
      <trkpt lat="44.2801" lon="5.34201">
        <ele>1073.93</ele>
        <time>2022-03-27T08:43:53Z</time>
      </trkpt>
      <trkpt lat="44.28011" lon="5.34185">
        <ele>1074.89</ele>
        <time>2022-03-27T08:44:07Z</time>
      </trkpt>
      <trkpt lat="44.28016" lon="5.34157">
        <ele>1077.29</ele>
        <time>2022-03-27T08:44:17Z</time>
      </trkpt>
      <trkpt lat="44.28018" lon="5.34148">
        <ele>1078.26</ele>
        <time>2022-03-27T08:44:21Z</time>
      </trkpt>
      <trkpt lat="44.28018" lon="5.34136">
        <ele>1078.74</ele>
        <time>2022-03-27T08:44:26Z</time>
      </trkpt>
      <trkpt lat="44.28019" lon="5.34104">
        <ele>1079.22</ele>
        <time>2022-03-27T08:44:38Z</time>
      </trkpt>
      <trkpt lat="44.28015" lon="5.34071">
        <ele>1080.18</ele>
        <time>2022-03-27T08:44:50Z</time>
      </trkpt>
      <trkpt lat="44.28014" lon="5.34064">
        <ele>1080.18</ele>
        <time>2022-03-27T08:44:52Z</time>
      </trkpt>
      <trkpt lat="44.28024" lon="5.34024">
        <ele>1082.1</ele>
        <time>2022-03-27T08:45:06Z</time>
      </trkpt>
      <trkpt lat="44.28034" lon="5.33996">
        <ele>1084.02</ele>
        <time>2022-03-27T08:45:18Z</time>
      </trkpt>
      <trkpt lat="44.28037" lon="5.33992">
        <ele>1084.99</ele>
        <time>2022-03-27T08:45:20Z</time>
      </trkpt>
      <trkpt lat="44.28046" lon="5.33973">
        <ele>1085.47</ele>
        <time>2022-03-27T08:45:28Z</time>
      </trkpt>
      <trkpt lat="44.28052" lon="5.33962">
        <ele>1085.95</ele>
        <time>2022-03-27T08:45:33Z</time>
      </trkpt>
      <trkpt lat="44.28066" lon="5.3392">
        <ele>1085.47</ele>
        <time>2022-03-27T08:45:50Z</time>
      </trkpt>
      <trkpt lat="44.28066" lon="5.33911">
        <ele>1085.47</ele>
        <time>2022-03-27T08:46:00Z</time>
      </trkpt>
      <trkpt lat="44.28066" lon="5.33911">
        <ele>1085.47</ele>
        <time>2022-03-27T08:46:22Z</time>
      </trkpt>
      <trkpt lat="44.28066" lon="5.33911">
        <ele>1085.95</ele>
        <time>2022-03-27T08:46:50Z</time>
      </trkpt>
      <trkpt lat="44.28067" lon="5.33907">
        <ele>1085.47</ele>
        <time>2022-03-27T08:47:18Z</time>
      </trkpt>
      <trkpt lat="44.2808" lon="5.33842">
        <ele>1084.99</ele>
        <time>2022-03-27T08:47:34Z</time>
      </trkpt>
      <trkpt lat="44.28081" lon="5.33839">
        <ele>1085.47</ele>
        <time>2022-03-27T08:47:42Z</time>
      </trkpt>
      <trkpt lat="44.28081" lon="5.33839">
        <ele>1084.99</ele>
        <time>2022-03-27T08:47:47Z</time>
      </trkpt>
      <trkpt lat="44.28082" lon="5.33837">
        <ele>1084.99</ele>
        <time>2022-03-27T08:47:49Z</time>
      </trkpt>
      <trkpt lat="44.28088" lon="5.33812">
        <ele>1084.99</ele>
        <time>2022-03-27T08:47:58Z</time>
      </trkpt>
      <trkpt lat="44.28089" lon="5.3379">
        <ele>1083.06</ele>
        <time>2022-03-27T08:48:06Z</time>
      </trkpt>
      <trkpt lat="44.28087" lon="5.33756">
        <ele>1079.7</ele>
        <time>2022-03-27T08:48:16Z</time>
      </trkpt>
      <trkpt lat="44.28084" lon="5.33736">
        <ele>1076.81</ele>
        <time>2022-03-27T08:48:23Z</time>
      </trkpt>
      <trkpt lat="44.28081" lon="5.33724">
        <ele>1074.41</ele>
        <time>2022-03-27T08:48:34Z</time>
      </trkpt>
      <trkpt lat="44.28081" lon="5.33719">
        <ele>1074.41</ele>
        <time>2022-03-27T08:48:36Z</time>
      </trkpt>
      <trkpt lat="44.28072" lon="5.33702">
        <ele>1071.05</ele>
        <time>2022-03-27T08:48:44Z</time>
      </trkpt>
      <trkpt lat="44.28067" lon="5.33688">
        <ele>1068.64</ele>
        <time>2022-03-27T08:48:49Z</time>
      </trkpt>
      <trkpt lat="44.28074" lon="5.33655">
        <ele>1066.72</ele>
        <time>2022-03-27T08:49:01Z</time>
      </trkpt>
      <trkpt lat="44.28076" lon="5.3365">
        <ele>1067.68</ele>
        <time>2022-03-27T08:49:03Z</time>
      </trkpt>
      <trkpt lat="44.2808" lon="5.33629">
        <ele>1067.68</ele>
        <time>2022-03-27T08:49:10Z</time>
      </trkpt>
      <trkpt lat="44.28085" lon="5.3361">
        <ele>1069.12</ele>
        <time>2022-03-27T08:49:21Z</time>
      </trkpt>
      <trkpt lat="44.28085" lon="5.3361">
        <ele>1069.12</ele>
        <time>2022-03-27T08:49:31Z</time>
      </trkpt>
      <trkpt lat="44.28091" lon="5.33586">
        <ele>1070.08</ele>
        <time>2022-03-27T08:49:42Z</time>
      </trkpt>
      <trkpt lat="44.28092" lon="5.33585">
        <ele>1070.57</ele>
        <time>2022-03-27T08:49:53Z</time>
      </trkpt>
      <trkpt lat="44.28092" lon="5.33583">
        <ele>1070.57</ele>
        <time>2022-03-27T08:49:56Z</time>
      </trkpt>
      <trkpt lat="44.28094" lon="5.33573">
        <ele>1070.08</ele>
        <time>2022-03-27T08:50:01Z</time>
      </trkpt>
      <trkpt lat="44.28098" lon="5.3355">
        <ele>1071.05</ele>
        <time>2022-03-27T08:50:09Z</time>
      </trkpt>
      <trkpt lat="44.28105" lon="5.33543">
        <ele>1072.49</ele>
        <time>2022-03-27T08:50:20Z</time>
      </trkpt>
      <trkpt lat="44.2812" lon="5.33531">
        <ele>1075.37</ele>
        <time>2022-03-27T08:50:34Z</time>
      </trkpt>
      <trkpt lat="44.28121" lon="5.3353">
        <ele>1075.85</ele>
        <time>2022-03-27T08:50:35Z</time>
      </trkpt>
      <trkpt lat="44.28133" lon="5.33517">
        <ele>1075.85</ele>
        <time>2022-03-27T08:50:52Z</time>
      </trkpt>
      <trkpt lat="44.28133" lon="5.33517">
        <ele>1071.05</ele>
        <time>2022-03-27T08:50:57Z</time>
      </trkpt>
      <trkpt lat="44.28133" lon="5.33517">
        <ele>1076.81</ele>
        <time>2022-03-27T08:50:58Z</time>
      </trkpt>
      <trkpt lat="44.28133" lon="5.33516">
        <ele>1076.33</ele>
        <time>2022-03-27T08:51:24Z</time>
      </trkpt>
      <trkpt lat="44.28134" lon="5.33515">
        <ele>1076.33</ele>
        <time>2022-03-27T08:51:25Z</time>
      </trkpt>
      <trkpt lat="44.28137" lon="5.33499">
        <ele>1075.37</ele>
        <time>2022-03-27T08:51:30Z</time>
      </trkpt>
      <trkpt lat="44.28143" lon="5.33441">
        <ele>1073.93</ele>
        <time>2022-03-27T08:51:44Z</time>
      </trkpt>
      <trkpt lat="44.28142" lon="5.3341">
        <ele>1071.05</ele>
        <time>2022-03-27T08:51:55Z</time>
      </trkpt>
      <trkpt lat="44.2814" lon="5.33404">
        <ele>1070.57</ele>
        <time>2022-03-27T08:51:57Z</time>
      </trkpt>
      <trkpt lat="44.28143" lon="5.33381">
        <ele>1067.2</ele>
        <time>2022-03-27T08:52:04Z</time>
      </trkpt>
      <trkpt lat="44.28143" lon="5.33378">
        <ele>1067.2</ele>
        <time>2022-03-27T08:52:05Z</time>
      </trkpt>
      <trkpt lat="44.28143" lon="5.33371">
        <ele>1066.24</ele>
        <time>2022-03-27T08:52:08Z</time>
      </trkpt>
      <trkpt lat="44.28147" lon="5.33359">
        <ele>1064.32</ele>
        <time>2022-03-27T08:52:13Z</time>
      </trkpt>
      <trkpt lat="44.28156" lon="5.33345">
        <ele>1062.87</ele>
        <time>2022-03-27T08:52:26Z</time>
      </trkpt>
      <trkpt lat="44.28162" lon="5.33334">
        <ele>1061.91</ele>
        <time>2022-03-27T08:52:46Z</time>
      </trkpt>
      <trkpt lat="44.28175" lon="5.33303">
        <ele>1059.03</ele>
        <time>2022-03-27T08:52:55Z</time>
      </trkpt>
      <trkpt lat="44.28182" lon="5.33272">
        <ele>1055.67</ele>
        <time>2022-03-27T08:53:03Z</time>
      </trkpt>
      <trkpt lat="44.28198" lon="5.33251">
        <ele>1052.78</ele>
        <time>2022-03-27T08:53:12Z</time>
      </trkpt>
      <trkpt lat="44.28217" lon="5.3322">
        <ele>1048.94</ele>
        <time>2022-03-27T08:53:23Z</time>
      </trkpt>
      <trkpt lat="44.28219" lon="5.33207">
        <ele>1047.49</ele>
        <time>2022-03-27T08:53:26Z</time>
      </trkpt>
      <trkpt lat="44.2822" lon="5.33187">
        <ele>1044.13</ele>
        <time>2022-03-27T08:53:30Z</time>
      </trkpt>
      <trkpt lat="44.28227" lon="5.33161">
        <ele>1041.25</ele>
        <time>2022-03-27T08:53:35Z</time>
      </trkpt>
      <trkpt lat="44.28233" lon="5.33127">
        <ele>1037.88</ele>
        <time>2022-03-27T08:53:41Z</time>
      </trkpt>
      <trkpt lat="44.28235" lon="5.33122">
        <ele>1037.4</ele>
        <time>2022-03-27T08:53:42Z</time>
      </trkpt>
      <trkpt lat="44.28241" lon="5.33087">
        <ele>1033.55</ele>
        <time>2022-03-27T08:53:49Z</time>
      </trkpt>
      <trkpt lat="44.28243" lon="5.33062">
        <ele>1030.67</ele>
        <time>2022-03-27T08:53:54Z</time>
      </trkpt>
      <trkpt lat="44.28245" lon="5.33053">
        <ele>1029.71</ele>
        <time>2022-03-27T08:53:56Z</time>
      </trkpt>
      <trkpt lat="44.28249" lon="5.33034">
        <ele>1027.79</ele>
        <time>2022-03-27T08:54:00Z</time>
      </trkpt>
      <trkpt lat="44.28253" lon="5.33024">
        <ele>1026.83</ele>
        <time>2022-03-27T08:54:02Z</time>
      </trkpt>
      <trkpt lat="44.28264" lon="5.32996">
        <ele>1024.9</ele>
        <time>2022-03-27T08:54:08Z</time>
      </trkpt>
      <trkpt lat="44.28265" lon="5.32984">
        <ele>1023.46</ele>
        <time>2022-03-27T08:54:10Z</time>
      </trkpt>
      <trkpt lat="44.28267" lon="5.32977">
        <ele>1022.5</ele>
        <time>2022-03-27T08:54:11Z</time>
      </trkpt>
      <trkpt lat="44.28272" lon="5.32963">
        <ele>1022.02</ele>
        <time>2022-03-27T08:54:13Z</time>
      </trkpt>
      <trkpt lat="44.28279" lon="5.32944">
        <ele>1019.62</ele>
        <time>2022-03-27T08:54:16Z</time>
      </trkpt>
      <trkpt lat="44.28291" lon="5.32921">
        <ele>1017.69</ele>
        <time>2022-03-27T08:54:20Z</time>
      </trkpt>
      <trkpt lat="44.28294" lon="5.32916">
        <ele>1017.21</ele>
        <time>2022-03-27T08:54:21Z</time>
      </trkpt>
      <trkpt lat="44.28296" lon="5.32912">
        <ele>1017.21</ele>
        <time>2022-03-27T08:54:22Z</time>
      </trkpt>
      <trkpt lat="44.28308" lon="5.32883">
        <ele>1013.85</ele>
        <time>2022-03-27T08:54:28Z</time>
      </trkpt>
      <trkpt lat="44.28314" lon="5.32869">
        <ele>1011.93</ele>
        <time>2022-03-27T08:54:31Z</time>
      </trkpt>
      <trkpt lat="44.28316" lon="5.32864">
        <ele>1011.44</ele>
        <time>2022-03-27T08:54:32Z</time>
      </trkpt>
      <trkpt lat="44.28321" lon="5.32843">
        <ele>1010</ele>
        <time>2022-03-27T08:54:36Z</time>
      </trkpt>
      <trkpt lat="44.28329" lon="5.32809">
        <ele>1006.16</ele>
        <time>2022-03-27T08:54:43Z</time>
      </trkpt>
      <trkpt lat="44.28339" lon="5.32778">
        <ele>1003.27</ele>
        <time>2022-03-27T08:54:50Z</time>
      </trkpt>
      <trkpt lat="44.28346" lon="5.32759">
        <ele>1001.83</ele>
        <time>2022-03-27T08:54:59Z</time>
      </trkpt>
      <trkpt lat="44.28346" lon="5.32759">
        <ele>1001.83</ele>
        <time>2022-03-27T08:55:26Z</time>
      </trkpt>
      <trkpt lat="44.28349" lon="5.32753">
        <ele>1001.83</ele>
        <time>2022-03-27T08:55:52Z</time>
      </trkpt>
      <trkpt lat="44.28372" lon="5.32714">
        <ele>999.43</ele>
        <time>2022-03-27T08:56:06Z</time>
      </trkpt>
      <trkpt lat="44.28391" lon="5.32674">
        <ele>997.99</ele>
        <time>2022-03-27T08:56:18Z</time>
      </trkpt>
      <trkpt lat="44.28415" lon="5.32614">
        <ele>997.51</ele>
        <time>2022-03-27T08:56:34Z</time>
      </trkpt>
      <trkpt lat="44.28428" lon="5.32558">
        <ele>998.47</ele>
        <time>2022-03-27T08:56:49Z</time>
      </trkpt>
      <trkpt lat="44.28438" lon="5.32514">
        <ele>1000.39</ele>
        <time>2022-03-27T08:57:03Z</time>
      </trkpt>
      <trkpt lat="44.28442" lon="5.32455">
        <ele>1001.83</ele>
        <time>2022-03-27T08:57:19Z</time>
      </trkpt>
      <trkpt lat="44.28446" lon="5.3243">
        <ele>1001.83</ele>
        <time>2022-03-27T08:57:29Z</time>
      </trkpt>
      <trkpt lat="44.28446" lon="5.32428">
        <ele>1001.83</ele>
        <time>2022-03-27T08:57:30Z</time>
      </trkpt>
      <trkpt lat="44.28443" lon="5.32423">
        <ele>1000.39</ele>
        <time>2022-03-27T08:57:42Z</time>
      </trkpt>
      <trkpt lat="44.28443" lon="5.32423">
        <ele>1001.35</ele>
        <time>2022-03-27T08:58:17Z</time>
      </trkpt>
      <trkpt lat="44.28443" lon="5.32423">
        <ele>1000.39</ele>
        <time>2022-03-27T08:58:54Z</time>
      </trkpt>
      <trkpt lat="44.28443" lon="5.32423">
        <ele>999.91</ele>
        <time>2022-03-27T08:59:21Z</time>
      </trkpt>
      <trkpt lat="44.28443" lon="5.32424">
        <ele>1000.87</ele>
        <time>2022-03-27T08:59:51Z</time>
      </trkpt>
      <trkpt lat="44.28443" lon="5.32423">
        <ele>1000.39</ele>
        <time>2022-03-27T09:00:18Z</time>
      </trkpt>
      <trkpt lat="44.28443" lon="5.32423">
        <ele>1000.39</ele>
        <time>2022-03-27T09:00:52Z</time>
      </trkpt>
      <trkpt lat="44.28443" lon="5.32421">
        <ele>999.91</ele>
        <time>2022-03-27T09:01:01Z</time>
      </trkpt>
      <trkpt lat="44.28442" lon="5.32419">
        <ele>999.91</ele>
        <time>2022-03-27T09:01:02Z</time>
      </trkpt>
      <trkpt lat="44.28442" lon="5.32416">
        <ele>999.43</ele>
        <time>2022-03-27T09:01:03Z</time>
      </trkpt>
      <trkpt lat="44.28441" lon="5.32413">
        <ele>998.95</ele>
        <time>2022-03-27T09:01:04Z</time>
      </trkpt>
      <trkpt lat="44.2844" lon="5.32409">
        <ele>998.47</ele>
        <time>2022-03-27T09:01:05Z</time>
      </trkpt>
      <trkpt lat="44.28435" lon="5.32387">
        <ele>995.58</ele>
        <time>2022-03-27T09:01:10Z</time>
      </trkpt>
      <trkpt lat="44.2843" lon="5.32364">
        <ele>991.74</ele>
        <time>2022-03-27T09:01:15Z</time>
      </trkpt>
      <trkpt lat="44.28426" lon="5.32342">
        <ele>988.85</ele>
        <time>2022-03-27T09:01:19Z</time>
      </trkpt>
      <trkpt lat="44.28425" lon="5.32336">
        <ele>987.89</ele>
        <time>2022-03-27T09:01:20Z</time>
      </trkpt>
      <trkpt lat="44.28421" lon="5.32309">
        <ele>984.05</ele>
        <time>2022-03-27T09:01:25Z</time>
      </trkpt>
      <trkpt lat="44.28419" lon="5.32299">
        <ele>982.6</ele>
        <time>2022-03-27T09:01:27Z</time>
      </trkpt>
      <trkpt lat="44.28418" lon="5.32294">
        <ele>981.64</ele>
        <time>2022-03-27T09:01:28Z</time>
      </trkpt>
      <trkpt lat="44.28413" lon="5.32268">
        <ele>977.8</ele>
        <time>2022-03-27T09:01:33Z</time>
      </trkpt>
      <trkpt lat="44.28409" lon="5.32252">
        <ele>976.36</ele>
        <time>2022-03-27T09:01:36Z</time>
      </trkpt>
      <trkpt lat="44.28408" lon="5.32246">
        <ele>975.39</ele>
        <time>2022-03-27T09:01:37Z</time>
      </trkpt>
      <trkpt lat="44.28401" lon="5.32218">
        <ele>971.55</ele>
        <time>2022-03-27T09:01:43Z</time>
      </trkpt>
      <trkpt lat="44.2839" lon="5.32202">
        <ele>968.18</ele>
        <time>2022-03-27T09:01:47Z</time>
      </trkpt>
      <trkpt lat="44.28384" lon="5.3219">
        <ele>966.26</ele>
        <time>2022-03-27T09:01:50Z</time>
      </trkpt>
      <trkpt lat="44.28375" lon="5.32174">
        <ele>963.38</ele>
        <time>2022-03-27T09:01:54Z</time>
      </trkpt>
      <trkpt lat="44.28364" lon="5.32154">
        <ele>960.01</ele>
        <time>2022-03-27T09:01:59Z</time>
      </trkpt>
      <trkpt lat="44.28356" lon="5.32136">
        <ele>957.13</ele>
        <time>2022-03-27T09:02:03Z</time>
      </trkpt>
      <trkpt lat="44.28353" lon="5.32132">
        <ele>956.17</ele>
        <time>2022-03-27T09:02:04Z</time>
      </trkpt>
      <trkpt lat="44.28351" lon="5.32127">
        <ele>956.17</ele>
        <time>2022-03-27T09:02:05Z</time>
      </trkpt>
      <trkpt lat="44.28349" lon="5.32123">
        <ele>955.69</ele>
        <time>2022-03-27T09:02:06Z</time>
      </trkpt>
      <trkpt lat="44.28347" lon="5.32119">
        <ele>955.21</ele>
        <time>2022-03-27T09:02:07Z</time>
      </trkpt>
      <trkpt lat="44.28334" lon="5.32091">
        <ele>952.32</ele>
        <time>2022-03-27T09:02:15Z</time>
      </trkpt>
      <trkpt lat="44.28322" lon="5.32053">
        <ele>948.96</ele>
        <time>2022-03-27T09:02:24Z</time>
      </trkpt>
      <trkpt lat="44.28322" lon="5.32042">
        <ele>948</ele>
        <time>2022-03-27T09:02:27Z</time>
      </trkpt>
      <trkpt lat="44.28323" lon="5.3204">
        <ele>948</ele>
        <time>2022-03-27T09:02:28Z</time>
      </trkpt>
      <trkpt lat="44.28324" lon="5.32038">
        <ele>947.52</ele>
        <time>2022-03-27T09:02:29Z</time>
      </trkpt>
      <trkpt lat="44.28324" lon="5.32038">
        <ele>951.36</ele>
        <time>2022-03-27T09:02:37Z</time>
      </trkpt>
      <trkpt lat="44.28324" lon="5.32038">
        <ele>947.52</ele>
        <time>2022-03-27T09:02:38Z</time>
      </trkpt>
      <trkpt lat="44.28324" lon="5.32038">
        <ele>943.67</ele>
        <time>2022-03-27T09:02:44Z</time>
      </trkpt>
      <trkpt lat="44.28324" lon="5.32038">
        <ele>948.48</ele>
        <time>2022-03-27T09:02:45Z</time>
      </trkpt>
      <trkpt lat="44.28324" lon="5.32038">
        <ele>945.11</ele>
        <time>2022-03-27T09:02:47Z</time>
      </trkpt>
      <trkpt lat="44.28324" lon="5.32038">
        <ele>948.96</ele>
        <time>2022-03-27T09:02:49Z</time>
      </trkpt>
      <trkpt lat="44.28324" lon="5.32038">
        <ele>945.11</ele>
        <time>2022-03-27T09:02:51Z</time>
      </trkpt>
      <trkpt lat="44.28324" lon="5.32038">
        <ele>950.88</ele>
        <time>2022-03-27T09:02:52Z</time>
      </trkpt>
      <trkpt lat="44.28324" lon="5.32038">
        <ele>947.52</ele>
        <time>2022-03-27T09:02:53Z</time>
      </trkpt>
      <trkpt lat="44.28324" lon="5.32038">
        <ele>944.15</ele>
        <time>2022-03-27T09:03:08Z</time>
      </trkpt>
      <trkpt lat="44.28324" lon="5.32038">
        <ele>952.8</ele>
        <time>2022-03-27T09:03:09Z</time>
      </trkpt>
      <trkpt lat="44.28324" lon="5.32038">
        <ele>943.19</ele>
        <time>2022-03-27T09:03:10Z</time>
      </trkpt>
      <trkpt lat="44.28324" lon="5.32038">
        <ele>951.36</ele>
        <time>2022-03-27T09:03:11Z</time>
      </trkpt>
      <trkpt lat="44.28324" lon="5.32038">
        <ele>947.52</ele>
        <time>2022-03-27T09:03:12Z</time>
      </trkpt>
      <trkpt lat="44.28324" lon="5.32038">
        <ele>947.52</ele>
        <time>2022-03-27T09:03:29Z</time>
      </trkpt>
      <trkpt lat="44.28325" lon="5.32038">
        <ele>947.52</ele>
        <time>2022-03-27T09:03:30Z</time>
      </trkpt>
      <trkpt lat="44.28327" lon="5.32037">
        <ele>947.52</ele>
        <time>2022-03-27T09:03:31Z</time>
      </trkpt>
      <trkpt lat="44.28329" lon="5.32036">
        <ele>947.04</ele>
        <time>2022-03-27T09:03:32Z</time>
      </trkpt>
      <trkpt lat="44.28331" lon="5.32035">
        <ele>946.56</ele>
        <time>2022-03-27T09:03:33Z</time>
      </trkpt>
      <trkpt lat="44.28333" lon="5.32034">
        <ele>946.56</ele>
        <time>2022-03-27T09:03:34Z</time>
      </trkpt>
      <trkpt lat="44.28351" lon="5.32028">
        <ele>943.19</ele>
        <time>2022-03-27T09:03:42Z</time>
      </trkpt>
      <trkpt lat="44.28355" lon="5.32028">
        <ele>942.23</ele>
        <time>2022-03-27T09:03:44Z</time>
      </trkpt>
      <trkpt lat="44.2836" lon="5.32026">
        <ele>941.75</ele>
        <time>2022-03-27T09:03:54Z</time>
      </trkpt>
      <trkpt lat="44.2836" lon="5.32026">
        <ele>941.75</ele>
        <time>2022-03-27T09:03:55Z</time>
      </trkpt>
      <trkpt lat="44.28357" lon="5.32026">
        <ele>941.75</ele>
        <time>2022-03-27T09:03:57Z</time>
      </trkpt>
      <trkpt lat="44.28355" lon="5.32025">
        <ele>941.75</ele>
        <time>2022-03-27T09:03:58Z</time>
      </trkpt>
      <trkpt lat="44.28354" lon="5.32024">
        <ele>941.27</ele>
        <time>2022-03-27T09:03:59Z</time>
      </trkpt>
      <trkpt lat="44.28335" lon="5.32001">
        <ele>942.23</ele>
        <time>2022-03-27T09:04:12Z</time>
      </trkpt>
      <trkpt lat="44.28305" lon="5.31992">
        <ele>941.27</ele>
        <time>2022-03-27T09:04:27Z</time>
      </trkpt>
      <trkpt lat="44.28278" lon="5.31998">
        <ele>941.27</ele>
        <time>2022-03-27T09:04:40Z</time>
      </trkpt>
      <trkpt lat="44.28247" lon="5.32013">
        <ele>940.79</ele>
        <time>2022-03-27T09:04:54Z</time>
      </trkpt>
      <trkpt lat="44.2822" lon="5.32034">
        <ele>940.31</ele>
        <time>2022-03-27T09:05:06Z</time>
      </trkpt>
      <trkpt lat="44.28219" lon="5.32036">
        <ele>940.31</ele>
        <time>2022-03-27T09:05:07Z</time>
      </trkpt>
      <trkpt lat="44.28205" lon="5.32046">
        <ele>940.31</ele>
        <time>2022-03-27T09:05:14Z</time>
      </trkpt>
      <trkpt lat="44.28204" lon="5.32045">
        <ele>940.79</ele>
        <time>2022-03-27T09:05:15Z</time>
      </trkpt>
      <trkpt lat="44.28202" lon="5.32043">
        <ele>940.79</ele>
        <time>2022-03-27T09:05:16Z</time>
      </trkpt>
      <trkpt lat="44.28201" lon="5.3204">
        <ele>941.27</ele>
        <time>2022-03-27T09:05:17Z</time>
      </trkpt>
      <trkpt lat="44.28201" lon="5.32037">
        <ele>940.79</ele>
        <time>2022-03-27T09:05:18Z</time>
      </trkpt>
      <trkpt lat="44.28201" lon="5.32033">
        <ele>940.79</ele>
        <time>2022-03-27T09:05:19Z</time>
      </trkpt>
      <trkpt lat="44.28202" lon="5.32029">
        <ele>940.31</ele>
        <time>2022-03-27T09:05:20Z</time>
      </trkpt>
      <trkpt lat="44.28208" lon="5.31985">
        <ele>938.38</ele>
        <time>2022-03-27T09:05:32Z</time>
      </trkpt>
      <trkpt lat="44.28213" lon="5.31945">
        <ele>935.5</ele>
        <time>2022-03-27T09:05:42Z</time>
      </trkpt>
      <trkpt lat="44.28213" lon="5.31928">
        <ele>933.1</ele>
        <time>2022-03-27T09:05:46Z</time>
      </trkpt>
      <trkpt lat="44.28211" lon="5.31909">
        <ele>929.25</ele>
        <time>2022-03-27T09:05:50Z</time>
      </trkpt>
      <trkpt lat="44.28208" lon="5.31882">
        <ele>924.45</ele>
        <time>2022-03-27T09:05:56Z</time>
      </trkpt>
      <trkpt lat="44.28207" lon="5.31873">
        <ele>923</ele>
        <time>2022-03-27T09:05:58Z</time>
      </trkpt>
      <trkpt lat="44.28204" lon="5.31852">
        <ele>919.16</ele>
        <time>2022-03-27T09:06:03Z</time>
      </trkpt>
      <trkpt lat="44.28199" lon="5.31821">
        <ele>915.79</ele>
        <time>2022-03-27T09:06:10Z</time>
      </trkpt>
      <trkpt lat="44.28199" lon="5.31792">
        <ele>912.43</ele>
        <time>2022-03-27T09:06:16Z</time>
      </trkpt>
      <trkpt lat="44.282" lon="5.31787">
        <ele>911.95</ele>
        <time>2022-03-27T09:06:17Z</time>
      </trkpt>
      <trkpt lat="44.28206" lon="5.31749">
        <ele>909.06</ele>
        <time>2022-03-27T09:06:25Z</time>
      </trkpt>
      <trkpt lat="44.28214" lon="5.31701">
        <ele>908.58</ele>
        <time>2022-03-27T09:06:36Z</time>
      </trkpt>
      <trkpt lat="44.28214" lon="5.31698">
        <ele>909.54</ele>
        <time>2022-03-27T09:06:47Z</time>
      </trkpt>
      <trkpt lat="44.28214" lon="5.31698">
        <ele>909.54</ele>
        <time>2022-03-27T09:07:12Z</time>
      </trkpt>
      <trkpt lat="44.28214" lon="5.31698">
        <ele>909.06</ele>
        <time>2022-03-27T09:07:23Z</time>
      </trkpt>
      <trkpt lat="44.28214" lon="5.31698">
        <ele>909.06</ele>
        <time>2022-03-27T09:07:34Z</time>
      </trkpt>
      <trkpt lat="44.28214" lon="5.31701">
        <ele>909.06</ele>
        <time>2022-03-27T09:07:35Z</time>
      </trkpt>
      <trkpt lat="44.28214" lon="5.31703">
        <ele>909.06</ele>
        <time>2022-03-27T09:07:36Z</time>
      </trkpt>
      <trkpt lat="44.28213" lon="5.31706">
        <ele>909.06</ele>
        <time>2022-03-27T09:07:37Z</time>
      </trkpt>
      <trkpt lat="44.28213" lon="5.31709">
        <ele>909.06</ele>
        <time>2022-03-27T09:07:38Z</time>
      </trkpt>
      <trkpt lat="44.28204" lon="5.31752">
        <ele>909.06</ele>
        <time>2022-03-27T09:07:53Z</time>
      </trkpt>
      <trkpt lat="44.28198" lon="5.31783">
        <ele>911.47</ele>
        <time>2022-03-27T09:08:07Z</time>
      </trkpt>
      <trkpt lat="44.28198" lon="5.31809">
        <ele>913.39</ele>
        <time>2022-03-27T09:08:19Z</time>
      </trkpt>
      <trkpt lat="44.28199" lon="5.31828">
        <ele>915.31</ele>
        <time>2022-03-27T09:08:30Z</time>
      </trkpt>
      <trkpt lat="44.28201" lon="5.31844">
        <ele>917.72</ele>
        <time>2022-03-27T09:08:40Z</time>
      </trkpt>
      <trkpt lat="44.28201" lon="5.31847">
        <ele>918.2</ele>
        <time>2022-03-27T09:08:42Z</time>
      </trkpt>
      <trkpt lat="44.28202" lon="5.31849">
        <ele>918.68</ele>
        <time>2022-03-27T09:08:43Z</time>
      </trkpt>
      <trkpt lat="44.28202" lon="5.31851">
        <ele>919.16</ele>
        <time>2022-03-27T09:08:44Z</time>
      </trkpt>
      <trkpt lat="44.28205" lon="5.31867">
        <ele>922.04</ele>
        <time>2022-03-27T09:08:56Z</time>
      </trkpt>
      <trkpt lat="44.28204" lon="5.31868">
        <ele>922.04</ele>
        <time>2022-03-27T09:08:57Z</time>
      </trkpt>
      <trkpt lat="44.28204" lon="5.31872">
        <ele>922.52</ele>
        <time>2022-03-27T09:09:00Z</time>
      </trkpt>
      <trkpt lat="44.28205" lon="5.31875">
        <ele>923</ele>
        <time>2022-03-27T09:09:02Z</time>
      </trkpt>
      <trkpt lat="44.28205" lon="5.31877">
        <ele>923.48</ele>
        <time>2022-03-27T09:09:03Z</time>
      </trkpt>
      <trkpt lat="44.28205" lon="5.31878">
        <ele>923.48</ele>
        <time>2022-03-27T09:09:04Z</time>
      </trkpt>
      <trkpt lat="44.28205" lon="5.3188">
        <ele>923.48</ele>
        <time>2022-03-27T09:09:05Z</time>
      </trkpt>
      <trkpt lat="44.28206" lon="5.31884">
        <ele>924.45</ele>
        <time>2022-03-27T09:09:08Z</time>
      </trkpt>
      <trkpt lat="44.28208" lon="5.31902">
        <ele>927.81</ele>
        <time>2022-03-27T09:09:19Z</time>
      </trkpt>
      <trkpt lat="44.28209" lon="5.31916">
        <ele>929.73</ele>
        <time>2022-03-27T09:09:29Z</time>
      </trkpt>
      <trkpt lat="44.28212" lon="5.31928">
        <ele>931.17</ele>
        <time>2022-03-27T09:09:38Z</time>
      </trkpt>
      <trkpt lat="44.2821" lon="5.31938">
        <ele>933.1</ele>
        <time>2022-03-27T09:09:46Z</time>
      </trkpt>
      <trkpt lat="44.28211" lon="5.31941">
        <ele>933.1</ele>
        <time>2022-03-27T09:09:48Z</time>
      </trkpt>
      <trkpt lat="44.28212" lon="5.31962">
        <ele>936.46</ele>
        <time>2022-03-27T09:10:01Z</time>
      </trkpt>
      <trkpt lat="44.2821" lon="5.31985">
        <ele>937.9</ele>
        <time>2022-03-27T09:10:13Z</time>
      </trkpt>
      <trkpt lat="44.28209" lon="5.31986">
        <ele>938.38</ele>
        <time>2022-03-27T09:10:14Z</time>
      </trkpt>
      <trkpt lat="44.28209" lon="5.31988">
        <ele>937.9</ele>
        <time>2022-03-27T09:10:15Z</time>
      </trkpt>
      <trkpt lat="44.28208" lon="5.3199">
        <ele>937.9</ele>
        <time>2022-03-27T09:10:16Z</time>
      </trkpt>
      <trkpt lat="44.28207" lon="5.31992">
        <ele>937.9</ele>
        <time>2022-03-27T09:10:17Z</time>
      </trkpt>
      <trkpt lat="44.28207" lon="5.31994">
        <ele>938.38</ele>
        <time>2022-03-27T09:10:18Z</time>
      </trkpt>
      <trkpt lat="44.28207" lon="5.31996">
        <ele>938.38</ele>
        <time>2022-03-27T09:10:19Z</time>
      </trkpt>
      <trkpt lat="44.28207" lon="5.31998">
        <ele>938.38</ele>
        <time>2022-03-27T09:10:20Z</time>
      </trkpt>
      <trkpt lat="44.28206" lon="5.32">
        <ele>937.9</ele>
        <time>2022-03-27T09:10:21Z</time>
      </trkpt>
      <trkpt lat="44.28206" lon="5.32002">
        <ele>938.38</ele>
        <time>2022-03-27T09:10:22Z</time>
      </trkpt>
      <trkpt lat="44.28206" lon="5.32004">
        <ele>938.38</ele>
        <time>2022-03-27T09:10:23Z</time>
      </trkpt>
      <trkpt lat="44.282" lon="5.32041">
        <ele>939.83</ele>
        <time>2022-03-27T09:10:37Z</time>
      </trkpt>
      <trkpt lat="44.28201" lon="5.32056">
        <ele>940.79</ele>
        <time>2022-03-27T09:10:44Z</time>
      </trkpt>
      <trkpt lat="44.282" lon="5.3206">
        <ele>939.83</ele>
        <time>2022-03-27T09:10:46Z</time>
      </trkpt>
      <trkpt lat="44.28202" lon="5.32071">
        <ele>939.83</ele>
        <time>2022-03-27T09:10:51Z</time>
      </trkpt>
      <trkpt lat="44.28203" lon="5.32072">
        <ele>940.79</ele>
        <time>2022-03-27T09:10:52Z</time>
      </trkpt>
      <trkpt lat="44.28204" lon="5.32072">
        <ele>941.27</ele>
        <time>2022-03-27T09:10:53Z</time>
      </trkpt>
      <trkpt lat="44.28205" lon="5.3207">
        <ele>940.79</ele>
        <time>2022-03-27T09:10:54Z</time>
      </trkpt>
      <trkpt lat="44.28205" lon="5.32069">
        <ele>940.79</ele>
        <time>2022-03-27T09:10:55Z</time>
      </trkpt>
      <trkpt lat="44.28204" lon="5.32067">
        <ele>941.27</ele>
        <time>2022-03-27T09:10:56Z</time>
      </trkpt>
      <trkpt lat="44.28203" lon="5.32065">
        <ele>941.27</ele>
        <time>2022-03-27T09:10:57Z</time>
      </trkpt>
      <trkpt lat="44.28203" lon="5.32063">
        <ele>940.79</ele>
        <time>2022-03-27T09:10:58Z</time>
      </trkpt>
      <trkpt lat="44.28202" lon="5.3206">
        <ele>940.31</ele>
        <time>2022-03-27T09:10:59Z</time>
      </trkpt>
      <trkpt lat="44.28202" lon="5.32058">
        <ele>940.79</ele>
        <time>2022-03-27T09:11:00Z</time>
      </trkpt>
      <trkpt lat="44.28202" lon="5.32055">
        <ele>940.79</ele>
        <time>2022-03-27T09:11:01Z</time>
      </trkpt>
      <trkpt lat="44.28202" lon="5.32053">
        <ele>940.79</ele>
        <time>2022-03-27T09:11:02Z</time>
      </trkpt>
      <trkpt lat="44.28202" lon="5.32051">
        <ele>941.27</ele>
        <time>2022-03-27T09:11:03Z</time>
      </trkpt>
      <trkpt lat="44.28202" lon="5.32049">
        <ele>940.79</ele>
        <time>2022-03-27T09:11:04Z</time>
      </trkpt>
      <trkpt lat="44.28206" lon="5.32012">
        <ele>940.31</ele>
        <time>2022-03-27T09:11:18Z</time>
      </trkpt>
      <trkpt lat="44.28207" lon="5.31989">
        <ele>938.86</ele>
        <time>2022-03-27T09:11:31Z</time>
      </trkpt>
      <trkpt lat="44.28206" lon="5.31989">
        <ele>938.38</ele>
        <time>2022-03-27T09:11:32Z</time>
      </trkpt>
      <trkpt lat="44.28205" lon="5.3199">
        <ele>938.38</ele>
        <time>2022-03-27T09:11:33Z</time>
      </trkpt>
      <trkpt lat="44.28201" lon="5.32008">
        <ele>939.35</ele>
        <time>2022-03-27T09:11:43Z</time>
      </trkpt>
      <trkpt lat="44.282" lon="5.32017">
        <ele>939.35</ele>
        <time>2022-03-27T09:11:48Z</time>
      </trkpt>
      <trkpt lat="44.282" lon="5.32019">
        <ele>939.83</ele>
        <time>2022-03-27T09:11:49Z</time>
      </trkpt>
      <trkpt lat="44.28201" lon="5.32038">
        <ele>940.31</ele>
        <time>2022-03-27T09:11:59Z</time>
      </trkpt>
      <trkpt lat="44.28201" lon="5.32053">
        <ele>940.79</ele>
        <time>2022-03-27T09:12:10Z</time>
      </trkpt>
      <trkpt lat="44.28199" lon="5.32056">
        <ele>940.79</ele>
        <time>2022-03-27T09:12:22Z</time>
      </trkpt>
      <trkpt lat="44.28197" lon="5.32063">
        <ele>939.35</ele>
        <time>2022-03-27T09:12:40Z</time>
      </trkpt>
      <trkpt lat="44.28196" lon="5.32065">
        <ele>939.35</ele>
        <time>2022-03-27T09:12:41Z</time>
      </trkpt>
      <trkpt lat="44.28194" lon="5.32067">
        <ele>939.35</ele>
        <time>2022-03-27T09:12:42Z</time>
      </trkpt>
      <trkpt lat="44.28173" lon="5.32094">
        <ele>937.42</ele>
        <time>2022-03-27T09:12:54Z</time>
      </trkpt>
      <trkpt lat="44.28169" lon="5.321">
        <ele>936.94</ele>
        <time>2022-03-27T09:12:56Z</time>
      </trkpt>
      <trkpt lat="44.28145" lon="5.32151">
        <ele>935.5</ele>
        <time>2022-03-27T09:13:09Z</time>
      </trkpt>
      <trkpt lat="44.28132" lon="5.32187">
        <ele>935.5</ele>
        <time>2022-03-27T09:13:20Z</time>
      </trkpt>
      <trkpt lat="44.2812" lon="5.32209">
        <ele>936.46</ele>
        <time>2022-03-27T09:13:29Z</time>
      </trkpt>
      <trkpt lat="44.2812" lon="5.32211">
        <ele>936.46</ele>
        <time>2022-03-27T09:13:30Z</time>
      </trkpt>
      <trkpt lat="44.28119" lon="5.32217">
        <ele>935.5</ele>
        <time>2022-03-27T09:13:41Z</time>
      </trkpt>
      <trkpt lat="44.28115" lon="5.32218">
        <ele>931.17</ele>
        <time>2022-03-27T09:54:03Z</time>
      </trkpt>
      <trkpt lat="44.28117" lon="5.32215">
        <ele>932.14</ele>
        <time>2022-03-27T09:54:05Z</time>
      </trkpt>
      <trkpt lat="44.28112" lon="5.32228">
        <ele>934.06</ele>
        <time>2022-03-27T09:54:13Z</time>
      </trkpt>
      <trkpt lat="44.28111" lon="5.32232">
        <ele>935.02</ele>
        <time>2022-03-27T09:54:16Z</time>
      </trkpt>
      <trkpt lat="44.28103" lon="5.32271">
        <ele>935.98</ele>
        <time>2022-03-27T09:54:32Z</time>
      </trkpt>
      <trkpt lat="44.28118" lon="5.32328">
        <ele>933.1</ele>
        <time>2022-03-27T09:54:43Z</time>
      </trkpt>
      <trkpt lat="44.28126" lon="5.3236">
        <ele>929.73</ele>
        <time>2022-03-27T09:54:50Z</time>
      </trkpt>
      <trkpt lat="44.28126" lon="5.32363">
        <ele>929.73</ele>
        <time>2022-03-27T09:54:51Z</time>
      </trkpt>
      <trkpt lat="44.28125" lon="5.32365">
        <ele>929.25</ele>
        <time>2022-03-27T09:54:52Z</time>
      </trkpt>
      <trkpt lat="44.28124" lon="5.32368">
        <ele>929.25</ele>
        <time>2022-03-27T09:54:53Z</time>
      </trkpt>
      <trkpt lat="44.28122" lon="5.32371">
        <ele>928.29</ele>
        <time>2022-03-27T09:54:54Z</time>
      </trkpt>
      <trkpt lat="44.28121" lon="5.32374">
        <ele>927.81</ele>
        <time>2022-03-27T09:54:55Z</time>
      </trkpt>
      <trkpt lat="44.28119" lon="5.32377">
        <ele>927.81</ele>
        <time>2022-03-27T09:54:56Z</time>
      </trkpt>
      <trkpt lat="44.28118" lon="5.32381">
        <ele>926.85</ele>
        <time>2022-03-27T09:54:57Z</time>
      </trkpt>
      <trkpt lat="44.28118" lon="5.32386">
        <ele>926.37</ele>
        <time>2022-03-27T09:54:58Z</time>
      </trkpt>
      <trkpt lat="44.28119" lon="5.32389">
        <ele>925.41</ele>
        <time>2022-03-27T09:54:59Z</time>
      </trkpt>
      <trkpt lat="44.2812" lon="5.32392">
        <ele>924.93</ele>
        <time>2022-03-27T09:55:00Z</time>
      </trkpt>
      <trkpt lat="44.28121" lon="5.32395">
        <ele>924.93</ele>
        <time>2022-03-27T09:55:01Z</time>
      </trkpt>
      <trkpt lat="44.28124" lon="5.3241">
        <ele>922.52</ele>
        <time>2022-03-27T09:55:12Z</time>
      </trkpt>
      <trkpt lat="44.28122" lon="5.32411">
        <ele>922.52</ele>
        <time>2022-03-27T09:55:25Z</time>
      </trkpt>
      <trkpt lat="44.2812" lon="5.32413">
        <ele>922.04</ele>
        <time>2022-03-27T09:55:26Z</time>
      </trkpt>
      <trkpt lat="44.28119" lon="5.32416">
        <ele>921.56</ele>
        <time>2022-03-27T09:55:27Z</time>
      </trkpt>
      <trkpt lat="44.28118" lon="5.32419">
        <ele>920.6</ele>
        <time>2022-03-27T09:55:28Z</time>
      </trkpt>
      <trkpt lat="44.28117" lon="5.32422">
        <ele>920.6</ele>
        <time>2022-03-27T09:55:29Z</time>
      </trkpt>
      <trkpt lat="44.28117" lon="5.32425">
        <ele>920.12</ele>
        <time>2022-03-27T09:55:30Z</time>
      </trkpt>
      <trkpt lat="44.28116" lon="5.32428">
        <ele>919.16</ele>
        <time>2022-03-27T09:55:31Z</time>
      </trkpt>
      <trkpt lat="44.28115" lon="5.32431">
        <ele>919.16</ele>
        <time>2022-03-27T09:55:32Z</time>
      </trkpt>
      <trkpt lat="44.28115" lon="5.32434">
        <ele>918.68</ele>
        <time>2022-03-27T09:55:33Z</time>
      </trkpt>
      <trkpt lat="44.28115" lon="5.32437">
        <ele>918.2</ele>
        <time>2022-03-27T09:55:34Z</time>
      </trkpt>
      <trkpt lat="44.28115" lon="5.32439">
        <ele>918.2</ele>
        <time>2022-03-27T09:55:35Z</time>
      </trkpt>
      <trkpt lat="44.28116" lon="5.32441">
        <ele>917.24</ele>
        <time>2022-03-27T09:55:36Z</time>
      </trkpt>
      <trkpt lat="44.28129" lon="5.32452">
        <ele>914.83</ele>
        <time>2022-03-27T09:55:44Z</time>
      </trkpt>
      <trkpt lat="44.28138" lon="5.32451">
        <ele>914.35</ele>
        <time>2022-03-27T09:55:55Z</time>
      </trkpt>
      <trkpt lat="44.28138" lon="5.32451">
        <ele>914.35</ele>
        <time>2022-03-27T09:56:04Z</time>
      </trkpt>
      <trkpt lat="44.28137" lon="5.32451">
        <ele>914.35</ele>
        <time>2022-03-27T09:56:06Z</time>
      </trkpt>
      <trkpt lat="44.28131" lon="5.32451">
        <ele>914.83</ele>
        <time>2022-03-27T09:56:11Z</time>
      </trkpt>
      <trkpt lat="44.28121" lon="5.32446">
        <ele>910.51</ele>
        <time>2022-03-27T09:56:24Z</time>
      </trkpt>
      <trkpt lat="44.28121" lon="5.32446">
        <ele>910.51</ele>
        <time>2022-03-27T09:56:25Z</time>
      </trkpt>
      <trkpt lat="44.28121" lon="5.32446">
        <ele>929.25</ele>
        <time>2022-03-27T09:56:26Z</time>
      </trkpt>
      <trkpt lat="44.28121" lon="5.32446">
        <ele>927.33</ele>
        <time>2022-03-27T09:56:27Z</time>
      </trkpt>
      <trkpt lat="44.28121" lon="5.32446">
        <ele>915.79</ele>
        <time>2022-03-27T09:56:28Z</time>
      </trkpt>
      <trkpt lat="44.28121" lon="5.32446">
        <ele>917.72</ele>
        <time>2022-03-27T09:56:29Z</time>
      </trkpt>
      <trkpt lat="44.28115" lon="5.32443">
        <ele>917.24</ele>
        <time>2022-03-27T09:56:41Z</time>
      </trkpt>
      <trkpt lat="44.28115" lon="5.32443">
        <ele>917.24</ele>
        <time>2022-03-27T09:56:49Z</time>
      </trkpt>
      <trkpt lat="44.28109" lon="5.32452">
        <ele>914.35</ele>
        <time>2022-03-27T09:56:55Z</time>
      </trkpt>
      <trkpt lat="44.28102" lon="5.32458">
        <ele>912.91</ele>
        <time>2022-03-27T09:57:02Z</time>
      </trkpt>
      <trkpt lat="44.28093" lon="5.32465">
        <ele>910.51</ele>
        <time>2022-03-27T09:57:15Z</time>
      </trkpt>
      <trkpt lat="44.28095" lon="5.32465">
        <ele>911.47</ele>
        <time>2022-03-27T09:57:20Z</time>
      </trkpt>
      <trkpt lat="44.28106" lon="5.32453">
        <ele>914.35</ele>
        <time>2022-03-27T09:57:33Z</time>
      </trkpt>
      <trkpt lat="44.28117" lon="5.32442">
        <ele>917.24</ele>
        <time>2022-03-27T09:57:47Z</time>
      </trkpt>
      <trkpt lat="44.28143" lon="5.32449">
        <ele>913.87</ele>
        <time>2022-03-27T09:57:57Z</time>
      </trkpt>
      <trkpt lat="44.28146" lon="5.32446">
        <ele>913.39</ele>
        <time>2022-03-27T09:57:58Z</time>
      </trkpt>
      <trkpt lat="44.28149" lon="5.32443">
        <ele>912.91</ele>
        <time>2022-03-27T09:57:59Z</time>
      </trkpt>
      <trkpt lat="44.28152" lon="5.3244">
        <ele>912.91</ele>
        <time>2022-03-27T09:58:00Z</time>
      </trkpt>
      <trkpt lat="44.28154" lon="5.32436">
        <ele>912.91</ele>
        <time>2022-03-27T09:58:01Z</time>
      </trkpt>
      <trkpt lat="44.28156" lon="5.32433">
        <ele>913.39</ele>
        <time>2022-03-27T09:58:02Z</time>
      </trkpt>
      <trkpt lat="44.28157" lon="5.32429">
        <ele>912.91</ele>
        <time>2022-03-27T09:58:03Z</time>
      </trkpt>
      <trkpt lat="44.28158" lon="5.32425">
        <ele>912.43</ele>
        <time>2022-03-27T09:58:04Z</time>
      </trkpt>
      <trkpt lat="44.28159" lon="5.32421">
        <ele>912.43</ele>
        <time>2022-03-27T09:58:05Z</time>
      </trkpt>
      <trkpt lat="44.28162" lon="5.3241">
        <ele>911.47</ele>
        <time>2022-03-27T09:58:08Z</time>
      </trkpt>
      <trkpt lat="44.28164" lon="5.32408">
        <ele>911.47</ele>
        <time>2022-03-27T09:58:09Z</time>
      </trkpt>
      <trkpt lat="44.2817" lon="5.32421">
        <ele>909.54</ele>
        <time>2022-03-27T09:58:16Z</time>
      </trkpt>
      <trkpt lat="44.2817" lon="5.32441">
        <ele>907.62</ele>
        <time>2022-03-27T09:58:23Z</time>
      </trkpt>
      <trkpt lat="44.2817" lon="5.32453">
        <ele>906.18</ele>
        <time>2022-03-27T09:58:26Z</time>
      </trkpt>
      <trkpt lat="44.28162" lon="5.32491">
        <ele>903.3</ele>
        <time>2022-03-27T09:58:36Z</time>
      </trkpt>
      <trkpt lat="44.28152" lon="5.32509">
        <ele>900.89</ele>
        <time>2022-03-27T09:58:42Z</time>
      </trkpt>
      <trkpt lat="44.28146" lon="5.32517">
        <ele>901.37</ele>
        <time>2022-03-27T09:58:52Z</time>
      </trkpt>
      <trkpt lat="44.28133" lon="5.32525">
        <ele>899.45</ele>
        <time>2022-03-27T09:59:10Z</time>
      </trkpt>
      <trkpt lat="44.28107" lon="5.32537">
        <ele>896.57</ele>
        <time>2022-03-27T09:59:18Z</time>
      </trkpt>
      <trkpt lat="44.2807" lon="5.32545">
        <ele>893.68</ele>
        <time>2022-03-27T09:59:29Z</time>
      </trkpt>
      <trkpt lat="44.28043" lon="5.32557">
        <ele>894.16</ele>
        <time>2022-03-27T09:59:40Z</time>
      </trkpt>
      <trkpt lat="44.28024" lon="5.32563">
        <ele>890.8</ele>
        <time>2022-03-27T09:59:46Z</time>
      </trkpt>
      <trkpt lat="44.28021" lon="5.32565">
        <ele>890.8</ele>
        <time>2022-03-27T09:59:47Z</time>
      </trkpt>
      <trkpt lat="44.2799" lon="5.3258">
        <ele>887.91</ele>
        <time>2022-03-27T09:59:58Z</time>
      </trkpt>
      <trkpt lat="44.27971" lon="5.32583">
        <ele>884.55</ele>
        <time>2022-03-27T10:00:05Z</time>
      </trkpt>
      <trkpt lat="44.27967" lon="5.32585">
        <ele>883.59</ele>
        <time>2022-03-27T10:00:07Z</time>
      </trkpt>
      <trkpt lat="44.27947" lon="5.3261">
        <ele>881.67</ele>
        <time>2022-03-27T10:00:18Z</time>
      </trkpt>
      <trkpt lat="44.2793" lon="5.32632">
        <ele>878.3</ele>
        <time>2022-03-27T10:00:26Z</time>
      </trkpt>
      <trkpt lat="44.27912" lon="5.32669">
        <ele>875.42</ele>
        <time>2022-03-27T10:00:36Z</time>
      </trkpt>
      <trkpt lat="44.27895" lon="5.3271">
        <ele>875.42</ele>
        <time>2022-03-27T10:00:48Z</time>
      </trkpt>
      <trkpt lat="44.27892" lon="5.32741">
        <ele>873.5</ele>
        <time>2022-03-27T10:00:56Z</time>
      </trkpt>
      <trkpt lat="44.27893" lon="5.32747">
        <ele>873.01</ele>
        <time>2022-03-27T10:00:57Z</time>
      </trkpt>
      <trkpt lat="44.27893" lon="5.32752">
        <ele>872.53</ele>
        <time>2022-03-27T10:00:58Z</time>
      </trkpt>
      <trkpt lat="44.27893" lon="5.32758">
        <ele>872.05</ele>
        <time>2022-03-27T10:00:59Z</time>
      </trkpt>
      <trkpt lat="44.27891" lon="5.32762">
        <ele>871.57</ele>
        <time>2022-03-27T10:01:00Z</time>
      </trkpt>
      <trkpt lat="44.27889" lon="5.32765">
        <ele>871.57</ele>
        <time>2022-03-27T10:01:01Z</time>
      </trkpt>
      <trkpt lat="44.27886" lon="5.32765">
        <ele>872.05</ele>
        <time>2022-03-27T10:01:02Z</time>
      </trkpt>
      <trkpt lat="44.27882" lon="5.32765">
        <ele>872.05</ele>
        <time>2022-03-27T10:01:03Z</time>
      </trkpt>
      <trkpt lat="44.27879" lon="5.32763">
        <ele>871.57</ele>
        <time>2022-03-27T10:01:04Z</time>
      </trkpt>
      <trkpt lat="44.27877" lon="5.32762">
        <ele>871.57</ele>
        <time>2022-03-27T10:01:05Z</time>
      </trkpt>
      <trkpt lat="44.27874" lon="5.32762">
        <ele>871.57</ele>
        <time>2022-03-27T10:01:06Z</time>
      </trkpt>
      <trkpt lat="44.27872" lon="5.32763">
        <ele>872.05</ele>
        <time>2022-03-27T10:01:07Z</time>
      </trkpt>
      <trkpt lat="44.2787" lon="5.32765">
        <ele>871.57</ele>
        <time>2022-03-27T10:01:08Z</time>
      </trkpt>
      <trkpt lat="44.27869" lon="5.32767">
        <ele>871.57</ele>
        <time>2022-03-27T10:01:09Z</time>
      </trkpt>
      <trkpt lat="44.27868" lon="5.3277">
        <ele>871.09</ele>
        <time>2022-03-27T10:01:10Z</time>
      </trkpt>
      <trkpt lat="44.27861" lon="5.32786">
        <ele>869.17</ele>
        <time>2022-03-27T10:01:16Z</time>
      </trkpt>
      <trkpt lat="44.27859" lon="5.32788">
        <ele>869.17</ele>
        <time>2022-03-27T10:01:17Z</time>
      </trkpt>
      <trkpt lat="44.27858" lon="5.3279">
        <ele>868.21</ele>
        <time>2022-03-27T10:01:18Z</time>
      </trkpt>
      <trkpt lat="44.27857" lon="5.32792">
        <ele>867.73</ele>
        <time>2022-03-27T10:01:19Z</time>
      </trkpt>
      <trkpt lat="44.27856" lon="5.32794">
        <ele>867.25</ele>
        <time>2022-03-27T10:01:20Z</time>
      </trkpt>
      <trkpt lat="44.27855" lon="5.32797">
        <ele>866.77</ele>
        <time>2022-03-27T10:01:21Z</time>
      </trkpt>
      <trkpt lat="44.27844" lon="5.32818">
        <ele>863.88</ele>
        <time>2022-03-27T10:01:28Z</time>
      </trkpt>
      <trkpt lat="44.2783" lon="5.32839">
        <ele>860.52</ele>
        <time>2022-03-27T10:01:35Z</time>
      </trkpt>
      <trkpt lat="44.27819" lon="5.32858">
        <ele>856.67</ele>
        <time>2022-03-27T10:01:42Z</time>
      </trkpt>
      <trkpt lat="44.27818" lon="5.32861">
        <ele>856.67</ele>
        <time>2022-03-27T10:01:43Z</time>
      </trkpt>
      <trkpt lat="44.27813" lon="5.32875">
        <ele>853.79</ele>
        <time>2022-03-27T10:01:47Z</time>
      </trkpt>
      <trkpt lat="44.27807" lon="5.32891">
        <ele>849.94</ele>
        <time>2022-03-27T10:01:52Z</time>
      </trkpt>
      <trkpt lat="44.27801" lon="5.32911">
        <ele>847.06</ele>
        <time>2022-03-27T10:01:58Z</time>
      </trkpt>
      <trkpt lat="44.27796" lon="5.32935">
        <ele>843.69</ele>
        <time>2022-03-27T10:02:05Z</time>
      </trkpt>
      <trkpt lat="44.27793" lon="5.32946">
        <ele>842.25</ele>
        <time>2022-03-27T10:02:08Z</time>
      </trkpt>
      <trkpt lat="44.27792" lon="5.32951">
        <ele>841.29</ele>
        <time>2022-03-27T10:02:10Z</time>
      </trkpt>
      <trkpt lat="44.27793" lon="5.32954">
        <ele>841.29</ele>
        <time>2022-03-27T10:02:11Z</time>
      </trkpt>
      <trkpt lat="44.27793" lon="5.32956">
        <ele>840.81</ele>
        <time>2022-03-27T10:02:12Z</time>
      </trkpt>
      <trkpt lat="44.27794" lon="5.32957">
        <ele>841.29</ele>
        <time>2022-03-27T10:02:23Z</time>
      </trkpt>
      <trkpt lat="44.27793" lon="5.32958">
        <ele>840.81</ele>
        <time>2022-03-27T10:02:32Z</time>
      </trkpt>
      <trkpt lat="44.27792" lon="5.3296">
        <ele>840.33</ele>
        <time>2022-03-27T10:02:33Z</time>
      </trkpt>
      <trkpt lat="44.2779" lon="5.32978">
        <ele>836.96</ele>
        <time>2022-03-27T10:02:38Z</time>
      </trkpt>
      <trkpt lat="44.27789" lon="5.32982">
        <ele>836.48</ele>
        <time>2022-03-27T10:02:39Z</time>
      </trkpt>
      <trkpt lat="44.27788" lon="5.32984">
        <ele>836.48</ele>
        <time>2022-03-27T10:02:40Z</time>
      </trkpt>
      <trkpt lat="44.27788" lon="5.32986">
        <ele>836</ele>
        <time>2022-03-27T10:02:41Z</time>
      </trkpt>
      <trkpt lat="44.27787" lon="5.32988">
        <ele>836</ele>
        <time>2022-03-27T10:02:42Z</time>
      </trkpt>
      <trkpt lat="44.27786" lon="5.32989">
        <ele>835.52</ele>
        <time>2022-03-27T10:02:43Z</time>
      </trkpt>
      <trkpt lat="44.27784" lon="5.3299">
        <ele>835.52</ele>
        <time>2022-03-27T10:02:44Z</time>
      </trkpt>
      <trkpt lat="44.27782" lon="5.32991">
        <ele>835.04</ele>
        <time>2022-03-27T10:02:45Z</time>
      </trkpt>
      <trkpt lat="44.27773" lon="5.32995">
        <ele>831.68</ele>
        <time>2022-03-27T10:02:49Z</time>
      </trkpt>
      <trkpt lat="44.27762" lon="5.33004">
        <ele>828.79</ele>
        <time>2022-03-27T10:02:54Z</time>
      </trkpt>
      <trkpt lat="44.27751" lon="5.33013">
        <ele>825.43</ele>
        <time>2022-03-27T10:02:59Z</time>
      </trkpt>
      <trkpt lat="44.27741" lon="5.33021">
        <ele>822.06</ele>
        <time>2022-03-27T10:03:04Z</time>
      </trkpt>
      <trkpt lat="44.27731" lon="5.33027">
        <ele>818.22</ele>
        <time>2022-03-27T10:03:08Z</time>
      </trkpt>
      <trkpt lat="44.27726" lon="5.33029">
        <ele>817.26</ele>
        <time>2022-03-27T10:03:10Z</time>
      </trkpt>
      <trkpt lat="44.27724" lon="5.3303">
        <ele>816.3</ele>
        <time>2022-03-27T10:03:12Z</time>
      </trkpt>
      <trkpt lat="44.27723" lon="5.33029">
        <ele>815.82</ele>
        <time>2022-03-27T10:03:28Z</time>
      </trkpt>
      <trkpt lat="44.27718" lon="5.33032">
        <ele>814.37</ele>
        <time>2022-03-27T10:03:39Z</time>
      </trkpt>
      <trkpt lat="44.27716" lon="5.33033">
        <ele>813.89</ele>
        <time>2022-03-27T10:03:40Z</time>
      </trkpt>
      <trkpt lat="44.27706" lon="5.33039">
        <ele>811.01</ele>
        <time>2022-03-27T10:03:44Z</time>
      </trkpt>
      <trkpt lat="44.27697" lon="5.33047">
        <ele>809.09</ele>
        <time>2022-03-27T10:03:47Z</time>
      </trkpt>
      <trkpt lat="44.27681" lon="5.33065">
        <ele>806.2</ele>
        <time>2022-03-27T10:03:52Z</time>
      </trkpt>
      <trkpt lat="44.27678" lon="5.33068">
        <ele>805.72</ele>
        <time>2022-03-27T10:03:53Z</time>
      </trkpt>
      <trkpt lat="44.27668" lon="5.33093">
        <ele>804.76</ele>
        <time>2022-03-27T10:04:02Z</time>
      </trkpt>
      <trkpt lat="44.27667" lon="5.33094">
        <ele>804.76</ele>
        <time>2022-03-27T10:04:03Z</time>
      </trkpt>
      <trkpt lat="44.27666" lon="5.33092">
        <ele>804.28</ele>
        <time>2022-03-27T10:04:06Z</time>
      </trkpt>
      <trkpt lat="44.27665" lon="5.3309">
        <ele>804.28</ele>
        <time>2022-03-27T10:04:07Z</time>
      </trkpt>
      <trkpt lat="44.27666" lon="5.33086">
        <ele>803.8</ele>
        <time>2022-03-27T10:04:18Z</time>
      </trkpt>
      <trkpt lat="44.27666" lon="5.33086">
        <ele>803.8</ele>
        <time>2022-03-27T10:04:46Z</time>
      </trkpt>
      <trkpt lat="44.27666" lon="5.33087">
        <ele>803.8</ele>
        <time>2022-03-27T10:05:15Z</time>
      </trkpt>
      <trkpt lat="44.27665" lon="5.33087">
        <ele>803.8</ele>
        <time>2022-03-27T10:05:45Z</time>
      </trkpt>
      <trkpt lat="44.27666" lon="5.33084">
        <ele>803.8</ele>
        <time>2022-03-27T10:06:01Z</time>
      </trkpt>
      <trkpt lat="44.27667" lon="5.33082">
        <ele>803.32</ele>
        <time>2022-03-27T10:06:02Z</time>
      </trkpt>
      <trkpt lat="44.2767" lon="5.33057">
        <ele>799.95</ele>
        <time>2022-03-27T10:06:10Z</time>
      </trkpt>
      <trkpt lat="44.27674" lon="5.33026">
        <ele>797.07</ele>
        <time>2022-03-27T10:06:18Z</time>
      </trkpt>
      <trkpt lat="44.27675" lon="5.33011">
        <ele>795.63</ele>
        <time>2022-03-27T10:06:22Z</time>
      </trkpt>
      <trkpt lat="44.27674" lon="5.33009">
        <ele>794.67</ele>
        <time>2022-03-27T10:06:23Z</time>
      </trkpt>
      <trkpt lat="44.27672" lon="5.33009">
        <ele>794.67</ele>
        <time>2022-03-27T10:06:24Z</time>
      </trkpt>
      <trkpt lat="44.27671" lon="5.3301">
        <ele>794.67</ele>
        <time>2022-03-27T10:06:25Z</time>
      </trkpt>
      <trkpt lat="44.27669" lon="5.3301">
        <ele>794.67</ele>
        <time>2022-03-27T10:06:26Z</time>
      </trkpt>
      <trkpt lat="44.27669" lon="5.33012">
        <ele>794.19</ele>
        <time>2022-03-27T10:06:39Z</time>
      </trkpt>
      <trkpt lat="44.27665" lon="5.33026">
        <ele>793.71</ele>
        <time>2022-03-27T10:06:55Z</time>
      </trkpt>
      <trkpt lat="44.27658" lon="5.33037">
        <ele>792.74</ele>
        <time>2022-03-27T10:07:00Z</time>
      </trkpt>
      <trkpt lat="44.27656" lon="5.33038">
        <ele>792.26</ele>
        <time>2022-03-27T10:07:01Z</time>
      </trkpt>
      <trkpt lat="44.27655" lon="5.33039">
        <ele>792.26</ele>
        <time>2022-03-27T10:07:02Z</time>
      </trkpt>
      <trkpt lat="44.27655" lon="5.33039">
        <ele>791.3</ele>
        <time>2022-03-27T10:07:12Z</time>
      </trkpt>
      <trkpt lat="44.27654" lon="5.33034">
        <ele>788.9</ele>
        <time>2022-03-27T10:07:24Z</time>
      </trkpt>
      <trkpt lat="44.27653" lon="5.33032">
        <ele>788.9</ele>
        <time>2022-03-27T10:07:26Z</time>
      </trkpt>
      <trkpt lat="44.27652" lon="5.33029">
        <ele>787.94</ele>
        <time>2022-03-27T10:07:28Z</time>
      </trkpt>
      <trkpt lat="44.27651" lon="5.33028">
        <ele>787.94</ele>
        <time>2022-03-27T10:07:29Z</time>
      </trkpt>
      <trkpt lat="44.27648" lon="5.33018">
        <ele>786.02</ele>
        <time>2022-03-27T10:07:36Z</time>
      </trkpt>
      <trkpt lat="44.27648" lon="5.3301">
        <ele>783.13</ele>
        <time>2022-03-27T10:07:48Z</time>
      </trkpt>
      <trkpt lat="44.27646" lon="5.33">
        <ele>781.21</ele>
        <time>2022-03-27T10:08:01Z</time>
      </trkpt>
      <trkpt lat="44.27647" lon="5.32998">
        <ele>780.73</ele>
        <time>2022-03-27T10:08:02Z</time>
      </trkpt>
      <trkpt lat="44.27648" lon="5.32986">
        <ele>778.32</ele>
        <time>2022-03-27T10:08:12Z</time>
      </trkpt>
      <trkpt lat="44.27647" lon="5.32983">
        <ele>777.36</ele>
        <time>2022-03-27T10:08:14Z</time>
      </trkpt>
      <trkpt lat="44.27636" lon="5.32985">
        <ele>774.96</ele>
        <time>2022-03-27T10:08:28Z</time>
      </trkpt>
      <trkpt lat="44.27635" lon="5.32986">
        <ele>774.48</ele>
        <time>2022-03-27T10:08:29Z</time>
      </trkpt>
      <trkpt lat="44.27623" lon="5.32999">
        <ele>771.11</ele>
        <time>2022-03-27T10:08:41Z</time>
      </trkpt>
      <trkpt lat="44.27612" lon="5.33011">
        <ele>767.27</ele>
        <time>2022-03-27T10:08:52Z</time>
      </trkpt>
      <trkpt lat="44.276" lon="5.33031">
        <ele>764.39</ele>
        <time>2022-03-27T10:09:06Z</time>
      </trkpt>
      <trkpt lat="44.27589" lon="5.33043">
        <ele>761.02</ele>
        <time>2022-03-27T10:09:18Z</time>
      </trkpt>
      <trkpt lat="44.27587" lon="5.33044">
        <ele>760.54</ele>
        <time>2022-03-27T10:09:20Z</time>
      </trkpt>
      <trkpt lat="44.27579" lon="5.33043">
        <ele>757.66</ele>
        <time>2022-03-27T10:09:28Z</time>
      </trkpt>
      <trkpt lat="44.27569" lon="5.3304">
        <ele>754.29</ele>
        <time>2022-03-27T10:09:37Z</time>
      </trkpt>
      <trkpt lat="44.27567" lon="5.3304">
        <ele>753.33</ele>
        <time>2022-03-27T10:09:39Z</time>
      </trkpt>
      <trkpt lat="44.27558" lon="5.33037">
        <ele>751.41</ele>
        <time>2022-03-27T10:09:52Z</time>
      </trkpt>
      <trkpt lat="44.27556" lon="5.33036">
        <ele>750.93</ele>
        <time>2022-03-27T10:09:56Z</time>
      </trkpt>
      <trkpt lat="44.27553" lon="5.33037">
        <ele>749.97</ele>
        <time>2022-03-27T10:09:59Z</time>
      </trkpt>
      <trkpt lat="44.27545" lon="5.3303">
        <ele>747.08</ele>
        <time>2022-03-27T10:10:08Z</time>
      </trkpt>
      <trkpt lat="44.27543" lon="5.33013">
        <ele>744.2</ele>
        <time>2022-03-27T10:10:18Z</time>
      </trkpt>
      <trkpt lat="44.27541" lon="5.32998">
        <ele>742.28</ele>
        <time>2022-03-27T10:10:27Z</time>
      </trkpt>
      <trkpt lat="44.27537" lon="5.32999">
        <ele>740.83</ele>
        <time>2022-03-27T10:10:34Z</time>
      </trkpt>
      <trkpt lat="44.27523" lon="5.33023">
        <ele>738.43</ele>
        <time>2022-03-27T10:10:44Z</time>
      </trkpt>
      <trkpt lat="44.27507" lon="5.33028">
        <ele>735.07</ele>
        <time>2022-03-27T10:10:51Z</time>
      </trkpt>
      <trkpt lat="44.27488" lon="5.33029">
        <ele>731.22</ele>
        <time>2022-03-27T10:10:58Z</time>
      </trkpt>
      <trkpt lat="44.27483" lon="5.3303">
        <ele>729.78</ele>
        <time>2022-03-27T10:11:00Z</time>
      </trkpt>
      <trkpt lat="44.27469" lon="5.33034">
        <ele>726.41</ele>
        <time>2022-03-27T10:11:06Z</time>
      </trkpt>
      <trkpt lat="44.27466" lon="5.33035">
        <ele>725.93</ele>
        <time>2022-03-27T10:11:08Z</time>
      </trkpt>
      <trkpt lat="44.27462" lon="5.33038">
        <ele>724.97</ele>
        <time>2022-03-27T10:11:10Z</time>
      </trkpt>
      <trkpt lat="44.27454" lon="5.3304">
        <ele>723.05</ele>
        <time>2022-03-27T10:11:15Z</time>
      </trkpt>
      <trkpt lat="44.2745" lon="5.33041">
        <ele>722.57</ele>
        <time>2022-03-27T10:11:17Z</time>
      </trkpt>
      <trkpt lat="44.2744" lon="5.33046">
        <ele>719.68</ele>
        <time>2022-03-27T10:11:22Z</time>
      </trkpt>
      <trkpt lat="44.27433" lon="5.33052">
        <ele>717.76</ele>
        <time>2022-03-27T10:11:27Z</time>
      </trkpt>
      <trkpt lat="44.27431" lon="5.33052">
        <ele>716.8</ele>
        <time>2022-03-27T10:11:31Z</time>
      </trkpt>
      <trkpt lat="44.2743" lon="5.3305">
        <ele>705.26</ele>
        <time>2022-03-27T10:11:43Z</time>
      </trkpt>
      <trkpt lat="44.2743" lon="5.3305">
        <ele>717.76</ele>
        <time>2022-03-27T10:11:44Z</time>
      </trkpt>
      <trkpt lat="44.2743" lon="5.3305">
        <ele>723.05</ele>
        <time>2022-03-27T10:11:45Z</time>
      </trkpt>
      <trkpt lat="44.2743" lon="5.3305">
        <ele>716.8</ele>
        <time>2022-03-27T10:11:46Z</time>
      </trkpt>
      <trkpt lat="44.2743" lon="5.3305">
        <ele>716.32</ele>
        <time>2022-03-27T10:12:14Z</time>
      </trkpt>
      <trkpt lat="44.2743" lon="5.33051">
        <ele>716.32</ele>
        <time>2022-03-27T10:12:18Z</time>
      </trkpt>
      <trkpt lat="44.27431" lon="5.33034">
        <ele>713.44</ele>
        <time>2022-03-27T10:12:25Z</time>
      </trkpt>
      <trkpt lat="44.27434" lon="5.3301">
        <ele>710.07</ele>
        <time>2022-03-27T10:12:31Z</time>
      </trkpt>
      <trkpt lat="44.27438" lon="5.32984">
        <ele>707.19</ele>
        <time>2022-03-27T10:12:37Z</time>
      </trkpt>
      <trkpt lat="44.27443" lon="5.32959">
        <ele>703.82</ele>
        <time>2022-03-27T10:12:43Z</time>
      </trkpt>
      <trkpt lat="44.27449" lon="5.32947">
        <ele>700.94</ele>
        <time>2022-03-27T10:12:47Z</time>
      </trkpt>
      <trkpt lat="44.2744" lon="5.32904">
        <ele>699.5</ele>
        <time>2022-03-27T10:12:57Z</time>
      </trkpt>
      <trkpt lat="44.27438" lon="5.32895">
        <ele>699.5</ele>
        <time>2022-03-27T10:13:06Z</time>
      </trkpt>
      <trkpt lat="44.27439" lon="5.32894">
        <ele>699.5</ele>
        <time>2022-03-27T10:13:10Z</time>
      </trkpt>
      <trkpt lat="44.2744" lon="5.32892">
        <ele>699.98</ele>
        <time>2022-03-27T10:13:12Z</time>
      </trkpt>
      <trkpt lat="44.27446" lon="5.32885">
        <ele>700.94</ele>
        <time>2022-03-27T10:13:19Z</time>
      </trkpt>
      <trkpt lat="44.27446" lon="5.32884">
        <ele>700.94</ele>
        <time>2022-03-27T10:13:20Z</time>
      </trkpt>
      <trkpt lat="44.27446" lon="5.32885">
        <ele>699.98</ele>
        <time>2022-03-27T10:13:33Z</time>
      </trkpt>
      <trkpt lat="44.27445" lon="5.32885">
        <ele>699.98</ele>
        <time>2022-03-27T10:14:08Z</time>
      </trkpt>
      <trkpt lat="44.27445" lon="5.32885">
        <ele>699.98</ele>
        <time>2022-03-27T10:14:47Z</time>
      </trkpt>
      <trkpt lat="44.27445" lon="5.32885">
        <ele>699.98</ele>
        <time>2022-03-27T10:15:21Z</time>
      </trkpt>
      <trkpt lat="44.27446" lon="5.32885">
        <ele>699.5</ele>
        <time>2022-03-27T10:15:54Z</time>
      </trkpt>
      <trkpt lat="44.27446" lon="5.32884">
        <ele>699.5</ele>
        <time>2022-03-27T10:16:34Z</time>
      </trkpt>
      <trkpt lat="44.27446" lon="5.32884">
        <ele>699.5</ele>
        <time>2022-03-27T10:17:14Z</time>
      </trkpt>
      <trkpt lat="44.27446" lon="5.32885">
        <ele>699.02</ele>
        <time>2022-03-27T10:17:57Z</time>
      </trkpt>
      <trkpt lat="44.27446" lon="5.32885">
        <ele>699.02</ele>
        <time>2022-03-27T10:18:00Z</time>
      </trkpt>
      <trkpt lat="44.27438" lon="5.32873">
        <ele>699.02</ele>
        <time>2022-03-27T10:32:25Z</time>
      </trkpt>
      <trkpt lat="44.2744" lon="5.32875">
        <ele>698.53</ele>
        <time>2022-03-27T10:32:26Z</time>
      </trkpt>
      <trkpt lat="44.27443" lon="5.32881">
        <ele>701.42</ele>
        <time>2022-03-27T10:32:50Z</time>
      </trkpt>
      <trkpt lat="44.27442" lon="5.32884">
        <ele>701.42</ele>
        <time>2022-03-27T10:33:14Z</time>
      </trkpt>
      <trkpt lat="44.27437" lon="5.32891">
        <ele>700.46</ele>
        <time>2022-03-27T10:33:21Z</time>
      </trkpt>
      <trkpt lat="44.27426" lon="5.32846">
        <ele>696.61</ele>
        <time>2022-03-27T10:33:33Z</time>
      </trkpt>
      <trkpt lat="44.2744" lon="5.32805">
        <ele>694.69</ele>
        <time>2022-03-27T10:33:43Z</time>
      </trkpt>
      <trkpt lat="44.27467" lon="5.32787">
        <ele>691.33</ele>
        <time>2022-03-27T10:33:52Z</time>
      </trkpt>
      <trkpt lat="44.27472" lon="5.32781">
        <ele>690.84</ele>
        <time>2022-03-27T10:33:54Z</time>
      </trkpt>
      <trkpt lat="44.27478" lon="5.3277">
        <ele>689.4</ele>
        <time>2022-03-27T10:33:57Z</time>
      </trkpt>
      <trkpt lat="44.27493" lon="5.32741">
        <ele>686.04</ele>
        <time>2022-03-27T10:34:04Z</time>
      </trkpt>
      <trkpt lat="44.27519" lon="5.32718">
        <ele>684.12</ele>
        <time>2022-03-27T10:34:14Z</time>
      </trkpt>
      <trkpt lat="44.2753" lon="5.32704">
        <ele>680.75</ele>
        <time>2022-03-27T10:34:19Z</time>
      </trkpt>
      <trkpt lat="44.27539" lon="5.32682">
        <ele>677.39</ele>
        <time>2022-03-27T10:34:25Z</time>
      </trkpt>
      <trkpt lat="44.27541" lon="5.32668">
        <ele>673.06</ele>
        <time>2022-03-27T10:34:28Z</time>
      </trkpt>
      <trkpt lat="44.27544" lon="5.32655">
        <ele>671.14</ele>
        <time>2022-03-27T10:34:31Z</time>
      </trkpt>
      <trkpt lat="44.27544" lon="5.32649">
        <ele>670.18</ele>
        <time>2022-03-27T10:34:32Z</time>
      </trkpt>
      <trkpt lat="44.27545" lon="5.32627">
        <ele>666.81</ele>
        <time>2022-03-27T10:34:37Z</time>
      </trkpt>
      <trkpt lat="44.27547" lon="5.32608">
        <ele>663.45</ele>
        <time>2022-03-27T10:34:41Z</time>
      </trkpt>
      <trkpt lat="44.27549" lon="5.326">
        <ele>662.49</ele>
        <time>2022-03-27T10:34:43Z</time>
      </trkpt>
      <trkpt lat="44.27547" lon="5.32575">
        <ele>659.6</ele>
        <time>2022-03-27T10:34:49Z</time>
      </trkpt>
      <trkpt lat="44.27544" lon="5.32554">
        <ele>655.76</ele>
        <time>2022-03-27T10:34:52Z</time>
      </trkpt>
      <trkpt lat="44.27545" lon="5.32547">
        <ele>653.83</ele>
        <time>2022-03-27T10:34:53Z</time>
      </trkpt>
      <trkpt lat="44.27545" lon="5.32539">
        <ele>653.35</ele>
        <time>2022-03-27T10:34:54Z</time>
      </trkpt>
      <trkpt lat="44.27546" lon="5.32533">
        <ele>654.31</ele>
        <time>2022-03-27T10:34:55Z</time>
      </trkpt>
      <trkpt lat="44.27547" lon="5.32529">
        <ele>655.28</ele>
        <time>2022-03-27T10:34:56Z</time>
      </trkpt>
      <trkpt lat="44.27548" lon="5.32525">
        <ele>655.76</ele>
        <time>2022-03-27T10:34:57Z</time>
      </trkpt>
      <trkpt lat="44.27557" lon="5.32473">
        <ele>654.31</ele>
        <time>2022-03-27T10:35:11Z</time>
      </trkpt>
      <trkpt lat="44.27557" lon="5.32448">
        <ele>650.95</ele>
        <time>2022-03-27T10:35:18Z</time>
      </trkpt>
      <trkpt lat="44.27549" lon="5.3241">
        <ele>647.59</ele>
        <time>2022-03-27T10:35:25Z</time>
      </trkpt>
      <trkpt lat="44.27548" lon="5.32398">
        <ele>647.59</ele>
        <time>2022-03-27T10:35:27Z</time>
      </trkpt>
      <trkpt lat="44.27547" lon="5.32393">
        <ele>647.59</ele>
        <time>2022-03-27T10:35:28Z</time>
      </trkpt>
      <trkpt lat="44.27548" lon="5.32333">
        <ele>647.59</ele>
        <time>2022-03-27T10:35:41Z</time>
      </trkpt>
      <trkpt lat="44.27547" lon="5.32325">
        <ele>647.59</ele>
        <time>2022-03-27T10:35:54Z</time>
      </trkpt>
      <trkpt lat="44.27546" lon="5.32326">
        <ele>647.1</ele>
        <time>2022-03-27T10:36:33Z</time>
      </trkpt>
      <trkpt lat="44.27546" lon="5.32323">
        <ele>647.1</ele>
        <time>2022-03-27T10:36:53Z</time>
      </trkpt>
      <trkpt lat="44.27546" lon="5.32321">
        <ele>647.1</ele>
        <time>2022-03-27T10:36:54Z</time>
      </trkpt>
      <trkpt lat="44.27546" lon="5.32318">
        <ele>647.1</ele>
        <time>2022-03-27T10:36:55Z</time>
      </trkpt>
      <trkpt lat="44.27546" lon="5.32315">
        <ele>647.1</ele>
        <time>2022-03-27T10:36:56Z</time>
      </trkpt>
      <trkpt lat="44.27546" lon="5.32312">
        <ele>646.62</ele>
        <time>2022-03-27T10:36:57Z</time>
      </trkpt>
      <trkpt lat="44.2756" lon="5.32268">
        <ele>645.18</ele>
        <time>2022-03-27T10:37:07Z</time>
      </trkpt>
      <trkpt lat="44.27583" lon="5.32237">
        <ele>645.66</ele>
        <time>2022-03-27T10:37:20Z</time>
      </trkpt>
      <trkpt lat="44.27603" lon="5.32188">
        <ele>642.78</ele>
        <time>2022-03-27T10:37:33Z</time>
      </trkpt>
      <trkpt lat="44.2762" lon="5.32122">
        <ele>641.82</ele>
        <time>2022-03-27T10:37:48Z</time>
      </trkpt>
      <trkpt lat="44.2763" lon="5.32058">
        <ele>638.45</ele>
        <time>2022-03-27T10:38:04Z</time>
      </trkpt>
      <trkpt lat="44.27641" lon="5.32005">
        <ele>635.57</ele>
        <time>2022-03-27T10:38:16Z</time>
      </trkpt>
      <trkpt lat="44.27663" lon="5.31954">
        <ele>633.17</ele>
        <time>2022-03-27T10:38:28Z</time>
      </trkpt>
      <trkpt lat="44.27679" lon="5.31939">
        <ele>629.8</ele>
        <time>2022-03-27T10:38:34Z</time>
      </trkpt>
      <trkpt lat="44.27677" lon="5.31903">
        <ele>626.44</ele>
        <time>2022-03-27T10:38:42Z</time>
      </trkpt>
      <trkpt lat="44.27669" lon="5.31873">
        <ele>624.51</ele>
        <time>2022-03-27T10:38:48Z</time>
      </trkpt>
      <trkpt lat="44.27666" lon="5.3187">
        <ele>624.51</ele>
        <time>2022-03-27T10:38:49Z</time>
      </trkpt>
      <trkpt lat="44.27663" lon="5.3187">
        <ele>624.03</ele>
        <time>2022-03-27T10:38:50Z</time>
      </trkpt>
      <trkpt lat="44.27661" lon="5.31873">
        <ele>623.07</ele>
        <time>2022-03-27T10:38:51Z</time>
      </trkpt>
      <trkpt lat="44.2766" lon="5.31876">
        <ele>622.59</ele>
        <time>2022-03-27T10:38:52Z</time>
      </trkpt>
      <trkpt lat="44.27659" lon="5.31879">
        <ele>622.11</ele>
        <time>2022-03-27T10:38:53Z</time>
      </trkpt>
      <trkpt lat="44.27651" lon="5.31903">
        <ele>619.71</ele>
        <time>2022-03-27T10:39:00Z</time>
      </trkpt>
      <trkpt lat="44.27648" lon="5.31903">
        <ele>619.71</ele>
        <time>2022-03-27T10:39:01Z</time>
      </trkpt>
      <trkpt lat="44.27646" lon="5.31902">
        <ele>619.23</ele>
        <time>2022-03-27T10:39:02Z</time>
      </trkpt>
      <trkpt lat="44.27644" lon="5.319">
        <ele>618.75</ele>
        <time>2022-03-27T10:39:03Z</time>
      </trkpt>
      <trkpt lat="44.27642" lon="5.31897">
        <ele>618.26</ele>
        <time>2022-03-27T10:39:04Z</time>
      </trkpt>
      <trkpt lat="44.2764" lon="5.31893">
        <ele>617.78</ele>
        <time>2022-03-27T10:39:05Z</time>
      </trkpt>
      <trkpt lat="44.27638" lon="5.31889">
        <ele>617.3</ele>
        <time>2022-03-27T10:39:06Z</time>
      </trkpt>
      <trkpt lat="44.27636" lon="5.31884">
        <ele>616.82</ele>
        <time>2022-03-27T10:39:07Z</time>
      </trkpt>
      <trkpt lat="44.27635" lon="5.31879">
        <ele>616.82</ele>
        <time>2022-03-27T10:39:08Z</time>
      </trkpt>
      <trkpt lat="44.27634" lon="5.31875">
        <ele>616.82</ele>
        <time>2022-03-27T10:39:09Z</time>
      </trkpt>
      <trkpt lat="44.27634" lon="5.31871">
        <ele>616.34</ele>
        <time>2022-03-27T10:39:10Z</time>
      </trkpt>
      <trkpt lat="44.27634" lon="5.31867">
        <ele>616.34</ele>
        <time>2022-03-27T10:39:11Z</time>
      </trkpt>
      <trkpt lat="44.27635" lon="5.31863">
        <ele>615.86</ele>
        <time>2022-03-27T10:39:12Z</time>
      </trkpt>
      <trkpt lat="44.27635" lon="5.31859">
        <ele>615.38</ele>
        <time>2022-03-27T10:39:13Z</time>
      </trkpt>
      <trkpt lat="44.2764" lon="5.31822">
        <ele>612.98</ele>
        <time>2022-03-27T10:39:25Z</time>
      </trkpt>
      <trkpt lat="44.2764" lon="5.31814">
        <ele>611.54</ele>
        <time>2022-03-27T10:39:29Z</time>
      </trkpt>
      <trkpt lat="44.2764" lon="5.31812">
        <ele>611.54</ele>
        <time>2022-03-27T10:39:30Z</time>
      </trkpt>
      <trkpt lat="44.2764" lon="5.3181">
        <ele>611.06</ele>
        <time>2022-03-27T10:39:31Z</time>
      </trkpt>
      <trkpt lat="44.27639" lon="5.31807">
        <ele>610.57</ele>
        <time>2022-03-27T10:39:45Z</time>
      </trkpt>
      <trkpt lat="44.2764" lon="5.31807">
        <ele>610.57</ele>
        <time>2022-03-27T10:40:19Z</time>
      </trkpt>
      <trkpt lat="44.2764" lon="5.31805">
        <ele>610.57</ele>
        <time>2022-03-27T10:40:30Z</time>
      </trkpt>
      <trkpt lat="44.2764" lon="5.31803">
        <ele>610.09</ele>
        <time>2022-03-27T10:40:31Z</time>
      </trkpt>
      <trkpt lat="44.2764" lon="5.31799">
        <ele>609.61</ele>
        <time>2022-03-27T10:40:32Z</time>
      </trkpt>
      <trkpt lat="44.2764" lon="5.31795">
        <ele>609.13</ele>
        <time>2022-03-27T10:40:33Z</time>
      </trkpt>
      <trkpt lat="44.27638" lon="5.31791">
        <ele>607.69</ele>
        <time>2022-03-27T10:40:34Z</time>
      </trkpt>
      <trkpt lat="44.27636" lon="5.31787">
        <ele>606.73</ele>
        <time>2022-03-27T10:40:35Z</time>
      </trkpt>
      <trkpt lat="44.27632" lon="5.31784">
        <ele>606.25</ele>
        <time>2022-03-27T10:40:36Z</time>
      </trkpt>
      <trkpt lat="44.27629" lon="5.31781">
        <ele>605.29</ele>
        <time>2022-03-27T10:40:37Z</time>
      </trkpt>
      <trkpt lat="44.27626" lon="5.31779">
        <ele>604.81</ele>
        <time>2022-03-27T10:40:38Z</time>
      </trkpt>
      <trkpt lat="44.27611" lon="5.31761">
        <ele>601.44</ele>
        <time>2022-03-27T10:40:44Z</time>
      </trkpt>
      <trkpt lat="44.27611" lon="5.31756">
        <ele>600.96</ele>
        <time>2022-03-27T10:40:45Z</time>
      </trkpt>
      <trkpt lat="44.27611" lon="5.31751">
        <ele>600</ele>
        <time>2022-03-27T10:40:46Z</time>
      </trkpt>
      <trkpt lat="44.27612" lon="5.31746">
        <ele>599.52</ele>
        <time>2022-03-27T10:40:47Z</time>
      </trkpt>
      <trkpt lat="44.27614" lon="5.3174">
        <ele>598.56</ele>
        <time>2022-03-27T10:40:48Z</time>
      </trkpt>
      <trkpt lat="44.27616" lon="5.31735">
        <ele>597.6</ele>
        <time>2022-03-27T10:40:49Z</time>
      </trkpt>
      <trkpt lat="44.27618" lon="5.31729">
        <ele>596.64</ele>
        <time>2022-03-27T10:40:50Z</time>
      </trkpt>
      <trkpt lat="44.27621" lon="5.31725">
        <ele>596.15</ele>
        <time>2022-03-27T10:40:51Z</time>
      </trkpt>
      <trkpt lat="44.27624" lon="5.3172">
        <ele>595.19</ele>
        <time>2022-03-27T10:40:52Z</time>
      </trkpt>
      <trkpt lat="44.27627" lon="5.31715">
        <ele>594.71</ele>
        <time>2022-03-27T10:40:53Z</time>
      </trkpt>
      <trkpt lat="44.27629" lon="5.3171">
        <ele>593.75</ele>
        <time>2022-03-27T10:40:54Z</time>
      </trkpt>
      <trkpt lat="44.27631" lon="5.31704">
        <ele>593.27</ele>
        <time>2022-03-27T10:40:55Z</time>
      </trkpt>
      <trkpt lat="44.2764" lon="5.31691">
        <ele>594.23</ele>
        <time>2022-03-27T10:40:59Z</time>
      </trkpt>
      <trkpt lat="44.27648" lon="5.31692">
        <ele>595.67</ele>
        <time>2022-03-27T10:41:07Z</time>
      </trkpt>
      <trkpt lat="44.27647" lon="5.31696">
        <ele>596.15</ele>
        <time>2022-03-27T10:41:21Z</time>
      </trkpt>
    </trkseg>
  </trk>
</gpx>